<?xml version="1.0" encoding="UTF-8" standalone="no" ?>
<gpx xmlns="http://www.topografix.com/GPX/1/1" xmlns:xsi="http://www.w3.org/2001/XMLSchema-instance" xsi:schemaLocation="http://www.topografix.com/GPX/1/1 http://www.topografix.com/GPX/1/1/gpx.xsd" version="1.1" creator="VisuGPX - https://www.visugpx.com">
  <metadata>
    <name>Randonnée autour de Versailles (78)</name>
    <desc><![CDATA[Randonnée de 19 km en boucle à partir de la gare de Versailles-Rive-Droite]]></desc>
  </metadata>
  <trk>
    <name><![CDATA[Randonnée autour de Versailles_R]]></name>
    <trkseg>
      <trkpt lat="48.80975" lon="2.13412">
        <ele>121.52</ele>
        <time>2017-12-17T08:33:45Z</time>
      </trkpt>
      <trkpt lat="48.80975" lon="2.13412">
        <ele>121.21</ele>
        <time>2017-12-17T08:34:34Z</time>
      </trkpt>
      <trkpt lat="48.80976" lon="2.13408">
        <ele>120.57</ele>
        <time>2017-12-17T08:35:09Z</time>
      </trkpt>
      <trkpt lat="48.80976" lon="2.13405">
        <ele>120.33</ele>
        <time>2017-12-17T08:35:12Z</time>
      </trkpt>
      <trkpt lat="48.80972" lon="2.13386">
        <ele>120.26</ele>
        <time>2017-12-17T08:35:27Z</time>
      </trkpt>
      <trkpt lat="48.80967" lon="2.13378">
        <ele>120.79</ele>
        <time>2017-12-17T08:35:40Z</time>
      </trkpt>
      <trkpt lat="48.80949" lon="2.1337">
        <ele>120.6</ele>
        <time>2017-12-17T08:35:54Z</time>
      </trkpt>
      <trkpt lat="48.80947" lon="2.13368">
        <ele>120.54</ele>
        <time>2017-12-17T08:35:57Z</time>
      </trkpt>
      <trkpt lat="48.80938" lon="2.13356">
        <ele>120.32</ele>
        <time>2017-12-17T08:36:13Z</time>
      </trkpt>
      <trkpt lat="48.80932" lon="2.13352">
        <ele>121.01</ele>
        <time>2017-12-17T08:36:20Z</time>
      </trkpt>
      <trkpt lat="48.80913" lon="2.13355">
        <ele>120.71</ele>
        <time>2017-12-17T08:36:36Z</time>
      </trkpt>
      <trkpt lat="48.80906" lon="2.13335">
        <ele>120.77</ele>
        <time>2017-12-17T08:36:50Z</time>
      </trkpt>
      <trkpt lat="48.809" lon="2.13321">
        <ele>120.15</ele>
        <time>2017-12-17T08:37:05Z</time>
      </trkpt>
      <trkpt lat="48.80892" lon="2.13321">
        <ele>120.7</ele>
        <time>2017-12-17T08:37:09Z</time>
      </trkpt>
      <trkpt lat="48.80875" lon="2.13321">
        <ele>120.26</ele>
        <time>2017-12-17T08:37:25Z</time>
      </trkpt>
      <trkpt lat="48.80872" lon="2.13319">
        <ele>120.25</ele>
        <time>2017-12-17T08:37:28Z</time>
      </trkpt>
      <trkpt lat="48.80862" lon="2.13316">
        <ele>120.24</ele>
        <time>2017-12-17T08:37:39Z</time>
      </trkpt>
      <trkpt lat="48.80847" lon="2.13305">
        <ele>120.52</ele>
        <time>2017-12-17T08:37:56Z</time>
      </trkpt>
      <trkpt lat="48.80844" lon="2.13304">
        <ele>120.52</ele>
        <time>2017-12-17T08:37:58Z</time>
      </trkpt>
      <trkpt lat="48.8084" lon="2.13301">
        <ele>121.14</ele>
        <time>2017-12-17T08:38:01Z</time>
      </trkpt>
      <trkpt lat="48.80832" lon="2.13302">
        <ele>121.24</ele>
        <time>2017-12-17T08:38:07Z</time>
      </trkpt>
      <trkpt lat="48.8083" lon="2.13296">
        <ele>120.59</ele>
        <time>2017-12-17T08:38:12Z</time>
      </trkpt>
      <trkpt lat="48.80831" lon="2.1328">
        <ele>120.37</ele>
        <time>2017-12-17T08:38:25Z</time>
      </trkpt>
      <trkpt lat="48.8083" lon="2.13276">
        <ele>120.4</ele>
        <time>2017-12-17T08:38:27Z</time>
      </trkpt>
      <trkpt lat="48.80831" lon="2.13236">
        <ele>119.58</ele>
        <time>2017-12-17T08:38:48Z</time>
      </trkpt>
      <trkpt lat="48.80833" lon="2.13198">
        <ele>119.07</ele>
        <time>2017-12-17T08:39:09Z</time>
      </trkpt>
      <trkpt lat="48.80838" lon="2.13161">
        <ele>118.27</ele>
        <time>2017-12-17T08:39:31Z</time>
      </trkpt>
      <trkpt lat="48.80844" lon="2.13136">
        <ele>118.05</ele>
        <time>2017-12-17T08:39:46Z</time>
      </trkpt>
      <trkpt lat="48.80846" lon="2.13109">
        <ele>118.19</ele>
        <time>2017-12-17T08:40:00Z</time>
      </trkpt>
      <trkpt lat="48.80847" lon="2.13086">
        <ele>117.83</ele>
        <time>2017-12-17T08:40:13Z</time>
      </trkpt>
      <trkpt lat="48.80847" lon="2.13077">
        <ele>117.79</ele>
        <time>2017-12-17T08:40:17Z</time>
      </trkpt>
      <trkpt lat="48.80849" lon="2.1305">
        <ele>117.66</ele>
        <time>2017-12-17T08:40:34Z</time>
      </trkpt>
      <trkpt lat="48.80851" lon="2.13036">
        <ele>117.78</ele>
        <time>2017-12-17T08:40:43Z</time>
      </trkpt>
      <trkpt lat="48.80852" lon="2.13008">
        <ele>116.49</ele>
        <time>2017-12-17T08:41:00Z</time>
      </trkpt>
      <trkpt lat="48.80857" lon="2.1298">
        <ele>116.35</ele>
        <time>2017-12-17T08:41:19Z</time>
      </trkpt>
      <trkpt lat="48.80859" lon="2.12956">
        <ele>116.41</ele>
        <time>2017-12-17T08:41:35Z</time>
      </trkpt>
      <trkpt lat="48.80858" lon="2.12956">
        <ele>116.17</ele>
        <time>2017-12-17T08:41:36Z</time>
      </trkpt>
      <trkpt lat="48.80851" lon="2.12945">
        <ele>116.08</ele>
        <time>2017-12-17T08:41:43Z</time>
      </trkpt>
      <trkpt lat="48.80848" lon="2.12929">
        <ele>116.02</ele>
        <time>2017-12-17T08:41:58Z</time>
      </trkpt>
      <trkpt lat="48.80847" lon="2.12917">
        <ele>116.48</ele>
        <time>2017-12-17T08:42:05Z</time>
      </trkpt>
      <trkpt lat="48.80831" lon="2.12893">
        <ele>116.31</ele>
        <time>2017-12-17T08:42:22Z</time>
      </trkpt>
      <trkpt lat="48.80818" lon="2.12881">
        <ele>116.95</ele>
        <time>2017-12-17T08:42:40Z</time>
      </trkpt>
      <trkpt lat="48.80793" lon="2.12874">
        <ele>116.33</ele>
        <time>2017-12-17T08:43:02Z</time>
      </trkpt>
      <trkpt lat="48.80772" lon="2.12849">
        <ele>116.1</ele>
        <time>2017-12-17T08:43:21Z</time>
      </trkpt>
      <trkpt lat="48.80764" lon="2.12847">
        <ele>116.35</ele>
        <time>2017-12-17T08:43:33Z</time>
      </trkpt>
      <trkpt lat="48.80764" lon="2.12846">
        <ele>116.11</ele>
        <time>2017-12-17T08:43:36Z</time>
      </trkpt>
      <trkpt lat="48.80768" lon="2.12834">
        <ele>115.94</ele>
        <time>2017-12-17T08:43:46Z</time>
      </trkpt>
      <trkpt lat="48.80775" lon="2.12813">
        <ele>116.21</ele>
        <time>2017-12-17T08:43:59Z</time>
      </trkpt>
      <trkpt lat="48.80777" lon="2.12798">
        <ele>115.23</ele>
        <time>2017-12-17T08:44:11Z</time>
      </trkpt>
      <trkpt lat="48.80779" lon="2.12792">
        <ele>115.28</ele>
        <time>2017-12-17T08:44:14Z</time>
      </trkpt>
      <trkpt lat="48.80786" lon="2.12765">
        <ele>115.03</ele>
        <time>2017-12-17T08:44:30Z</time>
      </trkpt>
      <trkpt lat="48.80798" lon="2.12748">
        <ele>114.49</ele>
        <time>2017-12-17T08:44:45Z</time>
      </trkpt>
      <trkpt lat="48.80806" lon="2.12727">
        <ele>114.65</ele>
        <time>2017-12-17T08:44:58Z</time>
      </trkpt>
      <trkpt lat="48.80812" lon="2.12709">
        <ele>114.19</ele>
        <time>2017-12-17T08:45:12Z</time>
      </trkpt>
      <trkpt lat="48.80818" lon="2.12698">
        <ele>113.76</ele>
        <time>2017-12-17T08:45:22Z</time>
      </trkpt>
      <trkpt lat="48.80824" lon="2.12671">
        <ele>112.78</ele>
        <time>2017-12-17T08:45:39Z</time>
      </trkpt>
      <trkpt lat="48.80828" lon="2.12651">
        <ele>113.09</ele>
        <time>2017-12-17T08:45:53Z</time>
      </trkpt>
      <trkpt lat="48.80833" lon="2.12613">
        <ele>112.41</ele>
        <time>2017-12-17T08:46:13Z</time>
      </trkpt>
      <trkpt lat="48.80834" lon="2.12606">
        <ele>112.18</ele>
        <time>2017-12-17T08:46:19Z</time>
      </trkpt>
      <trkpt lat="48.80838" lon="2.126">
        <ele>112</ele>
        <time>2017-12-17T08:46:23Z</time>
      </trkpt>
      <trkpt lat="48.80845" lon="2.12567">
        <ele>112.64</ele>
        <time>2017-12-17T08:46:41Z</time>
      </trkpt>
      <trkpt lat="48.80845" lon="2.12565">
        <ele>111.94</ele>
        <time>2017-12-17T08:46:42Z</time>
      </trkpt>
      <trkpt lat="48.80852" lon="2.12547">
        <ele>111.74</ele>
        <time>2017-12-17T08:46:54Z</time>
      </trkpt>
      <trkpt lat="48.80854" lon="2.12539">
        <ele>111.78</ele>
        <time>2017-12-17T08:47:00Z</time>
      </trkpt>
      <trkpt lat="48.80856" lon="2.1253">
        <ele>111.69</ele>
        <time>2017-12-17T08:47:05Z</time>
      </trkpt>
      <trkpt lat="48.80854" lon="2.12517">
        <ele>111.65</ele>
        <time>2017-12-17T08:47:11Z</time>
      </trkpt>
      <trkpt lat="48.80862" lon="2.12511">
        <ele>111.63</ele>
        <time>2017-12-17T08:47:19Z</time>
      </trkpt>
      <trkpt lat="48.80866" lon="2.12506">
        <ele>111.21</ele>
        <time>2017-12-17T08:47:41Z</time>
      </trkpt>
      <trkpt lat="48.80869" lon="2.1249">
        <ele>111.4</ele>
        <time>2017-12-17T08:47:56Z</time>
      </trkpt>
      <trkpt lat="48.8086" lon="2.12478">
        <ele>111.71</ele>
        <time>2017-12-17T08:48:11Z</time>
      </trkpt>
      <trkpt lat="48.80846" lon="2.12472">
        <ele>111.6</ele>
        <time>2017-12-17T08:48:29Z</time>
      </trkpt>
      <trkpt lat="48.80835" lon="2.12466">
        <ele>112.05</ele>
        <time>2017-12-17T08:48:39Z</time>
      </trkpt>
      <trkpt lat="48.80816" lon="2.12451">
        <ele>112.04</ele>
        <time>2017-12-17T08:48:59Z</time>
      </trkpt>
      <trkpt lat="48.80803" lon="2.12444">
        <ele>112.19</ele>
        <time>2017-12-17T08:49:14Z</time>
      </trkpt>
      <trkpt lat="48.80789" lon="2.1242">
        <ele>112.67</ele>
        <time>2017-12-17T08:49:35Z</time>
      </trkpt>
      <trkpt lat="48.80771" lon="2.12411">
        <ele>112.88</ele>
        <time>2017-12-17T08:49:53Z</time>
      </trkpt>
      <trkpt lat="48.80755" lon="2.12382">
        <ele>113.71</ele>
        <time>2017-12-17T08:50:13Z</time>
      </trkpt>
      <trkpt lat="48.8073" lon="2.1238">
        <ele>114.47</ele>
        <time>2017-12-17T08:50:34Z</time>
      </trkpt>
      <trkpt lat="48.80717" lon="2.12379">
        <ele>115.09</ele>
        <time>2017-12-17T08:50:49Z</time>
      </trkpt>
      <trkpt lat="48.80698" lon="2.12361">
        <ele>115.89</ele>
        <time>2017-12-17T08:51:13Z</time>
      </trkpt>
      <trkpt lat="48.80674" lon="2.12356">
        <ele>117.54</ele>
        <time>2017-12-17T08:51:34Z</time>
      </trkpt>
      <trkpt lat="48.80651" lon="2.12351">
        <ele>118.51</ele>
        <time>2017-12-17T08:51:56Z</time>
      </trkpt>
      <trkpt lat="48.80627" lon="2.12328">
        <ele>119.77</ele>
        <time>2017-12-17T08:52:19Z</time>
      </trkpt>
      <trkpt lat="48.8061" lon="2.1231">
        <ele>119.12</ele>
        <time>2017-12-17T08:52:34Z</time>
      </trkpt>
      <trkpt lat="48.80598" lon="2.12296">
        <ele>120.13</ele>
        <time>2017-12-17T08:52:50Z</time>
      </trkpt>
      <trkpt lat="48.80579" lon="2.12279">
        <ele>121.01</ele>
        <time>2017-12-17T08:53:11Z</time>
      </trkpt>
      <trkpt lat="48.80574" lon="2.12275">
        <ele>121.3</ele>
        <time>2017-12-17T08:53:16Z</time>
      </trkpt>
      <trkpt lat="48.80555" lon="2.12261">
        <ele>121.88</ele>
        <time>2017-12-17T08:53:36Z</time>
      </trkpt>
      <trkpt lat="48.80536" lon="2.12269">
        <ele>121.52</ele>
        <time>2017-12-17T08:53:49Z</time>
      </trkpt>
      <trkpt lat="48.80523" lon="2.12274">
        <ele>122.47</ele>
        <time>2017-12-17T08:53:58Z</time>
      </trkpt>
      <trkpt lat="48.80514" lon="2.12258">
        <ele>122.3</ele>
        <time>2017-12-17T08:54:17Z</time>
      </trkpt>
      <trkpt lat="48.80502" lon="2.1224">
        <ele>123.42</ele>
        <time>2017-12-17T08:54:31Z</time>
      </trkpt>
      <trkpt lat="48.80489" lon="2.12231">
        <ele>126.45</ele>
        <time>2017-12-17T08:54:46Z</time>
      </trkpt>
      <trkpt lat="48.80485" lon="2.1223">
        <ele>126.31</ele>
        <time>2017-12-17T08:55:01Z</time>
      </trkpt>
      <trkpt lat="48.80481" lon="2.12241">
        <ele>125.49</ele>
        <time>2017-12-17T08:55:24Z</time>
      </trkpt>
      <trkpt lat="48.80476" lon="2.12239">
        <ele>126.36</ele>
        <time>2017-12-17T08:55:41Z</time>
      </trkpt>
      <trkpt lat="48.80471" lon="2.12239">
        <ele>125.86</ele>
        <time>2017-12-17T08:55:59Z</time>
      </trkpt>
      <trkpt lat="48.80473" lon="2.12238">
        <ele>126.3</ele>
        <time>2017-12-17T08:56:19Z</time>
      </trkpt>
      <trkpt lat="48.80474" lon="2.12238">
        <ele>125.86</ele>
        <time>2017-12-17T08:56:31Z</time>
      </trkpt>
      <trkpt lat="48.80471" lon="2.12243">
        <ele>126.61</ele>
        <time>2017-12-17T08:56:49Z</time>
      </trkpt>
      <trkpt lat="48.80469" lon="2.12245">
        <ele>126.26</ele>
        <time>2017-12-17T08:57:09Z</time>
      </trkpt>
      <trkpt lat="48.8047" lon="2.12245">
        <ele>125.65</ele>
        <time>2017-12-17T08:57:36Z</time>
      </trkpt>
      <trkpt lat="48.80468" lon="2.12247">
        <ele>126.04</ele>
        <time>2017-12-17T08:58:05Z</time>
      </trkpt>
      <trkpt lat="48.80456" lon="2.12246">
        <ele>125.63</ele>
        <time>2017-12-17T08:58:18Z</time>
      </trkpt>
      <trkpt lat="48.8044" lon="2.12244">
        <ele>126.47</ele>
        <time>2017-12-17T08:58:34Z</time>
      </trkpt>
      <trkpt lat="48.80439" lon="2.12243">
        <ele>126.54</ele>
        <time>2017-12-17T08:58:36Z</time>
      </trkpt>
      <trkpt lat="48.80436" lon="2.12242">
        <ele>126.72</ele>
        <time>2017-12-17T08:58:39Z</time>
      </trkpt>
      <trkpt lat="48.8043" lon="2.12237">
        <ele>126.36</ele>
        <time>2017-12-17T08:58:46Z</time>
      </trkpt>
      <trkpt lat="48.80423" lon="2.12225">
        <ele>127.15</ele>
        <time>2017-12-17T08:59:04Z</time>
      </trkpt>
      <trkpt lat="48.80418" lon="2.12225">
        <ele>126.38</ele>
        <time>2017-12-17T08:59:16Z</time>
      </trkpt>
      <trkpt lat="48.80411" lon="2.12219">
        <ele>126.53</ele>
        <time>2017-12-17T08:59:24Z</time>
      </trkpt>
      <trkpt lat="48.80393" lon="2.12205">
        <ele>125.39</ele>
        <time>2017-12-17T08:59:43Z</time>
      </trkpt>
      <trkpt lat="48.80391" lon="2.12206">
        <ele>126.38</ele>
        <time>2017-12-17T08:59:53Z</time>
      </trkpt>
      <trkpt lat="48.80388" lon="2.12218">
        <ele>125.81</ele>
        <time>2017-12-17T09:00:05Z</time>
      </trkpt>
      <trkpt lat="48.80387" lon="2.12226">
        <ele>126.44</ele>
        <time>2017-12-17T09:00:11Z</time>
      </trkpt>
      <trkpt lat="48.80385" lon="2.12253">
        <ele>125.04</ele>
        <time>2017-12-17T09:00:29Z</time>
      </trkpt>
      <trkpt lat="48.80381" lon="2.12278">
        <ele>124.52</ele>
        <time>2017-12-17T09:00:45Z</time>
      </trkpt>
      <trkpt lat="48.80378" lon="2.12295">
        <ele>123.54</ele>
        <time>2017-12-17T09:00:57Z</time>
      </trkpt>
      <trkpt lat="48.80374" lon="2.12321">
        <ele>122.9</ele>
        <time>2017-12-17T09:01:13Z</time>
      </trkpt>
      <trkpt lat="48.80374" lon="2.12351">
        <ele>121.27</ele>
        <time>2017-12-17T09:01:33Z</time>
      </trkpt>
      <trkpt lat="48.80376" lon="2.12363">
        <ele>121.58</ele>
        <time>2017-12-17T09:01:45Z</time>
      </trkpt>
      <trkpt lat="48.80375" lon="2.12365">
        <ele>121.22</ele>
        <time>2017-12-17T09:01:57Z</time>
      </trkpt>
      <trkpt lat="48.80374" lon="2.12363">
        <ele>121.74</ele>
        <time>2017-12-17T09:02:10Z</time>
      </trkpt>
      <trkpt lat="48.80373" lon="2.12359">
        <ele>121.85</ele>
        <time>2017-12-17T09:02:15Z</time>
      </trkpt>
      <trkpt lat="48.80377" lon="2.12362">
        <ele>121.67</ele>
        <time>2017-12-17T09:02:27Z</time>
      </trkpt>
      <trkpt lat="48.80375" lon="2.12359">
        <ele>121.53</ele>
        <time>2017-12-17T09:02:44Z</time>
      </trkpt>
      <trkpt lat="48.80374" lon="2.12359">
        <ele>121.44</ele>
        <time>2017-12-17T09:02:59Z</time>
      </trkpt>
      <trkpt lat="48.80374" lon="2.1236">
        <ele>121.07</ele>
        <time>2017-12-17T09:03:01Z</time>
      </trkpt>
      <trkpt lat="48.80371" lon="2.12403">
        <ele>120.62</ele>
        <time>2017-12-17T09:03:50Z</time>
      </trkpt>
      <trkpt lat="48.80376" lon="2.12412">
        <ele>120.83</ele>
        <time>2017-12-17T09:03:54Z</time>
      </trkpt>
      <trkpt lat="48.80376" lon="2.12421">
        <ele>120.13</ele>
        <time>2017-12-17T09:03:59Z</time>
      </trkpt>
      <trkpt lat="48.80374" lon="2.12433">
        <ele>119.29</ele>
        <time>2017-12-17T09:04:09Z</time>
      </trkpt>
      <trkpt lat="48.8037" lon="2.12436">
        <ele>119.79</ele>
        <time>2017-12-17T09:04:15Z</time>
      </trkpt>
      <trkpt lat="48.8035" lon="2.12428">
        <ele>119.12</ele>
        <time>2017-12-17T09:04:35Z</time>
      </trkpt>
      <trkpt lat="48.80344" lon="2.12408">
        <ele>118.38</ele>
        <time>2017-12-17T09:04:50Z</time>
      </trkpt>
      <trkpt lat="48.80339" lon="2.12381">
        <ele>118.45</ele>
        <time>2017-12-17T09:05:08Z</time>
      </trkpt>
      <trkpt lat="48.80338" lon="2.12365">
        <ele>118.41</ele>
        <time>2017-12-17T09:05:19Z</time>
      </trkpt>
      <trkpt lat="48.80332" lon="2.12327">
        <ele>117.88</ele>
        <time>2017-12-17T09:05:41Z</time>
      </trkpt>
      <trkpt lat="48.80329" lon="2.1232">
        <ele>117.88</ele>
        <time>2017-12-17T09:05:56Z</time>
      </trkpt>
      <trkpt lat="48.80328" lon="2.1232">
        <ele>117.64</ele>
        <time>2017-12-17T09:06:14Z</time>
      </trkpt>
      <trkpt lat="48.80327" lon="2.12322">
        <ele>117.59</ele>
        <time>2017-12-17T09:06:36Z</time>
      </trkpt>
      <trkpt lat="48.80329" lon="2.12311">
        <ele>117.49</ele>
        <time>2017-12-17T09:06:53Z</time>
      </trkpt>
      <trkpt lat="48.80327" lon="2.12306">
        <ele>117.48</ele>
        <time>2017-12-17T09:07:00Z</time>
      </trkpt>
      <trkpt lat="48.8032" lon="2.12292">
        <ele>117.7</ele>
        <time>2017-12-17T09:07:12Z</time>
      </trkpt>
      <trkpt lat="48.80329" lon="2.12281">
        <ele>117.92</ele>
        <time>2017-12-17T09:07:23Z</time>
      </trkpt>
      <trkpt lat="48.80339" lon="2.12249">
        <ele>119.39</ele>
        <time>2017-12-17T09:07:45Z</time>
      </trkpt>
      <trkpt lat="48.80352" lon="2.12226">
        <ele>120.88</ele>
        <time>2017-12-17T09:08:05Z</time>
      </trkpt>
      <trkpt lat="48.80357" lon="2.12203">
        <ele>121.93</ele>
        <time>2017-12-17T09:08:18Z</time>
      </trkpt>
      <trkpt lat="48.80358" lon="2.12179">
        <ele>121.06</ele>
        <time>2017-12-17T09:08:34Z</time>
      </trkpt>
      <trkpt lat="48.80347" lon="2.1217">
        <ele>120.88</ele>
        <time>2017-12-17T09:08:47Z</time>
      </trkpt>
      <trkpt lat="48.8033" lon="2.12161">
        <ele>119.9</ele>
        <time>2017-12-17T09:09:06Z</time>
      </trkpt>
      <trkpt lat="48.80314" lon="2.12151">
        <ele>117.87</ele>
        <time>2017-12-17T09:09:24Z</time>
      </trkpt>
      <trkpt lat="48.803" lon="2.12136">
        <ele>117</ele>
        <time>2017-12-17T09:09:38Z</time>
      </trkpt>
      <trkpt lat="48.80292" lon="2.12132">
        <ele>117.14</ele>
        <time>2017-12-17T09:09:44Z</time>
      </trkpt>
      <trkpt lat="48.80285" lon="2.12125">
        <ele>116.21</ele>
        <time>2017-12-17T09:09:52Z</time>
      </trkpt>
      <trkpt lat="48.8028" lon="2.12125">
        <ele>116.69</ele>
        <time>2017-12-17T09:09:55Z</time>
      </trkpt>
      <trkpt lat="48.80249" lon="2.12116">
        <ele>115.1</ele>
        <time>2017-12-17T09:10:14Z</time>
      </trkpt>
      <trkpt lat="48.80234" lon="2.12106">
        <ele>114.45</ele>
        <time>2017-12-17T09:10:29Z</time>
      </trkpt>
      <trkpt lat="48.80219" lon="2.12084">
        <ele>113.13</ele>
        <time>2017-12-17T09:10:45Z</time>
      </trkpt>
      <trkpt lat="48.80211" lon="2.12086">
        <ele>112.55</ele>
        <time>2017-12-17T09:10:57Z</time>
      </trkpt>
      <trkpt lat="48.80206" lon="2.12084">
        <ele>112.77</ele>
        <time>2017-12-17T09:11:02Z</time>
      </trkpt>
      <trkpt lat="48.80202" lon="2.12081">
        <ele>112.4</ele>
        <time>2017-12-17T09:11:05Z</time>
      </trkpt>
      <trkpt lat="48.80182" lon="2.12072">
        <ele>111.36</ele>
        <time>2017-12-17T09:11:22Z</time>
      </trkpt>
      <trkpt lat="48.80156" lon="2.12054">
        <ele>109.92</ele>
        <time>2017-12-17T09:11:41Z</time>
      </trkpt>
      <trkpt lat="48.80143" lon="2.12052">
        <ele>109.14</ele>
        <time>2017-12-17T09:11:53Z</time>
      </trkpt>
      <trkpt lat="48.80133" lon="2.12046">
        <ele>108.81</ele>
        <time>2017-12-17T09:12:06Z</time>
      </trkpt>
      <trkpt lat="48.8012" lon="2.12038">
        <ele>108.1</ele>
        <time>2017-12-17T09:12:20Z</time>
      </trkpt>
      <trkpt lat="48.80113" lon="2.12036">
        <ele>107.84</ele>
        <time>2017-12-17T09:12:27Z</time>
      </trkpt>
      <trkpt lat="48.80111" lon="2.12035">
        <ele>107.68</ele>
        <time>2017-12-17T09:12:29Z</time>
      </trkpt>
      <trkpt lat="48.80095" lon="2.12018">
        <ele>106.42</ele>
        <time>2017-12-17T09:12:45Z</time>
      </trkpt>
      <trkpt lat="48.80091" lon="2.12004">
        <ele>106.84</ele>
        <time>2017-12-17T09:13:01Z</time>
      </trkpt>
      <trkpt lat="48.80091" lon="2.12001">
        <ele>106.57</ele>
        <time>2017-12-17T09:13:03Z</time>
      </trkpt>
      <trkpt lat="48.80091" lon="2.1199">
        <ele>107.02</ele>
        <time>2017-12-17T09:13:20Z</time>
      </trkpt>
      <trkpt lat="48.80091" lon="2.11984">
        <ele>107.01</ele>
        <time>2017-12-17T09:13:40Z</time>
      </trkpt>
      <trkpt lat="48.80091" lon="2.11983">
        <ele>106.62</ele>
        <time>2017-12-17T09:14:04Z</time>
      </trkpt>
      <trkpt lat="48.80091" lon="2.1198">
        <ele>106.25</ele>
        <time>2017-12-17T09:14:30Z</time>
      </trkpt>
      <trkpt lat="48.80087" lon="2.11983">
        <ele>106.31</ele>
        <time>2017-12-17T09:14:54Z</time>
      </trkpt>
      <trkpt lat="48.80085" lon="2.11961">
        <ele>105.78</ele>
        <time>2017-12-17T09:15:11Z</time>
      </trkpt>
      <trkpt lat="48.80087" lon="2.1194">
        <ele>105.16</ele>
        <time>2017-12-17T09:15:24Z</time>
      </trkpt>
      <trkpt lat="48.80088" lon="2.11925">
        <ele>105.59</ele>
        <time>2017-12-17T09:15:33Z</time>
      </trkpt>
      <trkpt lat="48.8009" lon="2.11904">
        <ele>105.24</ele>
        <time>2017-12-17T09:15:46Z</time>
      </trkpt>
      <trkpt lat="48.80091" lon="2.11876">
        <ele>103.61</ele>
        <time>2017-12-17T09:16:02Z</time>
      </trkpt>
      <trkpt lat="48.80095" lon="2.11849">
        <ele>103.33</ele>
        <time>2017-12-17T09:16:18Z</time>
      </trkpt>
      <trkpt lat="48.80096" lon="2.11841">
        <ele>102.89</ele>
        <time>2017-12-17T09:16:24Z</time>
      </trkpt>
      <trkpt lat="48.80097" lon="2.11832">
        <ele>102.35</ele>
        <time>2017-12-17T09:16:30Z</time>
      </trkpt>
      <trkpt lat="48.801" lon="2.11794">
        <ele>101.06</ele>
        <time>2017-12-17T09:16:51Z</time>
      </trkpt>
      <trkpt lat="48.80101" lon="2.11781">
        <ele>101</ele>
        <time>2017-12-17T09:17:03Z</time>
      </trkpt>
      <trkpt lat="48.80101" lon="2.1178">
        <ele>101.3</ele>
        <time>2017-12-17T09:17:07Z</time>
      </trkpt>
      <trkpt lat="48.80101" lon="2.11775">
        <ele>101.09</ele>
        <time>2017-12-17T09:17:10Z</time>
      </trkpt>
      <trkpt lat="48.80101" lon="2.11748">
        <ele>101.21</ele>
        <time>2017-12-17T09:17:25Z</time>
      </trkpt>
      <trkpt lat="48.80102" lon="2.11739">
        <ele>101.65</ele>
        <time>2017-12-17T09:17:30Z</time>
      </trkpt>
      <trkpt lat="48.80102" lon="2.11723">
        <ele>100.65</ele>
        <time>2017-12-17T09:17:40Z</time>
      </trkpt>
      <trkpt lat="48.80103" lon="2.11719">
        <ele>101.3</ele>
        <time>2017-12-17T09:17:43Z</time>
      </trkpt>
      <trkpt lat="48.80102" lon="2.1171">
        <ele>101.45</ele>
        <time>2017-12-17T09:17:48Z</time>
      </trkpt>
      <trkpt lat="48.80102" lon="2.11702">
        <ele>101.12</ele>
        <time>2017-12-17T09:17:53Z</time>
      </trkpt>
      <trkpt lat="48.80099" lon="2.11676">
        <ele>101.25</ele>
        <time>2017-12-17T09:18:09Z</time>
      </trkpt>
      <trkpt lat="48.80098" lon="2.11658">
        <ele>101.45</ele>
        <time>2017-12-17T09:18:23Z</time>
      </trkpt>
      <trkpt lat="48.80096" lon="2.11641">
        <ele>101.42</ele>
        <time>2017-12-17T09:18:37Z</time>
      </trkpt>
      <trkpt lat="48.80089" lon="2.11618">
        <ele>101.63</ele>
        <time>2017-12-17T09:18:51Z</time>
      </trkpt>
      <trkpt lat="48.80084" lon="2.11605">
        <ele>101.55</ele>
        <time>2017-12-17T09:19:00Z</time>
      </trkpt>
      <trkpt lat="48.80077" lon="2.11593">
        <ele>101.32</ele>
        <time>2017-12-17T09:19:13Z</time>
      </trkpt>
      <trkpt lat="48.80077" lon="2.11592">
        <ele>101.4</ele>
        <time>2017-12-17T09:19:14Z</time>
      </trkpt>
      <trkpt lat="48.80074" lon="2.11587">
        <ele>101.61</ele>
        <time>2017-12-17T09:19:18Z</time>
      </trkpt>
      <trkpt lat="48.80072" lon="2.11582">
        <ele>101.26</ele>
        <time>2017-12-17T09:19:21Z</time>
      </trkpt>
      <trkpt lat="48.80065" lon="2.1157">
        <ele>101.76</ele>
        <time>2017-12-17T09:19:30Z</time>
      </trkpt>
      <trkpt lat="48.80062" lon="2.11563">
        <ele>101.97</ele>
        <time>2017-12-17T09:19:35Z</time>
      </trkpt>
      <trkpt lat="48.80052" lon="2.11552">
        <ele>102.02</ele>
        <time>2017-12-17T09:19:49Z</time>
      </trkpt>
      <trkpt lat="48.80049" lon="2.1155">
        <ele>101.55</ele>
        <time>2017-12-17T09:20:07Z</time>
      </trkpt>
      <trkpt lat="48.80046" lon="2.11545">
        <ele>101.62</ele>
        <time>2017-12-17T09:20:11Z</time>
      </trkpt>
      <trkpt lat="48.80044" lon="2.11541">
        <ele>102.1</ele>
        <time>2017-12-17T09:20:14Z</time>
      </trkpt>
      <trkpt lat="48.80033" lon="2.11525">
        <ele>102.14</ele>
        <time>2017-12-17T09:20:30Z</time>
      </trkpt>
      <trkpt lat="48.80027" lon="2.1151">
        <ele>102.36</ele>
        <time>2017-12-17T09:20:43Z</time>
      </trkpt>
      <trkpt lat="48.80018" lon="2.11489">
        <ele>102.79</ele>
        <time>2017-12-17T09:21:00Z</time>
      </trkpt>
      <trkpt lat="48.8" lon="2.11475">
        <ele>102.78</ele>
        <time>2017-12-17T09:21:20Z</time>
      </trkpt>
      <trkpt lat="48.79986" lon="2.11465">
        <ele>102.9</ele>
        <time>2017-12-17T09:21:37Z</time>
      </trkpt>
      <trkpt lat="48.79969" lon="2.11452">
        <ele>102.7</ele>
        <time>2017-12-17T09:21:57Z</time>
      </trkpt>
      <trkpt lat="48.79962" lon="2.11446">
        <ele>102.3</ele>
        <time>2017-12-17T09:22:03Z</time>
      </trkpt>
      <trkpt lat="48.79958" lon="2.11443">
        <ele>102.18</ele>
        <time>2017-12-17T09:22:06Z</time>
      </trkpt>
      <trkpt lat="48.79948" lon="2.11438">
        <ele>102.56</ele>
        <time>2017-12-17T09:22:15Z</time>
      </trkpt>
      <trkpt lat="48.79932" lon="2.11429">
        <ele>102.35</ele>
        <time>2017-12-17T09:22:31Z</time>
      </trkpt>
      <trkpt lat="48.79928" lon="2.11426">
        <ele>102.59</ele>
        <time>2017-12-17T09:22:34Z</time>
      </trkpt>
      <trkpt lat="48.7991" lon="2.11415">
        <ele>101.97</ele>
        <time>2017-12-17T09:22:50Z</time>
      </trkpt>
      <trkpt lat="48.79899" lon="2.11407">
        <ele>101.91</ele>
        <time>2017-12-17T09:23:01Z</time>
      </trkpt>
      <trkpt lat="48.79886" lon="2.11399">
        <ele>102.44</ele>
        <time>2017-12-17T09:23:13Z</time>
      </trkpt>
      <trkpt lat="48.79878" lon="2.11395">
        <ele>101.99</ele>
        <time>2017-12-17T09:23:21Z</time>
      </trkpt>
      <trkpt lat="48.79875" lon="2.11395">
        <ele>102.18</ele>
        <time>2017-12-17T09:23:23Z</time>
      </trkpt>
      <trkpt lat="48.79862" lon="2.11386">
        <ele>102.07</ele>
        <time>2017-12-17T09:23:37Z</time>
      </trkpt>
      <trkpt lat="48.79846" lon="2.11377">
        <ele>102.16</ele>
        <time>2017-12-17T09:23:54Z</time>
      </trkpt>
      <trkpt lat="48.79835" lon="2.11372">
        <ele>102.45</ele>
        <time>2017-12-17T09:24:08Z</time>
      </trkpt>
      <trkpt lat="48.79819" lon="2.11361">
        <ele>102.12</ele>
        <time>2017-12-17T09:24:22Z</time>
      </trkpt>
      <trkpt lat="48.79806" lon="2.11351">
        <ele>101.97</ele>
        <time>2017-12-17T09:24:36Z</time>
      </trkpt>
      <trkpt lat="48.79792" lon="2.11341">
        <ele>101.5</ele>
        <time>2017-12-17T09:24:56Z</time>
      </trkpt>
      <trkpt lat="48.79772" lon="2.11327">
        <ele>101.64</ele>
        <time>2017-12-17T09:25:16Z</time>
      </trkpt>
      <trkpt lat="48.7976" lon="2.11322">
        <ele>101.44</ele>
        <time>2017-12-17T09:25:30Z</time>
      </trkpt>
      <trkpt lat="48.79746" lon="2.1131">
        <ele>100.44</ele>
        <time>2017-12-17T09:25:51Z</time>
      </trkpt>
      <trkpt lat="48.79728" lon="2.11299">
        <ele>100.49</ele>
        <time>2017-12-17T09:26:11Z</time>
      </trkpt>
      <trkpt lat="48.79712" lon="2.11289">
        <ele>99.73</ele>
        <time>2017-12-17T09:26:28Z</time>
      </trkpt>
      <trkpt lat="48.79698" lon="2.11273">
        <ele>99.42</ele>
        <time>2017-12-17T09:26:48Z</time>
      </trkpt>
      <trkpt lat="48.79682" lon="2.11256">
        <ele>99.73</ele>
        <time>2017-12-17T09:27:07Z</time>
      </trkpt>
      <trkpt lat="48.79675" lon="2.11247">
        <ele>98.63</ele>
        <time>2017-12-17T09:27:24Z</time>
      </trkpt>
      <trkpt lat="48.79654" lon="2.11234">
        <ele>98.77</ele>
        <time>2017-12-17T09:27:45Z</time>
      </trkpt>
      <trkpt lat="48.79633" lon="2.11218">
        <ele>98.72</ele>
        <time>2017-12-17T09:28:08Z</time>
      </trkpt>
      <trkpt lat="48.79614" lon="2.11208">
        <ele>99.34</ele>
        <time>2017-12-17T09:28:29Z</time>
      </trkpt>
      <trkpt lat="48.796" lon="2.11195">
        <ele>98.51</ele>
        <time>2017-12-17T09:28:48Z</time>
      </trkpt>
      <trkpt lat="48.79591" lon="2.11192">
        <ele>97.75</ele>
        <time>2017-12-17T09:29:18Z</time>
      </trkpt>
      <trkpt lat="48.79589" lon="2.11193">
        <ele>97.11</ele>
        <time>2017-12-17T09:29:44Z</time>
      </trkpt>
      <trkpt lat="48.79588" lon="2.11193">
        <ele>96.49</ele>
        <time>2017-12-17T09:30:11Z</time>
      </trkpt>
      <trkpt lat="48.79582" lon="2.11194">
        <ele>96.77</ele>
        <time>2017-12-17T09:30:36Z</time>
      </trkpt>
      <trkpt lat="48.79577" lon="2.1119">
        <ele>96.67</ele>
        <time>2017-12-17T09:30:59Z</time>
      </trkpt>
      <trkpt lat="48.79579" lon="2.11191">
        <ele>96.47</ele>
        <time>2017-12-17T09:31:29Z</time>
      </trkpt>
      <trkpt lat="48.79579" lon="2.11193">
        <ele>96.88</ele>
        <time>2017-12-17T09:31:56Z</time>
      </trkpt>
      <trkpt lat="48.7958" lon="2.1119">
        <ele>96.87</ele>
        <time>2017-12-17T09:32:21Z</time>
      </trkpt>
      <trkpt lat="48.79577" lon="2.11186">
        <ele>96.77</ele>
        <time>2017-12-17T09:32:52Z</time>
      </trkpt>
      <trkpt lat="48.79573" lon="2.11187">
        <ele>96.64</ele>
        <time>2017-12-17T09:33:20Z</time>
      </trkpt>
      <trkpt lat="48.79573" lon="2.11188">
        <ele>97.12</ele>
        <time>2017-12-17T09:33:50Z</time>
      </trkpt>
      <trkpt lat="48.79562" lon="2.1118">
        <ele>98.43</ele>
        <time>2017-12-17T09:34:10Z</time>
      </trkpt>
      <trkpt lat="48.79543" lon="2.11172">
        <ele>99.81</ele>
        <time>2017-12-17T09:34:30Z</time>
      </trkpt>
      <trkpt lat="48.79531" lon="2.11163">
        <ele>100.5</ele>
        <time>2017-12-17T09:34:41Z</time>
      </trkpt>
      <trkpt lat="48.79517" lon="2.11157">
        <ele>102.39</ele>
        <time>2017-12-17T09:34:57Z</time>
      </trkpt>
      <trkpt lat="48.79514" lon="2.11155">
        <ele>102.43</ele>
        <time>2017-12-17T09:35:13Z</time>
      </trkpt>
      <trkpt lat="48.79509" lon="2.11149">
        <ele>102.79</ele>
        <time>2017-12-17T09:35:37Z</time>
      </trkpt>
      <trkpt lat="48.79513" lon="2.11145">
        <ele>103.58</ele>
        <time>2017-12-17T09:36:11Z</time>
      </trkpt>
      <trkpt lat="48.79513" lon="2.11142">
        <ele>103.62</ele>
        <time>2017-12-17T09:36:46Z</time>
      </trkpt>
      <trkpt lat="48.7951" lon="2.11144">
        <ele>103.52</ele>
        <time>2017-12-17T09:37:08Z</time>
      </trkpt>
      <trkpt lat="48.79508" lon="2.1115">
        <ele>103.87</ele>
        <time>2017-12-17T09:37:30Z</time>
      </trkpt>
      <trkpt lat="48.79507" lon="2.11144">
        <ele>104.71</ele>
        <time>2017-12-17T09:37:49Z</time>
      </trkpt>
      <trkpt lat="48.79494" lon="2.11149">
        <ele>105.15</ele>
        <time>2017-12-17T09:38:09Z</time>
      </trkpt>
      <trkpt lat="48.79495" lon="2.11142">
        <ele>105.64</ele>
        <time>2017-12-17T09:38:36Z</time>
      </trkpt>
      <trkpt lat="48.79498" lon="2.11145">
        <ele>105.12</ele>
        <time>2017-12-17T09:39:01Z</time>
      </trkpt>
      <trkpt lat="48.79499" lon="2.11143">
        <ele>105.33</ele>
        <time>2017-12-17T09:39:24Z</time>
      </trkpt>
      <trkpt lat="48.79497" lon="2.1114">
        <ele>106.13</ele>
        <time>2017-12-17T09:39:50Z</time>
      </trkpt>
      <trkpt lat="48.79485" lon="2.11153">
        <ele>106.35</ele>
        <time>2017-12-17T09:40:00Z</time>
      </trkpt>
      <trkpt lat="48.79475" lon="2.11183">
        <ele>106.6</ele>
        <time>2017-12-17T09:40:20Z</time>
      </trkpt>
      <trkpt lat="48.79467" lon="2.11204">
        <ele>107.1</ele>
        <time>2017-12-17T09:40:37Z</time>
      </trkpt>
      <trkpt lat="48.79459" lon="2.11224">
        <ele>107.83</ele>
        <time>2017-12-17T09:40:55Z</time>
      </trkpt>
      <trkpt lat="48.79456" lon="2.11232">
        <ele>108.36</ele>
        <time>2017-12-17T09:41:00Z</time>
      </trkpt>
      <trkpt lat="48.79453" lon="2.11236">
        <ele>107.39</ele>
        <time>2017-12-17T09:41:04Z</time>
      </trkpt>
      <trkpt lat="48.79447" lon="2.11248">
        <ele>108.79</ele>
        <time>2017-12-17T09:41:13Z</time>
      </trkpt>
      <trkpt lat="48.79433" lon="2.11272">
        <ele>107.88</ele>
        <time>2017-12-17T09:41:31Z</time>
      </trkpt>
      <trkpt lat="48.79423" lon="2.11293">
        <ele>109.31</ele>
        <time>2017-12-17T09:41:45Z</time>
      </trkpt>
      <trkpt lat="48.79416" lon="2.1131">
        <ele>110.34</ele>
        <time>2017-12-17T09:41:58Z</time>
      </trkpt>
      <trkpt lat="48.79413" lon="2.11317">
        <ele>110.33</ele>
        <time>2017-12-17T09:42:03Z</time>
      </trkpt>
      <trkpt lat="48.79412" lon="2.11322">
        <ele>110.23</ele>
        <time>2017-12-17T09:42:06Z</time>
      </trkpt>
      <trkpt lat="48.79409" lon="2.11327">
        <ele>110.05</ele>
        <time>2017-12-17T09:42:09Z</time>
      </trkpt>
      <trkpt lat="48.79405" lon="2.1134">
        <ele>109.65</ele>
        <time>2017-12-17T09:42:17Z</time>
      </trkpt>
      <trkpt lat="48.79403" lon="2.11358">
        <ele>109.08</ele>
        <time>2017-12-17T09:42:29Z</time>
      </trkpt>
      <trkpt lat="48.79401" lon="2.11373">
        <ele>109.82</ele>
        <time>2017-12-17T09:42:36Z</time>
      </trkpt>
      <trkpt lat="48.79398" lon="2.11392">
        <ele>108.94</ele>
        <time>2017-12-17T09:42:49Z</time>
      </trkpt>
      <trkpt lat="48.79395" lon="2.11413">
        <ele>108.46</ele>
        <time>2017-12-17T09:43:07Z</time>
      </trkpt>
      <trkpt lat="48.79395" lon="2.11416">
        <ele>108.19</ele>
        <time>2017-12-17T09:43:09Z</time>
      </trkpt>
      <trkpt lat="48.79394" lon="2.1142">
        <ele>108.17</ele>
        <time>2017-12-17T09:43:11Z</time>
      </trkpt>
      <trkpt lat="48.79392" lon="2.11447">
        <ele>108.09</ele>
        <time>2017-12-17T09:43:29Z</time>
      </trkpt>
      <trkpt lat="48.79391" lon="2.11453">
        <ele>107.57</ele>
        <time>2017-12-17T09:43:33Z</time>
      </trkpt>
      <trkpt lat="48.79391" lon="2.11473">
        <ele>107.13</ele>
        <time>2017-12-17T09:43:48Z</time>
      </trkpt>
      <trkpt lat="48.7939" lon="2.1148">
        <ele>106.79</ele>
        <time>2017-12-17T09:43:50Z</time>
      </trkpt>
      <trkpt lat="48.79385" lon="2.11511">
        <ele>107.12</ele>
        <time>2017-12-17T09:44:03Z</time>
      </trkpt>
      <trkpt lat="48.79383" lon="2.11513">
        <ele>109.13</ele>
        <time>2017-12-17T09:44:05Z</time>
      </trkpt>
      <trkpt lat="48.79371" lon="2.11528">
        <ele>107.09</ele>
        <time>2017-12-17T09:44:20Z</time>
      </trkpt>
      <trkpt lat="48.7937" lon="2.11528">
        <ele>107.73</ele>
        <time>2017-12-17T09:44:21Z</time>
      </trkpt>
      <trkpt lat="48.79349" lon="2.11539">
        <ele>107.46</ele>
        <time>2017-12-17T09:44:37Z</time>
      </trkpt>
      <trkpt lat="48.79332" lon="2.11539">
        <ele>107.56</ele>
        <time>2017-12-17T09:44:54Z</time>
      </trkpt>
      <trkpt lat="48.79321" lon="2.11534">
        <ele>107.81</ele>
        <time>2017-12-17T09:45:04Z</time>
      </trkpt>
      <trkpt lat="48.79308" lon="2.11528">
        <ele>108.44</ele>
        <time>2017-12-17T09:45:21Z</time>
      </trkpt>
      <trkpt lat="48.79293" lon="2.11518">
        <ele>109.61</ele>
        <time>2017-12-17T09:45:42Z</time>
      </trkpt>
      <trkpt lat="48.79284" lon="2.11515">
        <ele>110.26</ele>
        <time>2017-12-17T09:45:51Z</time>
      </trkpt>
      <trkpt lat="48.79278" lon="2.1151">
        <ele>110.26</ele>
        <time>2017-12-17T09:45:54Z</time>
      </trkpt>
      <trkpt lat="48.79261" lon="2.11495">
        <ele>111.29</ele>
        <time>2017-12-17T09:46:08Z</time>
      </trkpt>
      <trkpt lat="48.79256" lon="2.11496">
        <ele>111.78</ele>
        <time>2017-12-17T09:46:25Z</time>
      </trkpt>
      <trkpt lat="48.79253" lon="2.11497">
        <ele>112.35</ele>
        <time>2017-12-17T09:46:52Z</time>
      </trkpt>
      <trkpt lat="48.79254" lon="2.11503">
        <ele>112.07</ele>
        <time>2017-12-17T09:47:08Z</time>
      </trkpt>
      <trkpt lat="48.79256" lon="2.11536">
        <ele>113.31</ele>
        <time>2017-12-17T09:47:29Z</time>
      </trkpt>
      <trkpt lat="48.79258" lon="2.11559">
        <ele>116.36</ele>
        <time>2017-12-17T09:47:44Z</time>
      </trkpt>
      <trkpt lat="48.79256" lon="2.11582">
        <ele>117.26</ele>
        <time>2017-12-17T09:47:59Z</time>
      </trkpt>
      <trkpt lat="48.79256" lon="2.11604">
        <ele>119.68</ele>
        <time>2017-12-17T09:48:17Z</time>
      </trkpt>
      <trkpt lat="48.79248" lon="2.11632">
        <ele>122.52</ele>
        <time>2017-12-17T09:48:33Z</time>
      </trkpt>
      <trkpt lat="48.79244" lon="2.11659">
        <ele>124.84</ele>
        <time>2017-12-17T09:48:53Z</time>
      </trkpt>
      <trkpt lat="48.79242" lon="2.11668">
        <ele>125.42</ele>
        <time>2017-12-17T09:49:00Z</time>
      </trkpt>
      <trkpt lat="48.7924" lon="2.11695">
        <ele>126.97</ele>
        <time>2017-12-17T09:49:18Z</time>
      </trkpt>
      <trkpt lat="48.79241" lon="2.11717">
        <ele>127.22</ele>
        <time>2017-12-17T09:49:31Z</time>
      </trkpt>
      <trkpt lat="48.79241" lon="2.11745">
        <ele>127.33</ele>
        <time>2017-12-17T09:49:50Z</time>
      </trkpt>
      <trkpt lat="48.79234" lon="2.11759">
        <ele>128.65</ele>
        <time>2017-12-17T09:50:05Z</time>
      </trkpt>
      <trkpt lat="48.79237" lon="2.11763">
        <ele>128.62</ele>
        <time>2017-12-17T09:50:25Z</time>
      </trkpt>
      <trkpt lat="48.79241" lon="2.11763">
        <ele>127.7</ele>
        <time>2017-12-17T09:50:42Z</time>
      </trkpt>
      <trkpt lat="48.79239" lon="2.11766">
        <ele>127.94</ele>
        <time>2017-12-17T09:50:52Z</time>
      </trkpt>
      <trkpt lat="48.79237" lon="2.1177">
        <ele>127.33</ele>
        <time>2017-12-17T09:50:56Z</time>
      </trkpt>
      <trkpt lat="48.79233" lon="2.11781">
        <ele>128.04</ele>
        <time>2017-12-17T09:51:04Z</time>
      </trkpt>
      <trkpt lat="48.7923" lon="2.11804">
        <ele>127.54</ele>
        <time>2017-12-17T09:51:21Z</time>
      </trkpt>
      <trkpt lat="48.79233" lon="2.11813">
        <ele>128.34</ele>
        <time>2017-12-17T09:51:34Z</time>
      </trkpt>
      <trkpt lat="48.79236" lon="2.11833">
        <ele>128.17</ele>
        <time>2017-12-17T09:51:52Z</time>
      </trkpt>
      <trkpt lat="48.79231" lon="2.11835">
        <ele>128.07</ele>
        <time>2017-12-17T09:52:01Z</time>
      </trkpt>
      <trkpt lat="48.79231" lon="2.11856">
        <ele>130.22</ele>
        <time>2017-12-17T09:52:21Z</time>
      </trkpt>
      <trkpt lat="48.79229" lon="2.11873">
        <ele>131.98</ele>
        <time>2017-12-17T09:52:36Z</time>
      </trkpt>
      <trkpt lat="48.79228" lon="2.11889">
        <ele>132.68</ele>
        <time>2017-12-17T09:52:50Z</time>
      </trkpt>
      <trkpt lat="48.79224" lon="2.11917">
        <ele>133</ele>
        <time>2017-12-17T09:53:09Z</time>
      </trkpt>
      <trkpt lat="48.79223" lon="2.11932">
        <ele>131.98</ele>
        <time>2017-12-17T09:53:21Z</time>
      </trkpt>
      <trkpt lat="48.79223" lon="2.11952">
        <ele>130.95</ele>
        <time>2017-12-17T09:53:39Z</time>
      </trkpt>
      <trkpt lat="48.79222" lon="2.11972">
        <ele>130.42</ele>
        <time>2017-12-17T09:53:58Z</time>
      </trkpt>
      <trkpt lat="48.79218" lon="2.12004">
        <ele>130.01</ele>
        <time>2017-12-17T09:54:17Z</time>
      </trkpt>
      <trkpt lat="48.79218" lon="2.12024">
        <ele>126.98</ele>
        <time>2017-12-17T09:54:37Z</time>
      </trkpt>
      <trkpt lat="48.79216" lon="2.1205">
        <ele>125.65</ele>
        <time>2017-12-17T09:54:59Z</time>
      </trkpt>
      <trkpt lat="48.79209" lon="2.1209">
        <ele>125.57</ele>
        <time>2017-12-17T09:55:16Z</time>
      </trkpt>
      <trkpt lat="48.79204" lon="2.12111">
        <ele>124.65</ele>
        <time>2017-12-17T09:55:30Z</time>
      </trkpt>
      <trkpt lat="48.79197" lon="2.12138">
        <ele>124.05</ele>
        <time>2017-12-17T09:55:45Z</time>
      </trkpt>
      <trkpt lat="48.79194" lon="2.12153">
        <ele>126.92</ele>
        <time>2017-12-17T09:56:05Z</time>
      </trkpt>
      <trkpt lat="48.79189" lon="2.12175">
        <ele>127.79</ele>
        <time>2017-12-17T09:56:19Z</time>
      </trkpt>
      <trkpt lat="48.79186" lon="2.12181">
        <ele>129.28</ele>
        <time>2017-12-17T09:56:23Z</time>
      </trkpt>
      <trkpt lat="48.7917" lon="2.12193">
        <ele>129.11</ele>
        <time>2017-12-17T09:56:37Z</time>
      </trkpt>
      <trkpt lat="48.79167" lon="2.12196">
        <ele>130.83</ele>
        <time>2017-12-17T09:56:39Z</time>
      </trkpt>
      <trkpt lat="48.79159" lon="2.1221">
        <ele>133.24</ele>
        <time>2017-12-17T09:57:01Z</time>
      </trkpt>
      <trkpt lat="48.79148" lon="2.12226">
        <ele>135.01</ele>
        <time>2017-12-17T09:57:18Z</time>
      </trkpt>
      <trkpt lat="48.79143" lon="2.12231">
        <ele>136.02</ele>
        <time>2017-12-17T09:57:25Z</time>
      </trkpt>
      <trkpt lat="48.79136" lon="2.12238">
        <ele>136.17</ele>
        <time>2017-12-17T09:57:34Z</time>
      </trkpt>
      <trkpt lat="48.79124" lon="2.12245">
        <ele>138.28</ele>
        <time>2017-12-17T09:57:53Z</time>
      </trkpt>
      <trkpt lat="48.79114" lon="2.12256">
        <ele>140.35</ele>
        <time>2017-12-17T09:58:05Z</time>
      </trkpt>
      <trkpt lat="48.79103" lon="2.12273">
        <ele>142.25</ele>
        <time>2017-12-17T09:58:21Z</time>
      </trkpt>
      <trkpt lat="48.79092" lon="2.12302">
        <ele>144.69</ele>
        <time>2017-12-17T09:58:39Z</time>
      </trkpt>
      <trkpt lat="48.79092" lon="2.12306">
        <ele>144.78</ele>
        <time>2017-12-17T09:58:42Z</time>
      </trkpt>
      <trkpt lat="48.79089" lon="2.1233">
        <ele>146.17</ele>
        <time>2017-12-17T09:58:58Z</time>
      </trkpt>
      <trkpt lat="48.79089" lon="2.12335">
        <ele>145.97</ele>
        <time>2017-12-17T09:59:01Z</time>
      </trkpt>
      <trkpt lat="48.7909" lon="2.12355">
        <ele>147.04</ele>
        <time>2017-12-17T09:59:19Z</time>
      </trkpt>
      <trkpt lat="48.791" lon="2.12374">
        <ele>147.79</ele>
        <time>2017-12-17T09:59:36Z</time>
      </trkpt>
      <trkpt lat="48.79098" lon="2.12396">
        <ele>148.36</ele>
        <time>2017-12-17T09:59:52Z</time>
      </trkpt>
      <trkpt lat="48.79096" lon="2.12397">
        <ele>148.36</ele>
        <time>2017-12-17T09:59:54Z</time>
      </trkpt>
      <trkpt lat="48.79095" lon="2.12404">
        <ele>148.24</ele>
        <time>2017-12-17T10:00:17Z</time>
      </trkpt>
      <trkpt lat="48.79094" lon="2.12403">
        <ele>147.97</ele>
        <time>2017-12-17T10:00:44Z</time>
      </trkpt>
      <trkpt lat="48.79094" lon="2.12402">
        <ele>148.88</ele>
        <time>2017-12-17T10:01:08Z</time>
      </trkpt>
      <trkpt lat="48.79093" lon="2.12403">
        <ele>149.07</ele>
        <time>2017-12-17T10:01:39Z</time>
      </trkpt>
      <trkpt lat="48.79091" lon="2.12404">
        <ele>148.08</ele>
        <time>2017-12-17T10:01:44Z</time>
      </trkpt>
      <trkpt lat="48.79073" lon="2.124">
        <ele>149.41</ele>
        <time>2017-12-17T10:02:02Z</time>
      </trkpt>
      <trkpt lat="48.7906" lon="2.12401">
        <ele>150.27</ele>
        <time>2017-12-17T10:02:17Z</time>
      </trkpt>
      <trkpt lat="48.79045" lon="2.12406">
        <ele>150.16</ele>
        <time>2017-12-17T10:02:34Z</time>
      </trkpt>
      <trkpt lat="48.79037" lon="2.12409">
        <ele>150.43</ele>
        <time>2017-12-17T10:02:42Z</time>
      </trkpt>
      <trkpt lat="48.79018" lon="2.12423">
        <ele>150.94</ele>
        <time>2017-12-17T10:02:59Z</time>
      </trkpt>
      <trkpt lat="48.79008" lon="2.12438">
        <ele>151.55</ele>
        <time>2017-12-17T10:03:11Z</time>
      </trkpt>
      <trkpt lat="48.78999" lon="2.12451">
        <ele>151.31</ele>
        <time>2017-12-17T10:03:24Z</time>
      </trkpt>
      <trkpt lat="48.7895" lon="2.12492">
        <ele>151.36</ele>
        <time>2017-12-17T10:04:02Z</time>
      </trkpt>
      <trkpt lat="48.78947" lon="2.12498">
        <ele>151.32</ele>
        <time>2017-12-17T10:04:08Z</time>
      </trkpt>
      <trkpt lat="48.78936" lon="2.12518">
        <ele>151.76</ele>
        <time>2017-12-17T10:04:24Z</time>
      </trkpt>
      <trkpt lat="48.78917" lon="2.12542">
        <ele>154.04</ele>
        <time>2017-12-17T10:04:48Z</time>
      </trkpt>
      <trkpt lat="48.78909" lon="2.12554">
        <ele>153.68</ele>
        <time>2017-12-17T10:04:58Z</time>
      </trkpt>
      <trkpt lat="48.78897" lon="2.12569">
        <ele>154.12</ele>
        <time>2017-12-17T10:05:13Z</time>
      </trkpt>
      <trkpt lat="48.78884" lon="2.12569">
        <ele>155.27</ele>
        <time>2017-12-17T10:05:27Z</time>
      </trkpt>
      <trkpt lat="48.78884" lon="2.12567">
        <ele>155.63</ele>
        <time>2017-12-17T10:05:28Z</time>
      </trkpt>
      <trkpt lat="48.78883" lon="2.12564">
        <ele>155.73</ele>
        <time>2017-12-17T10:05:30Z</time>
      </trkpt>
      <trkpt lat="48.78879" lon="2.12562">
        <ele>155.99</ele>
        <time>2017-12-17T10:05:42Z</time>
      </trkpt>
      <trkpt lat="48.78879" lon="2.12554">
        <ele>156.83</ele>
        <time>2017-12-17T10:05:55Z</time>
      </trkpt>
      <trkpt lat="48.78878" lon="2.12536">
        <ele>157.03</ele>
        <time>2017-12-17T10:06:12Z</time>
      </trkpt>
      <trkpt lat="48.78872" lon="2.12535">
        <ele>157.56</ele>
        <time>2017-12-17T10:06:29Z</time>
      </trkpt>
      <trkpt lat="48.78864" lon="2.12536">
        <ele>159.01</ele>
        <time>2017-12-17T10:06:47Z</time>
      </trkpt>
      <trkpt lat="48.78858" lon="2.12536">
        <ele>158.95</ele>
        <time>2017-12-17T10:07:10Z</time>
      </trkpt>
      <trkpt lat="48.78847" lon="2.12537">
        <ele>159.53</ele>
        <time>2017-12-17T10:07:29Z</time>
      </trkpt>
      <trkpt lat="48.78835" lon="2.12538">
        <ele>159.25</ele>
        <time>2017-12-17T10:07:48Z</time>
      </trkpt>
      <trkpt lat="48.78818" lon="2.12541">
        <ele>159.93</ele>
        <time>2017-12-17T10:08:10Z</time>
      </trkpt>
      <trkpt lat="48.78797" lon="2.12539">
        <ele>160.31</ele>
        <time>2017-12-17T10:08:29Z</time>
      </trkpt>
      <trkpt lat="48.7878" lon="2.12534">
        <ele>160.25</ele>
        <time>2017-12-17T10:08:49Z</time>
      </trkpt>
      <trkpt lat="48.78764" lon="2.12533">
        <ele>160.32</ele>
        <time>2017-12-17T10:09:08Z</time>
      </trkpt>
      <trkpt lat="48.78763" lon="2.12546">
        <ele>159.35</ele>
        <time>2017-12-17T10:09:22Z</time>
      </trkpt>
      <trkpt lat="48.78762" lon="2.12571">
        <ele>158.1</ele>
        <time>2017-12-17T10:09:44Z</time>
      </trkpt>
      <trkpt lat="48.7876" lon="2.12605">
        <ele>156.39</ele>
        <time>2017-12-17T10:10:06Z</time>
      </trkpt>
      <trkpt lat="48.78761" lon="2.12621">
        <ele>153.28</ele>
        <time>2017-12-17T10:10:22Z</time>
      </trkpt>
      <trkpt lat="48.78764" lon="2.1264">
        <ele>150.64</ele>
        <time>2017-12-17T10:10:42Z</time>
      </trkpt>
      <trkpt lat="48.78767" lon="2.12656">
        <ele>148.64</ele>
        <time>2017-12-17T10:10:53Z</time>
      </trkpt>
      <trkpt lat="48.78769" lon="2.12666">
        <ele>147.22</ele>
        <time>2017-12-17T10:11:04Z</time>
      </trkpt>
      <trkpt lat="48.78771" lon="2.12685">
        <ele>144.84</ele>
        <time>2017-12-17T10:11:25Z</time>
      </trkpt>
      <trkpt lat="48.7877" lon="2.12719">
        <ele>142.68</ele>
        <time>2017-12-17T10:11:41Z</time>
      </trkpt>
      <trkpt lat="48.78769" lon="2.12737">
        <ele>139.92</ele>
        <time>2017-12-17T10:12:01Z</time>
      </trkpt>
      <trkpt lat="48.7877" lon="2.12774">
        <ele>136.72</ele>
        <time>2017-12-17T10:12:19Z</time>
      </trkpt>
      <trkpt lat="48.7877" lon="2.12792">
        <ele>135.97</ele>
        <time>2017-12-17T10:12:37Z</time>
      </trkpt>
      <trkpt lat="48.78766" lon="2.12819">
        <ele>135.02</ele>
        <time>2017-12-17T10:12:49Z</time>
      </trkpt>
      <trkpt lat="48.7876" lon="2.12851">
        <ele>134.06</ele>
        <time>2017-12-17T10:13:05Z</time>
      </trkpt>
      <trkpt lat="48.78761" lon="2.12875">
        <ele>134.88</ele>
        <time>2017-12-17T10:13:21Z</time>
      </trkpt>
      <trkpt lat="48.78763" lon="2.12898">
        <ele>134.7</ele>
        <time>2017-12-17T10:13:38Z</time>
      </trkpt>
      <trkpt lat="48.78765" lon="2.12919">
        <ele>134.12</ele>
        <time>2017-12-17T10:13:57Z</time>
      </trkpt>
      <trkpt lat="48.78755" lon="2.12932">
        <ele>134.1</ele>
        <time>2017-12-17T10:14:17Z</time>
      </trkpt>
      <trkpt lat="48.7875" lon="2.12935">
        <ele>134.4</ele>
        <time>2017-12-17T10:14:48Z</time>
      </trkpt>
      <trkpt lat="48.78748" lon="2.12936">
        <ele>134.76</ele>
        <time>2017-12-17T10:15:20Z</time>
      </trkpt>
      <trkpt lat="48.78747" lon="2.12938">
        <ele>134.6</ele>
        <time>2017-12-17T10:15:55Z</time>
      </trkpt>
      <trkpt lat="48.78746" lon="2.12937">
        <ele>135.29</ele>
        <time>2017-12-17T10:16:25Z</time>
      </trkpt>
      <trkpt lat="48.78744" lon="2.12935">
        <ele>135.62</ele>
        <time>2017-12-17T10:16:56Z</time>
      </trkpt>
      <trkpt lat="48.78746" lon="2.12938">
        <ele>135.61</ele>
        <time>2017-12-17T10:17:24Z</time>
      </trkpt>
      <trkpt lat="48.78746" lon="2.12935">
        <ele>136.1</ele>
        <time>2017-12-17T10:17:49Z</time>
      </trkpt>
      <trkpt lat="48.78746" lon="2.12931">
        <ele>136.59</ele>
        <time>2017-12-17T10:18:22Z</time>
      </trkpt>
      <trkpt lat="48.78747" lon="2.12935">
        <ele>137.1</ele>
        <time>2017-12-17T10:18:53Z</time>
      </trkpt>
      <trkpt lat="48.78747" lon="2.12932">
        <ele>137.68</ele>
        <time>2017-12-17T10:19:24Z</time>
      </trkpt>
      <trkpt lat="48.78743" lon="2.12926">
        <ele>137.99</ele>
        <time>2017-12-17T10:19:52Z</time>
      </trkpt>
      <trkpt lat="48.78734" lon="2.12927">
        <ele>137.22</ele>
        <time>2017-12-17T10:20:08Z</time>
      </trkpt>
      <trkpt lat="48.78721" lon="2.12919">
        <ele>136.87</ele>
        <time>2017-12-17T10:20:29Z</time>
      </trkpt>
      <trkpt lat="48.78707" lon="2.12912">
        <ele>136.76</ele>
        <time>2017-12-17T10:20:47Z</time>
      </trkpt>
      <trkpt lat="48.78691" lon="2.12901">
        <ele>138.59</ele>
        <time>2017-12-17T10:21:08Z</time>
      </trkpt>
      <trkpt lat="48.78675" lon="2.12892">
        <ele>140.13</ele>
        <time>2017-12-17T10:21:28Z</time>
      </trkpt>
      <trkpt lat="48.78659" lon="2.1289">
        <ele>142.77</ele>
        <time>2017-12-17T10:21:47Z</time>
      </trkpt>
      <trkpt lat="48.78637" lon="2.12887">
        <ele>145.19</ele>
        <time>2017-12-17T10:22:05Z</time>
      </trkpt>
      <trkpt lat="48.78616" lon="2.1288">
        <ele>147.67</ele>
        <time>2017-12-17T10:22:27Z</time>
      </trkpt>
      <trkpt lat="48.78605" lon="2.12876">
        <ele>149.6</ele>
        <time>2017-12-17T10:22:39Z</time>
      </trkpt>
      <trkpt lat="48.78592" lon="2.1287">
        <ele>151.21</ele>
        <time>2017-12-17T10:22:58Z</time>
      </trkpt>
      <trkpt lat="48.78575" lon="2.12862">
        <ele>153.16</ele>
        <time>2017-12-17T10:23:19Z</time>
      </trkpt>
      <trkpt lat="48.78558" lon="2.12854">
        <ele>154.27</ele>
        <time>2017-12-17T10:23:36Z</time>
      </trkpt>
      <trkpt lat="48.78555" lon="2.12853">
        <ele>154.61</ele>
        <time>2017-12-17T10:23:39Z</time>
      </trkpt>
      <trkpt lat="48.7854" lon="2.12845">
        <ele>155.93</ele>
        <time>2017-12-17T10:23:57Z</time>
      </trkpt>
      <trkpt lat="48.78529" lon="2.12839">
        <ele>155.92</ele>
        <time>2017-12-17T10:24:15Z</time>
      </trkpt>
      <trkpt lat="48.78509" lon="2.12832">
        <ele>157.13</ele>
        <time>2017-12-17T10:24:37Z</time>
      </trkpt>
      <trkpt lat="48.78493" lon="2.12825">
        <ele>157.16</ele>
        <time>2017-12-17T10:24:59Z</time>
      </trkpt>
      <trkpt lat="48.78472" lon="2.12818">
        <ele>157.54</ele>
        <time>2017-12-17T10:25:20Z</time>
      </trkpt>
      <trkpt lat="48.78452" lon="2.1281">
        <ele>156.69</ele>
        <time>2017-12-17T10:25:42Z</time>
      </trkpt>
      <trkpt lat="48.78437" lon="2.12804">
        <ele>157.17</ele>
        <time>2017-12-17T10:25:57Z</time>
      </trkpt>
      <trkpt lat="48.78414" lon="2.12793">
        <ele>157.09</ele>
        <time>2017-12-17T10:26:18Z</time>
      </trkpt>
      <trkpt lat="48.78393" lon="2.12781">
        <ele>157.31</ele>
        <time>2017-12-17T10:26:40Z</time>
      </trkpt>
      <trkpt lat="48.78378" lon="2.12772">
        <ele>157.18</ele>
        <time>2017-12-17T10:26:55Z</time>
      </trkpt>
      <trkpt lat="48.78366" lon="2.12763">
        <ele>156.67</ele>
        <time>2017-12-17T10:27:11Z</time>
      </trkpt>
      <trkpt lat="48.78352" lon="2.12741">
        <ele>156.83</ele>
        <time>2017-12-17T10:27:31Z</time>
      </trkpt>
      <trkpt lat="48.78338" lon="2.12713">
        <ele>156.67</ele>
        <time>2017-12-17T10:27:53Z</time>
      </trkpt>
      <trkpt lat="48.78327" lon="2.12692">
        <ele>155.99</ele>
        <time>2017-12-17T10:28:10Z</time>
      </trkpt>
      <trkpt lat="48.78315" lon="2.12666">
        <ele>155.87</ele>
        <time>2017-12-17T10:28:30Z</time>
      </trkpt>
      <trkpt lat="48.78299" lon="2.12637">
        <ele>155.4</ele>
        <time>2017-12-17T10:28:51Z</time>
      </trkpt>
      <trkpt lat="48.78287" lon="2.12612">
        <ele>155.06</ele>
        <time>2017-12-17T10:29:11Z</time>
      </trkpt>
      <trkpt lat="48.78272" lon="2.12588">
        <ele>154</ele>
        <time>2017-12-17T10:29:33Z</time>
      </trkpt>
      <trkpt lat="48.78256" lon="2.12562">
        <ele>153.17</ele>
        <time>2017-12-17T10:29:56Z</time>
      </trkpt>
      <trkpt lat="48.78239" lon="2.12537">
        <ele>152.37</ele>
        <time>2017-12-17T10:30:19Z</time>
      </trkpt>
      <trkpt lat="48.78229" lon="2.12514">
        <ele>151.82</ele>
        <time>2017-12-17T10:30:36Z</time>
      </trkpt>
      <trkpt lat="48.78218" lon="2.12489">
        <ele>150.74</ele>
        <time>2017-12-17T10:30:57Z</time>
      </trkpt>
      <trkpt lat="48.78214" lon="2.12459">
        <ele>149.98</ele>
        <time>2017-12-17T10:31:18Z</time>
      </trkpt>
      <trkpt lat="48.78206" lon="2.12435">
        <ele>149.55</ele>
        <time>2017-12-17T10:31:35Z</time>
      </trkpt>
      <trkpt lat="48.78204" lon="2.1244">
        <ele>149.05</ele>
        <time>2017-12-17T10:31:47Z</time>
      </trkpt>
      <trkpt lat="48.78209" lon="2.12455">
        <ele>149.28</ele>
        <time>2017-12-17T10:32:00Z</time>
      </trkpt>
      <trkpt lat="48.78214" lon="2.12479">
        <ele>150.56</ele>
        <time>2017-12-17T10:32:18Z</time>
      </trkpt>
      <trkpt lat="48.78215" lon="2.1248">
        <ele>150.74</ele>
        <time>2017-12-17T10:32:49Z</time>
      </trkpt>
      <trkpt lat="48.78216" lon="2.12484">
        <ele>150.61</ele>
        <time>2017-12-17T10:33:11Z</time>
      </trkpt>
      <trkpt lat="48.78218" lon="2.12482">
        <ele>150.66</ele>
        <time>2017-12-17T10:33:37Z</time>
      </trkpt>
      <trkpt lat="48.78216" lon="2.12486">
        <ele>149.78</ele>
        <time>2017-12-17T10:34:04Z</time>
      </trkpt>
      <trkpt lat="48.78209" lon="2.12506">
        <ele>149.96</ele>
        <time>2017-12-17T10:34:23Z</time>
      </trkpt>
      <trkpt lat="48.78199" lon="2.12529">
        <ele>149.73</ele>
        <time>2017-12-17T10:34:41Z</time>
      </trkpt>
      <trkpt lat="48.7819" lon="2.12551">
        <ele>149.9</ele>
        <time>2017-12-17T10:34:58Z</time>
      </trkpt>
      <trkpt lat="48.7818" lon="2.12575">
        <ele>149.27</ele>
        <time>2017-12-17T10:35:17Z</time>
      </trkpt>
      <trkpt lat="48.78177" lon="2.12596">
        <ele>149.93</ele>
        <time>2017-12-17T10:35:33Z</time>
      </trkpt>
      <trkpt lat="48.78179" lon="2.12611">
        <ele>149.8</ele>
        <time>2017-12-17T10:35:44Z</time>
      </trkpt>
      <trkpt lat="48.78179" lon="2.12614">
        <ele>150.71</ele>
        <time>2017-12-17T10:35:47Z</time>
      </trkpt>
      <trkpt lat="48.78181" lon="2.12629">
        <ele>150.14</ele>
        <time>2017-12-17T10:36:06Z</time>
      </trkpt>
      <trkpt lat="48.78182" lon="2.12645">
        <ele>150.31</ele>
        <time>2017-12-17T10:36:18Z</time>
      </trkpt>
      <trkpt lat="48.7818" lon="2.12672">
        <ele>150.88</ele>
        <time>2017-12-17T10:36:37Z</time>
      </trkpt>
      <trkpt lat="48.78172" lon="2.12677">
        <ele>150.8</ele>
        <time>2017-12-17T10:36:56Z</time>
      </trkpt>
      <trkpt lat="48.78165" lon="2.12671">
        <ele>150.51</ele>
        <time>2017-12-17T10:37:14Z</time>
      </trkpt>
      <trkpt lat="48.78155" lon="2.12659">
        <ele>150.28</ele>
        <time>2017-12-17T10:37:25Z</time>
      </trkpt>
      <trkpt lat="48.78139" lon="2.12639">
        <ele>149.18</ele>
        <time>2017-12-17T10:37:45Z</time>
      </trkpt>
      <trkpt lat="48.78124" lon="2.12616">
        <ele>148.98</ele>
        <time>2017-12-17T10:38:03Z</time>
      </trkpt>
      <trkpt lat="48.78111" lon="2.12598">
        <ele>148.11</ele>
        <time>2017-12-17T10:38:22Z</time>
      </trkpt>
      <trkpt lat="48.78099" lon="2.12586">
        <ele>147.54</ele>
        <time>2017-12-17T10:38:38Z</time>
      </trkpt>
      <trkpt lat="48.78083" lon="2.12563">
        <ele>146.58</ele>
        <time>2017-12-17T10:38:58Z</time>
      </trkpt>
      <trkpt lat="48.78069" lon="2.12542">
        <ele>145.33</ele>
        <time>2017-12-17T10:39:15Z</time>
      </trkpt>
      <trkpt lat="48.78059" lon="2.1253">
        <ele>145.19</ele>
        <time>2017-12-17T10:39:27Z</time>
      </trkpt>
      <trkpt lat="48.78053" lon="2.12522">
        <ele>145.19</ele>
        <time>2017-12-17T10:39:32Z</time>
      </trkpt>
      <trkpt lat="48.78041" lon="2.12505">
        <ele>144.29</ele>
        <time>2017-12-17T10:39:47Z</time>
      </trkpt>
      <trkpt lat="48.78028" lon="2.12489">
        <ele>143.34</ele>
        <time>2017-12-17T10:40:06Z</time>
      </trkpt>
      <trkpt lat="48.78011" lon="2.12476">
        <ele>141.41</ele>
        <time>2017-12-17T10:40:26Z</time>
      </trkpt>
      <trkpt lat="48.78016" lon="2.12462">
        <ele>141.16</ele>
        <time>2017-12-17T10:40:44Z</time>
      </trkpt>
      <trkpt lat="48.7802" lon="2.12454">
        <ele>141.48</ele>
        <time>2017-12-17T10:40:53Z</time>
      </trkpt>
      <trkpt lat="48.78017" lon="2.12447">
        <ele>140.51</ele>
        <time>2017-12-17T10:41:06Z</time>
      </trkpt>
      <trkpt lat="48.7801" lon="2.12452">
        <ele>140.98</ele>
        <time>2017-12-17T10:41:22Z</time>
      </trkpt>
      <trkpt lat="48.77998" lon="2.12455">
        <ele>141.26</ele>
        <time>2017-12-17T10:41:37Z</time>
      </trkpt>
      <trkpt lat="48.77992" lon="2.1244">
        <ele>139.77</ele>
        <time>2017-12-17T10:41:56Z</time>
      </trkpt>
      <trkpt lat="48.77996" lon="2.12413">
        <ele>138.74</ele>
        <time>2017-12-17T10:42:17Z</time>
      </trkpt>
      <trkpt lat="48.78001" lon="2.12382">
        <ele>137.24</ele>
        <time>2017-12-17T10:42:38Z</time>
      </trkpt>
      <trkpt lat="48.78005" lon="2.1235">
        <ele>137.7</ele>
        <time>2017-12-17T10:42:58Z</time>
      </trkpt>
      <trkpt lat="48.7801" lon="2.12314">
        <ele>138.48</ele>
        <time>2017-12-17T10:43:20Z</time>
      </trkpt>
      <trkpt lat="48.78009" lon="2.12305">
        <ele>138.18</ele>
        <time>2017-12-17T10:43:34Z</time>
      </trkpt>
      <trkpt lat="48.78003" lon="2.12293">
        <ele>137.97</ele>
        <time>2017-12-17T10:44:00Z</time>
      </trkpt>
      <trkpt lat="48.7799" lon="2.12276">
        <ele>138.62</ele>
        <time>2017-12-17T10:44:20Z</time>
      </trkpt>
      <trkpt lat="48.77989" lon="2.12274">
        <ele>138.35</ele>
        <time>2017-12-17T10:44:22Z</time>
      </trkpt>
      <trkpt lat="48.77989" lon="2.12247">
        <ele>138.05</ele>
        <time>2017-12-17T10:44:40Z</time>
      </trkpt>
      <trkpt lat="48.77985" lon="2.12224">
        <ele>138.41</ele>
        <time>2017-12-17T10:44:56Z</time>
      </trkpt>
      <trkpt lat="48.77978" lon="2.12209">
        <ele>138.85</ele>
        <time>2017-12-17T10:45:08Z</time>
      </trkpt>
      <trkpt lat="48.77964" lon="2.12202">
        <ele>138.34</ele>
        <time>2017-12-17T10:45:25Z</time>
      </trkpt>
      <trkpt lat="48.7795" lon="2.12197">
        <ele>137.18</ele>
        <time>2017-12-17T10:45:43Z</time>
      </trkpt>
      <trkpt lat="48.77933" lon="2.12186">
        <ele>136.85</ele>
        <time>2017-12-17T10:46:01Z</time>
      </trkpt>
      <trkpt lat="48.77912" lon="2.12175">
        <ele>136.15</ele>
        <time>2017-12-17T10:46:22Z</time>
      </trkpt>
      <trkpt lat="48.77898" lon="2.12157">
        <ele>133.99</ele>
        <time>2017-12-17T10:46:40Z</time>
      </trkpt>
      <trkpt lat="48.77886" lon="2.12135">
        <ele>131.83</ele>
        <time>2017-12-17T10:47:02Z</time>
      </trkpt>
      <trkpt lat="48.77882" lon="2.12115">
        <ele>128.98</ele>
        <time>2017-12-17T10:47:23Z</time>
      </trkpt>
      <trkpt lat="48.77878" lon="2.12105">
        <ele>127.56</ele>
        <time>2017-12-17T10:47:36Z</time>
      </trkpt>
      <trkpt lat="48.77872" lon="2.12089">
        <ele>124.28</ele>
        <time>2017-12-17T10:47:54Z</time>
      </trkpt>
      <trkpt lat="48.77863" lon="2.12062">
        <ele>121.65</ele>
        <time>2017-12-17T10:48:13Z</time>
      </trkpt>
      <trkpt lat="48.77854" lon="2.12037">
        <ele>118.24</ele>
        <time>2017-12-17T10:48:36Z</time>
      </trkpt>
      <trkpt lat="48.77847" lon="2.1202">
        <ele>115.19</ele>
        <time>2017-12-17T10:48:53Z</time>
      </trkpt>
      <trkpt lat="48.7784" lon="2.11998">
        <ele>112.02</ele>
        <time>2017-12-17T10:49:14Z</time>
      </trkpt>
      <trkpt lat="48.77835" lon="2.11985">
        <ele>108.79</ele>
        <time>2017-12-17T10:49:31Z</time>
      </trkpt>
      <trkpt lat="48.77831" lon="2.11969">
        <ele>105.71</ele>
        <time>2017-12-17T10:49:51Z</time>
      </trkpt>
      <trkpt lat="48.77829" lon="2.11957">
        <ele>103.14</ele>
        <time>2017-12-17T10:50:07Z</time>
      </trkpt>
      <trkpt lat="48.77821" lon="2.11945">
        <ele>100.46</ele>
        <time>2017-12-17T10:50:27Z</time>
      </trkpt>
      <trkpt lat="48.7781" lon="2.11938">
        <ele>97.19</ele>
        <time>2017-12-17T10:50:46Z</time>
      </trkpt>
      <trkpt lat="48.77807" lon="2.11933">
        <ele>96.04</ele>
        <time>2017-12-17T10:50:51Z</time>
      </trkpt>
      <trkpt lat="48.778" lon="2.11926">
        <ele>94.14</ele>
        <time>2017-12-17T10:51:01Z</time>
      </trkpt>
      <trkpt lat="48.77784" lon="2.11919">
        <ele>91.47</ele>
        <time>2017-12-17T10:51:22Z</time>
      </trkpt>
      <trkpt lat="48.77768" lon="2.11909">
        <ele>90.7</ele>
        <time>2017-12-17T10:51:41Z</time>
      </trkpt>
      <trkpt lat="48.77762" lon="2.1189">
        <ele>90.79</ele>
        <time>2017-12-17T10:52:02Z</time>
      </trkpt>
      <trkpt lat="48.77762" lon="2.11875">
        <ele>89.85</ele>
        <time>2017-12-17T10:52:19Z</time>
      </trkpt>
      <trkpt lat="48.77763" lon="2.11844">
        <ele>90.43</ele>
        <time>2017-12-17T10:52:41Z</time>
      </trkpt>
      <trkpt lat="48.77763" lon="2.11821">
        <ele>89.36</ele>
        <time>2017-12-17T10:53:01Z</time>
      </trkpt>
      <trkpt lat="48.77759" lon="2.1179">
        <ele>89.12</ele>
        <time>2017-12-17T10:53:17Z</time>
      </trkpt>
      <trkpt lat="48.77752" lon="2.1177">
        <ele>89.6</ele>
        <time>2017-12-17T10:53:34Z</time>
      </trkpt>
      <trkpt lat="48.7775" lon="2.11769">
        <ele>88.8</ele>
        <time>2017-12-17T10:53:37Z</time>
      </trkpt>
      <trkpt lat="48.77747" lon="2.11768">
        <ele>89.02</ele>
        <time>2017-12-17T10:53:39Z</time>
      </trkpt>
      <trkpt lat="48.77745" lon="2.11758">
        <ele>89.05</ele>
        <time>2017-12-17T10:53:53Z</time>
      </trkpt>
      <trkpt lat="48.77744" lon="2.11744">
        <ele>89.32</ele>
        <time>2017-12-17T10:56:04Z</time>
      </trkpt>
      <trkpt lat="48.77742" lon="2.11737">
        <ele>89.41</ele>
        <time>2017-12-17T10:56:09Z</time>
      </trkpt>
      <trkpt lat="48.77741" lon="2.11715">
        <ele>90</ele>
        <time>2017-12-17T10:56:25Z</time>
      </trkpt>
      <trkpt lat="48.7774" lon="2.11695">
        <ele>88.88</ele>
        <time>2017-12-17T10:56:39Z</time>
      </trkpt>
      <trkpt lat="48.77737" lon="2.11671">
        <ele>88.39</ele>
        <time>2017-12-17T10:56:56Z</time>
      </trkpt>
      <trkpt lat="48.77734" lon="2.11635">
        <ele>88.71</ele>
        <time>2017-12-17T10:57:17Z</time>
      </trkpt>
      <trkpt lat="48.77731" lon="2.1163">
        <ele>88.96</ele>
        <time>2017-12-17T10:57:22Z</time>
      </trkpt>
      <trkpt lat="48.77723" lon="2.11599">
        <ele>88.65</ele>
        <time>2017-12-17T10:57:41Z</time>
      </trkpt>
      <trkpt lat="48.77721" lon="2.1159">
        <ele>89.26</ele>
        <time>2017-12-17T10:57:46Z</time>
      </trkpt>
      <trkpt lat="48.77714" lon="2.11566">
        <ele>88.77</ele>
        <time>2017-12-17T10:58:02Z</time>
      </trkpt>
      <trkpt lat="48.77703" lon="2.11542">
        <ele>88.58</ele>
        <time>2017-12-17T10:58:17Z</time>
      </trkpt>
      <trkpt lat="48.77696" lon="2.11513">
        <ele>88.32</ele>
        <time>2017-12-17T10:58:37Z</time>
      </trkpt>
      <trkpt lat="48.77693" lon="2.11487">
        <ele>88.56</ele>
        <time>2017-12-17T10:58:53Z</time>
      </trkpt>
      <trkpt lat="48.77696" lon="2.11454">
        <ele>88.68</ele>
        <time>2017-12-17T10:59:12Z</time>
      </trkpt>
      <trkpt lat="48.77698" lon="2.11444">
        <ele>88.18</ele>
        <time>2017-12-17T10:59:18Z</time>
      </trkpt>
      <trkpt lat="48.77706" lon="2.1143">
        <ele>88.78</ele>
        <time>2017-12-17T10:59:29Z</time>
      </trkpt>
      <trkpt lat="48.77714" lon="2.11408">
        <ele>88.56</ele>
        <time>2017-12-17T10:59:42Z</time>
      </trkpt>
      <trkpt lat="48.77715" lon="2.11397">
        <ele>88.95</ele>
        <time>2017-12-17T10:59:49Z</time>
      </trkpt>
      <trkpt lat="48.7771" lon="2.11375">
        <ele>88.3</ele>
        <time>2017-12-17T11:00:06Z</time>
      </trkpt>
      <trkpt lat="48.7771" lon="2.11351">
        <ele>88.44</ele>
        <time>2017-12-17T11:00:24Z</time>
      </trkpt>
      <trkpt lat="48.77713" lon="2.11321">
        <ele>89.01</ele>
        <time>2017-12-17T11:00:42Z</time>
      </trkpt>
      <trkpt lat="48.77719" lon="2.11296">
        <ele>89.35</ele>
        <time>2017-12-17T11:01:00Z</time>
      </trkpt>
      <trkpt lat="48.77722" lon="2.11278">
        <ele>89.62</ele>
        <time>2017-12-17T11:01:17Z</time>
      </trkpt>
      <trkpt lat="48.77724" lon="2.11262">
        <ele>89.65</ele>
        <time>2017-12-17T11:01:36Z</time>
      </trkpt>
      <trkpt lat="48.77719" lon="2.11235">
        <ele>88.78</ele>
        <time>2017-12-17T11:01:54Z</time>
      </trkpt>
      <trkpt lat="48.77714" lon="2.11209">
        <ele>89.09</ele>
        <time>2017-12-17T11:02:13Z</time>
      </trkpt>
      <trkpt lat="48.7771" lon="2.11179">
        <ele>90.33</ele>
        <time>2017-12-17T11:02:32Z</time>
      </trkpt>
      <trkpt lat="48.77704" lon="2.1115">
        <ele>89.04</ele>
        <time>2017-12-17T11:02:52Z</time>
      </trkpt>
      <trkpt lat="48.77696" lon="2.11115">
        <ele>89.06</ele>
        <time>2017-12-17T11:03:12Z</time>
      </trkpt>
      <trkpt lat="48.77689" lon="2.11083">
        <ele>89.72</ele>
        <time>2017-12-17T11:03:32Z</time>
      </trkpt>
      <trkpt lat="48.7768" lon="2.11056">
        <ele>89.99</ele>
        <time>2017-12-17T11:03:49Z</time>
      </trkpt>
      <trkpt lat="48.77666" lon="2.11026">
        <ele>90.22</ele>
        <time>2017-12-17T11:04:11Z</time>
      </trkpt>
      <trkpt lat="48.77656" lon="2.11007">
        <ele>90.51</ele>
        <time>2017-12-17T11:04:27Z</time>
      </trkpt>
      <trkpt lat="48.77649" lon="2.10983">
        <ele>91.07</ele>
        <time>2017-12-17T11:04:46Z</time>
      </trkpt>
      <trkpt lat="48.77638" lon="2.10956">
        <ele>91.3</ele>
        <time>2017-12-17T11:05:03Z</time>
      </trkpt>
      <trkpt lat="48.7763" lon="2.10936">
        <ele>91.25</ele>
        <time>2017-12-17T11:05:17Z</time>
      </trkpt>
      <trkpt lat="48.77623" lon="2.10913">
        <ele>91.35</ele>
        <time>2017-12-17T11:05:33Z</time>
      </trkpt>
      <trkpt lat="48.77613" lon="2.10888">
        <ele>92.26</ele>
        <time>2017-12-17T11:05:49Z</time>
      </trkpt>
      <trkpt lat="48.77604" lon="2.10879">
        <ele>91.44</ele>
        <time>2017-12-17T11:06:01Z</time>
      </trkpt>
      <trkpt lat="48.77589" lon="2.10886">
        <ele>90.58</ele>
        <time>2017-12-17T11:06:19Z</time>
      </trkpt>
      <trkpt lat="48.77573" lon="2.10884">
        <ele>90.39</ele>
        <time>2017-12-17T11:06:37Z</time>
      </trkpt>
      <trkpt lat="48.7757" lon="2.10885">
        <ele>90.63</ele>
        <time>2017-12-17T11:06:40Z</time>
      </trkpt>
      <trkpt lat="48.77564" lon="2.109">
        <ele>89.19</ele>
        <time>2017-12-17T11:06:56Z</time>
      </trkpt>
      <trkpt lat="48.77554" lon="2.1093">
        <ele>88.96</ele>
        <time>2017-12-17T11:07:17Z</time>
      </trkpt>
      <trkpt lat="48.77546" lon="2.10961">
        <ele>89.25</ele>
        <time>2017-12-17T11:07:37Z</time>
      </trkpt>
      <trkpt lat="48.77544" lon="2.10967">
        <ele>89.23</ele>
        <time>2017-12-17T11:07:40Z</time>
      </trkpt>
      <trkpt lat="48.77539" lon="2.10988">
        <ele>89.11</ele>
        <time>2017-12-17T11:07:55Z</time>
      </trkpt>
      <trkpt lat="48.77531" lon="2.11017">
        <ele>88.94</ele>
        <time>2017-12-17T11:08:14Z</time>
      </trkpt>
      <trkpt lat="48.77522" lon="2.11044">
        <ele>88.94</ele>
        <time>2017-12-17T11:08:33Z</time>
      </trkpt>
      <trkpt lat="48.77523" lon="2.11053">
        <ele>89.51</ele>
        <time>2017-12-17T11:08:42Z</time>
      </trkpt>
      <trkpt lat="48.7753" lon="2.11067">
        <ele>88.74</ele>
        <time>2017-12-17T11:09:04Z</time>
      </trkpt>
      <trkpt lat="48.77541" lon="2.11075">
        <ele>88.38</ele>
        <time>2017-12-17T11:09:24Z</time>
      </trkpt>
      <trkpt lat="48.77542" lon="2.11076">
        <ele>88.52</ele>
        <time>2017-12-17T11:09:25Z</time>
      </trkpt>
      <trkpt lat="48.77545" lon="2.11078">
        <ele>88.94</ele>
        <time>2017-12-17T11:09:30Z</time>
      </trkpt>
      <trkpt lat="48.77551" lon="2.11084">
        <ele>88.54</ele>
        <time>2017-12-17T11:09:40Z</time>
      </trkpt>
      <trkpt lat="48.77566" lon="2.11103">
        <ele>88.83</ele>
        <time>2017-12-17T11:09:56Z</time>
      </trkpt>
      <trkpt lat="48.77568" lon="2.11106">
        <ele>88.29</ele>
        <time>2017-12-17T11:09:58Z</time>
      </trkpt>
      <trkpt lat="48.77581" lon="2.11128">
        <ele>88.45</ele>
        <time>2017-12-17T11:10:18Z</time>
      </trkpt>
      <trkpt lat="48.77591" lon="2.11157">
        <ele>89.19</ele>
        <time>2017-12-17T11:10:39Z</time>
      </trkpt>
      <trkpt lat="48.77599" lon="2.11186">
        <ele>88.66</ele>
        <time>2017-12-17T11:10:59Z</time>
      </trkpt>
      <trkpt lat="48.776" lon="2.11208">
        <ele>88.33</ele>
        <time>2017-12-17T11:11:12Z</time>
      </trkpt>
      <trkpt lat="48.77602" lon="2.11248">
        <ele>87.99</ele>
        <time>2017-12-17T11:11:35Z</time>
      </trkpt>
      <trkpt lat="48.77603" lon="2.11251">
        <ele>88.04</ele>
        <time>2017-12-17T11:11:37Z</time>
      </trkpt>
      <trkpt lat="48.77602" lon="2.11282">
        <ele>88.37</ele>
        <time>2017-12-17T11:11:54Z</time>
      </trkpt>
      <trkpt lat="48.77601" lon="2.11315">
        <ele>87.63</ele>
        <time>2017-12-17T11:12:14Z</time>
      </trkpt>
      <trkpt lat="48.77607" lon="2.11346">
        <ele>87.83</ele>
        <time>2017-12-17T11:12:34Z</time>
      </trkpt>
      <trkpt lat="48.77611" lon="2.11371">
        <ele>88.54</ele>
        <time>2017-12-17T11:12:52Z</time>
      </trkpt>
      <trkpt lat="48.7761" lon="2.11398">
        <ele>88.17</ele>
        <time>2017-12-17T11:13:13Z</time>
      </trkpt>
      <trkpt lat="48.77616" lon="2.1143">
        <ele>87.4</ele>
        <time>2017-12-17T11:13:33Z</time>
      </trkpt>
      <trkpt lat="48.77614" lon="2.11438">
        <ele>87.42</ele>
        <time>2017-12-17T11:13:38Z</time>
      </trkpt>
      <trkpt lat="48.77613" lon="2.11465">
        <ele>87.18</ele>
        <time>2017-12-17T11:13:58Z</time>
      </trkpt>
      <trkpt lat="48.77611" lon="2.11493">
        <ele>86.1</ele>
        <time>2017-12-17T11:14:18Z</time>
      </trkpt>
      <trkpt lat="48.77614" lon="2.11526">
        <ele>86.05</ele>
        <time>2017-12-17T11:14:40Z</time>
      </trkpt>
      <trkpt lat="48.77612" lon="2.11543">
        <ele>85.99</ele>
        <time>2017-12-17T11:14:48Z</time>
      </trkpt>
      <trkpt lat="48.77612" lon="2.11564">
        <ele>85.73</ele>
        <time>2017-12-17T11:15:02Z</time>
      </trkpt>
      <trkpt lat="48.77615" lon="2.11593">
        <ele>85.61</ele>
        <time>2017-12-17T11:15:22Z</time>
      </trkpt>
      <trkpt lat="48.77614" lon="2.11607">
        <ele>85.72</ele>
        <time>2017-12-17T11:15:31Z</time>
      </trkpt>
      <trkpt lat="48.77617" lon="2.11632">
        <ele>86.09</ele>
        <time>2017-12-17T11:15:52Z</time>
      </trkpt>
      <trkpt lat="48.77626" lon="2.1166">
        <ele>85.89</ele>
        <time>2017-12-17T11:16:13Z</time>
      </trkpt>
      <trkpt lat="48.77635" lon="2.11676">
        <ele>86.68</ele>
        <time>2017-12-17T11:16:31Z</time>
      </trkpt>
      <trkpt lat="48.77636" lon="2.11682">
        <ele>86.12</ele>
        <time>2017-12-17T11:16:34Z</time>
      </trkpt>
      <trkpt lat="48.77637" lon="2.11701">
        <ele>86.23</ele>
        <time>2017-12-17T11:16:42Z</time>
      </trkpt>
      <trkpt lat="48.77637" lon="2.11707">
        <ele>86.21</ele>
        <time>2017-12-17T11:16:45Z</time>
      </trkpt>
      <trkpt lat="48.77638" lon="2.11726">
        <ele>86.3</ele>
        <time>2017-12-17T11:16:56Z</time>
      </trkpt>
      <trkpt lat="48.7764" lon="2.11747">
        <ele>87.45</ele>
        <time>2017-12-17T11:17:11Z</time>
      </trkpt>
      <trkpt lat="48.77644" lon="2.11768">
        <ele>86</ele>
        <time>2017-12-17T11:17:26Z</time>
      </trkpt>
      <trkpt lat="48.77656" lon="2.11784">
        <ele>84.39</ele>
        <time>2017-12-17T11:17:44Z</time>
      </trkpt>
      <trkpt lat="48.77668" lon="2.11791">
        <ele>83.01</ele>
        <time>2017-12-17T11:18:03Z</time>
      </trkpt>
      <trkpt lat="48.77687" lon="2.11799">
        <ele>82.19</ele>
        <time>2017-12-17T11:18:22Z</time>
      </trkpt>
      <trkpt lat="48.77693" lon="2.11812">
        <ele>81.97</ele>
        <time>2017-12-17T11:18:39Z</time>
      </trkpt>
      <trkpt lat="48.77695" lon="2.11839">
        <ele>81.85</ele>
        <time>2017-12-17T11:18:56Z</time>
      </trkpt>
      <trkpt lat="48.777" lon="2.11873">
        <ele>82.05</ele>
        <time>2017-12-17T11:19:16Z</time>
      </trkpt>
      <trkpt lat="48.77697" lon="2.11905">
        <ele>81.16</ele>
        <time>2017-12-17T11:19:37Z</time>
      </trkpt>
      <trkpt lat="48.77697" lon="2.11912">
        <ele>81.39</ele>
        <time>2017-12-17T11:19:43Z</time>
      </trkpt>
      <trkpt lat="48.77691" lon="2.1192">
        <ele>81.19</ele>
        <time>2017-12-17T11:20:03Z</time>
      </trkpt>
      <trkpt lat="48.77691" lon="2.1192">
        <ele>82.04</ele>
        <time>2017-12-17T11:20:25Z</time>
      </trkpt>
      <trkpt lat="48.77691" lon="2.11926">
        <ele>81.41</ele>
        <time>2017-12-17T11:20:37Z</time>
      </trkpt>
      <trkpt lat="48.77686" lon="2.11929">
        <ele>81.82</ele>
        <time>2017-12-17T11:20:59Z</time>
      </trkpt>
      <trkpt lat="48.77681" lon="2.11935">
        <ele>83.51</ele>
        <time>2017-12-17T11:22:52Z</time>
      </trkpt>
      <trkpt lat="48.77677" lon="2.11939">
        <ele>83.82</ele>
        <time>2017-12-17T11:23:20Z</time>
      </trkpt>
      <trkpt lat="48.7768" lon="2.11946">
        <ele>83.8</ele>
        <time>2017-12-17T11:23:38Z</time>
      </trkpt>
      <trkpt lat="48.77683" lon="2.11947">
        <ele>83.52</ele>
        <time>2017-12-17T11:23:44Z</time>
      </trkpt>
      <trkpt lat="48.77682" lon="2.1196">
        <ele>84.12</ele>
        <time>2017-12-17T11:23:59Z</time>
      </trkpt>
      <trkpt lat="48.77678" lon="2.11982">
        <ele>84.82</ele>
        <time>2017-12-17T11:24:16Z</time>
      </trkpt>
      <trkpt lat="48.77678" lon="2.11992">
        <ele>84.38</ele>
        <time>2017-12-17T11:24:22Z</time>
      </trkpt>
      <trkpt lat="48.77676" lon="2.12007">
        <ele>84.06</ele>
        <time>2017-12-17T11:24:32Z</time>
      </trkpt>
      <trkpt lat="48.77671" lon="2.12029">
        <ele>83.66</ele>
        <time>2017-12-17T11:24:47Z</time>
      </trkpt>
      <trkpt lat="48.77671" lon="2.12032">
        <ele>83.9</ele>
        <time>2017-12-17T11:24:49Z</time>
      </trkpt>
      <trkpt lat="48.77666" lon="2.12064">
        <ele>83.11</ele>
        <time>2017-12-17T11:25:09Z</time>
      </trkpt>
      <trkpt lat="48.7766" lon="2.12084">
        <ele>83.28</ele>
        <time>2017-12-17T11:25:24Z</time>
      </trkpt>
      <trkpt lat="48.7765" lon="2.12104">
        <ele>85.08</ele>
        <time>2017-12-17T11:25:39Z</time>
      </trkpt>
      <trkpt lat="48.77648" lon="2.1211">
        <ele>85.09</ele>
        <time>2017-12-17T11:25:43Z</time>
      </trkpt>
      <trkpt lat="48.77638" lon="2.12144">
        <ele>85.21</ele>
        <time>2017-12-17T11:26:05Z</time>
      </trkpt>
      <trkpt lat="48.77633" lon="2.1218">
        <ele>85.39</ele>
        <time>2017-12-17T11:26:26Z</time>
      </trkpt>
      <trkpt lat="48.77623" lon="2.12197">
        <ele>84.9</ele>
        <time>2017-12-17T11:26:38Z</time>
      </trkpt>
      <trkpt lat="48.77615" lon="2.12221">
        <ele>85.41</ele>
        <time>2017-12-17T11:26:52Z</time>
      </trkpt>
      <trkpt lat="48.77611" lon="2.12249">
        <ele>84.79</ele>
        <time>2017-12-17T11:27:11Z</time>
      </trkpt>
      <trkpt lat="48.77605" lon="2.12275">
        <ele>84.83</ele>
        <time>2017-12-17T11:27:27Z</time>
      </trkpt>
      <trkpt lat="48.77602" lon="2.12278">
        <ele>85.02</ele>
        <time>2017-12-17T11:27:31Z</time>
      </trkpt>
      <trkpt lat="48.77592" lon="2.12283">
        <ele>85.67</ele>
        <time>2017-12-17T11:27:41Z</time>
      </trkpt>
      <trkpt lat="48.77583" lon="2.12293">
        <ele>85.09</ele>
        <time>2017-12-17T11:27:56Z</time>
      </trkpt>
      <trkpt lat="48.77583" lon="2.12297">
        <ele>85.24</ele>
        <time>2017-12-17T11:28:02Z</time>
      </trkpt>
      <trkpt lat="48.7758" lon="2.12306">
        <ele>86.09</ele>
        <time>2017-12-17T11:28:09Z</time>
      </trkpt>
      <trkpt lat="48.77566" lon="2.12316">
        <ele>86.38</ele>
        <time>2017-12-17T11:28:22Z</time>
      </trkpt>
      <trkpt lat="48.77556" lon="2.12321">
        <ele>85.5</ele>
        <time>2017-12-17T11:28:33Z</time>
      </trkpt>
      <trkpt lat="48.77552" lon="2.1233">
        <ele>85.77</ele>
        <time>2017-12-17T11:28:39Z</time>
      </trkpt>
      <trkpt lat="48.7755" lon="2.12349">
        <ele>85.4</ele>
        <time>2017-12-17T11:28:53Z</time>
      </trkpt>
      <trkpt lat="48.77551" lon="2.12356">
        <ele>85.49</ele>
        <time>2017-12-17T11:28:57Z</time>
      </trkpt>
      <trkpt lat="48.77552" lon="2.12368">
        <ele>86.05</ele>
        <time>2017-12-17T11:29:05Z</time>
      </trkpt>
      <trkpt lat="48.77551" lon="2.12382">
        <ele>85.78</ele>
        <time>2017-12-17T11:29:13Z</time>
      </trkpt>
      <trkpt lat="48.7754" lon="2.1241">
        <ele>85.28</ele>
        <time>2017-12-17T11:29:31Z</time>
      </trkpt>
      <trkpt lat="48.77529" lon="2.12432">
        <ele>85.51</ele>
        <time>2017-12-17T11:29:49Z</time>
      </trkpt>
      <trkpt lat="48.77534" lon="2.12446">
        <ele>86.18</ele>
        <time>2017-12-17T11:30:07Z</time>
      </trkpt>
      <trkpt lat="48.77525" lon="2.12468">
        <ele>85.28</ele>
        <time>2017-12-17T11:30:24Z</time>
      </trkpt>
      <trkpt lat="48.77512" lon="2.1249">
        <ele>85.71</ele>
        <time>2017-12-17T11:30:42Z</time>
      </trkpt>
      <trkpt lat="48.77507" lon="2.12497">
        <ele>85.38</ele>
        <time>2017-12-17T11:30:47Z</time>
      </trkpt>
      <trkpt lat="48.775" lon="2.12516">
        <ele>85.93</ele>
        <time>2017-12-17T11:30:59Z</time>
      </trkpt>
      <trkpt lat="48.77497" lon="2.1254">
        <ele>85.69</ele>
        <time>2017-12-17T11:31:15Z</time>
      </trkpt>
      <trkpt lat="48.77499" lon="2.12557">
        <ele>85.64</ele>
        <time>2017-12-17T11:31:27Z</time>
      </trkpt>
      <trkpt lat="48.77499" lon="2.12568">
        <ele>85.84</ele>
        <time>2017-12-17T11:31:33Z</time>
      </trkpt>
      <trkpt lat="48.77496" lon="2.12611">
        <ele>85.85</ele>
        <time>2017-12-17T11:31:54Z</time>
      </trkpt>
      <trkpt lat="48.77494" lon="2.12633">
        <ele>86.54</ele>
        <time>2017-12-17T11:32:09Z</time>
      </trkpt>
      <trkpt lat="48.7749" lon="2.12651">
        <ele>87.06</ele>
        <time>2017-12-17T11:32:24Z</time>
      </trkpt>
      <trkpt lat="48.77498" lon="2.12658">
        <ele>86.83</ele>
        <time>2017-12-17T11:32:46Z</time>
      </trkpt>
      <trkpt lat="48.77504" lon="2.12663">
        <ele>86.58</ele>
        <time>2017-12-17T11:32:59Z</time>
      </trkpt>
      <trkpt lat="48.77507" lon="2.12666">
        <ele>86.47</ele>
        <time>2017-12-17T11:33:16Z</time>
      </trkpt>
      <trkpt lat="48.77518" lon="2.12683">
        <ele>86.01</ele>
        <time>2017-12-17T11:33:31Z</time>
      </trkpt>
      <trkpt lat="48.77531" lon="2.12691">
        <ele>85.24</ele>
        <time>2017-12-17T11:33:45Z</time>
      </trkpt>
      <trkpt lat="48.77541" lon="2.12687">
        <ele>85.81</ele>
        <time>2017-12-17T11:33:55Z</time>
      </trkpt>
      <trkpt lat="48.77562" lon="2.12697">
        <ele>85.54</ele>
        <time>2017-12-17T11:34:15Z</time>
      </trkpt>
      <trkpt lat="48.77585" lon="2.12705">
        <ele>86.14</ele>
        <time>2017-12-17T11:34:36Z</time>
      </trkpt>
      <trkpt lat="48.77584" lon="2.12692">
        <ele>86</ele>
        <time>2017-12-17T11:34:42Z</time>
      </trkpt>
      <trkpt lat="48.77576" lon="2.12685">
        <ele>85.85</ele>
        <time>2017-12-17T11:34:52Z</time>
      </trkpt>
      <trkpt lat="48.77574" lon="2.12686">
        <ele>86.07</ele>
        <time>2017-12-17T11:34:54Z</time>
      </trkpt>
      <trkpt lat="48.77568" lon="2.12687">
        <ele>85.67</ele>
        <time>2017-12-17T11:34:59Z</time>
      </trkpt>
      <trkpt lat="48.77554" lon="2.12664">
        <ele>85.41</ele>
        <time>2017-12-17T11:35:20Z</time>
      </trkpt>
      <trkpt lat="48.77555" lon="2.12661">
        <ele>86.16</ele>
        <time>2017-12-17T11:35:37Z</time>
      </trkpt>
      <trkpt lat="48.77565" lon="2.12661">
        <ele>85.33</ele>
        <time>2017-12-17T11:35:54Z</time>
      </trkpt>
      <trkpt lat="48.77566" lon="2.12661">
        <ele>85.88</ele>
        <time>2017-12-17T11:35:55Z</time>
      </trkpt>
      <trkpt lat="48.77575" lon="2.1266">
        <ele>95.92</ele>
        <time>2017-12-17T12:13:49Z</time>
      </trkpt>
      <trkpt lat="48.77575" lon="2.12658">
        <ele>95.22</ele>
        <time>2017-12-17T12:15:20Z</time>
      </trkpt>
      <trkpt lat="48.7757" lon="2.12661">
        <ele>95</ele>
        <time>2017-12-17T12:15:35Z</time>
      </trkpt>
      <trkpt lat="48.77564" lon="2.12661">
        <ele>94.86</ele>
        <time>2017-12-17T12:15:51Z</time>
      </trkpt>
      <trkpt lat="48.77558" lon="2.12664">
        <ele>94.52</ele>
        <time>2017-12-17T12:16:07Z</time>
      </trkpt>
      <trkpt lat="48.77553" lon="2.12663">
        <ele>95.43</ele>
        <time>2017-12-17T12:16:13Z</time>
      </trkpt>
      <trkpt lat="48.77535" lon="2.12648">
        <ele>95.93</ele>
        <time>2017-12-17T12:16:32Z</time>
      </trkpt>
      <trkpt lat="48.7752" lon="2.1264">
        <ele>96.46</ele>
        <time>2017-12-17T12:16:47Z</time>
      </trkpt>
      <trkpt lat="48.77509" lon="2.12636">
        <ele>96.59</ele>
        <time>2017-12-17T12:17:02Z</time>
      </trkpt>
      <trkpt lat="48.77508" lon="2.12636">
        <ele>96.71</ele>
        <time>2017-12-17T12:17:03Z</time>
      </trkpt>
      <trkpt lat="48.77492" lon="2.12648">
        <ele>98.08</ele>
        <time>2017-12-17T12:17:19Z</time>
      </trkpt>
      <trkpt lat="48.77491" lon="2.12651">
        <ele>97.98</ele>
        <time>2017-12-17T12:17:25Z</time>
      </trkpt>
      <trkpt lat="48.77492" lon="2.12659">
        <ele>97.67</ele>
        <time>2017-12-17T12:17:30Z</time>
      </trkpt>
      <trkpt lat="48.77499" lon="2.12669">
        <ele>96.88</ele>
        <time>2017-12-17T12:17:47Z</time>
      </trkpt>
      <trkpt lat="48.77503" lon="2.12676">
        <ele>96.67</ele>
        <time>2017-12-17T12:17:57Z</time>
      </trkpt>
      <trkpt lat="48.775" lon="2.12683">
        <ele>96.27</ele>
        <time>2017-12-17T12:18:03Z</time>
      </trkpt>
      <trkpt lat="48.77499" lon="2.127">
        <ele>96.46</ele>
        <time>2017-12-17T12:18:13Z</time>
      </trkpt>
      <trkpt lat="48.77494" lon="2.12719">
        <ele>96.86</ele>
        <time>2017-12-17T12:18:29Z</time>
      </trkpt>
      <trkpt lat="48.77491" lon="2.12742">
        <ele>97.21</ele>
        <time>2017-12-17T12:18:47Z</time>
      </trkpt>
      <trkpt lat="48.77491" lon="2.12776">
        <ele>96.6</ele>
        <time>2017-12-17T12:19:06Z</time>
      </trkpt>
      <trkpt lat="48.77487" lon="2.12812">
        <ele>96.47</ele>
        <time>2017-12-17T12:19:23Z</time>
      </trkpt>
      <trkpt lat="48.77484" lon="2.1283">
        <ele>95.42</ele>
        <time>2017-12-17T12:19:39Z</time>
      </trkpt>
      <trkpt lat="48.77485" lon="2.12851">
        <ele>95.12</ele>
        <time>2017-12-17T12:19:51Z</time>
      </trkpt>
      <trkpt lat="48.77491" lon="2.1286">
        <ele>93.66</ele>
        <time>2017-12-17T12:20:04Z</time>
      </trkpt>
      <trkpt lat="48.77495" lon="2.12862">
        <ele>92.8</ele>
        <time>2017-12-17T12:20:22Z</time>
      </trkpt>
      <trkpt lat="48.77509" lon="2.12875">
        <ele>92.31</ele>
        <time>2017-12-17T12:20:38Z</time>
      </trkpt>
      <trkpt lat="48.77523" lon="2.12894">
        <ele>91.13</ele>
        <time>2017-12-17T12:20:56Z</time>
      </trkpt>
      <trkpt lat="48.77528" lon="2.12904">
        <ele>91.08</ele>
        <time>2017-12-17T12:21:13Z</time>
      </trkpt>
      <trkpt lat="48.77522" lon="2.12913">
        <ele>90.31</ele>
        <time>2017-12-17T12:21:37Z</time>
      </trkpt>
      <trkpt lat="48.77521" lon="2.12914">
        <ele>90.3</ele>
        <time>2017-12-17T12:21:38Z</time>
      </trkpt>
      <trkpt lat="48.7751" lon="2.12932">
        <ele>89.62</ele>
        <time>2017-12-17T12:21:56Z</time>
      </trkpt>
      <trkpt lat="48.775" lon="2.12965">
        <ele>89.28</ele>
        <time>2017-12-17T12:22:18Z</time>
      </trkpt>
      <trkpt lat="48.77493" lon="2.12997">
        <ele>89.08</ele>
        <time>2017-12-17T12:22:37Z</time>
      </trkpt>
      <trkpt lat="48.77487" lon="2.13022">
        <ele>89</ele>
        <time>2017-12-17T12:22:53Z</time>
      </trkpt>
      <trkpt lat="48.77483" lon="2.13049">
        <ele>88.32</ele>
        <time>2017-12-17T12:23:10Z</time>
      </trkpt>
      <trkpt lat="48.77482" lon="2.13054">
        <ele>88.55</ele>
        <time>2017-12-17T12:23:15Z</time>
      </trkpt>
      <trkpt lat="48.7748" lon="2.13066">
        <ele>88.43</ele>
        <time>2017-12-17T12:23:22Z</time>
      </trkpt>
      <trkpt lat="48.77469" lon="2.13094">
        <ele>88.81</ele>
        <time>2017-12-17T12:23:38Z</time>
      </trkpt>
      <trkpt lat="48.77461" lon="2.13104">
        <ele>88.58</ele>
        <time>2017-12-17T12:23:48Z</time>
      </trkpt>
      <trkpt lat="48.77448" lon="2.13102">
        <ele>88.39</ele>
        <time>2017-12-17T12:24:03Z</time>
      </trkpt>
      <trkpt lat="48.77424" lon="2.13103">
        <ele>87.85</ele>
        <time>2017-12-17T12:24:20Z</time>
      </trkpt>
      <trkpt lat="48.7741" lon="2.13101">
        <ele>88.25</ele>
        <time>2017-12-17T12:24:35Z</time>
      </trkpt>
      <trkpt lat="48.77403" lon="2.13097">
        <ele>88.29</ele>
        <time>2017-12-17T12:24:43Z</time>
      </trkpt>
      <trkpt lat="48.774" lon="2.13099">
        <ele>88.49</ele>
        <time>2017-12-17T12:24:46Z</time>
      </trkpt>
      <trkpt lat="48.77379" lon="2.13121">
        <ele>87.92</ele>
        <time>2017-12-17T12:25:05Z</time>
      </trkpt>
      <trkpt lat="48.77362" lon="2.13138">
        <ele>87.93</ele>
        <time>2017-12-17T12:25:23Z</time>
      </trkpt>
      <trkpt lat="48.7735" lon="2.13154">
        <ele>88.35</ele>
        <time>2017-12-17T12:25:38Z</time>
      </trkpt>
      <trkpt lat="48.77342" lon="2.13177">
        <ele>88.5</ele>
        <time>2017-12-17T12:25:53Z</time>
      </trkpt>
      <trkpt lat="48.77329" lon="2.13199">
        <ele>88.13</ele>
        <time>2017-12-17T12:26:07Z</time>
      </trkpt>
      <trkpt lat="48.77315" lon="2.13214">
        <ele>89.27</ele>
        <time>2017-12-17T12:26:23Z</time>
      </trkpt>
      <trkpt lat="48.77304" lon="2.13223">
        <ele>89.95</ele>
        <time>2017-12-17T12:26:37Z</time>
      </trkpt>
      <trkpt lat="48.77301" lon="2.13225">
        <ele>90.12</ele>
        <time>2017-12-17T12:26:41Z</time>
      </trkpt>
      <trkpt lat="48.77286" lon="2.13222">
        <ele>91.49</ele>
        <time>2017-12-17T12:26:57Z</time>
      </trkpt>
      <trkpt lat="48.77271" lon="2.13214">
        <ele>92.6</ele>
        <time>2017-12-17T12:27:13Z</time>
      </trkpt>
      <trkpt lat="48.77266" lon="2.13212">
        <ele>92.58</ele>
        <time>2017-12-17T12:27:16Z</time>
      </trkpt>
      <trkpt lat="48.77253" lon="2.13194">
        <ele>92.97</ele>
        <time>2017-12-17T12:27:30Z</time>
      </trkpt>
      <trkpt lat="48.77247" lon="2.13176">
        <ele>92.66</ele>
        <time>2017-12-17T12:27:44Z</time>
      </trkpt>
      <trkpt lat="48.7725" lon="2.13163">
        <ele>93.57</ele>
        <time>2017-12-17T12:27:57Z</time>
      </trkpt>
      <trkpt lat="48.77247" lon="2.13149">
        <ele>93.41</ele>
        <time>2017-12-17T12:28:15Z</time>
      </trkpt>
      <trkpt lat="48.7723" lon="2.13136">
        <ele>96.36</ele>
        <time>2017-12-17T12:28:35Z</time>
      </trkpt>
      <trkpt lat="48.77225" lon="2.13131">
        <ele>97.7</ele>
        <time>2017-12-17T12:28:42Z</time>
      </trkpt>
      <trkpt lat="48.77214" lon="2.13118">
        <ele>99.37</ele>
        <time>2017-12-17T12:28:57Z</time>
      </trkpt>
      <trkpt lat="48.77203" lon="2.13102">
        <ele>100.6</ele>
        <time>2017-12-17T12:29:16Z</time>
      </trkpt>
      <trkpt lat="48.77188" lon="2.13087">
        <ele>102.44</ele>
        <time>2017-12-17T12:29:33Z</time>
      </trkpt>
      <trkpt lat="48.77172" lon="2.13071">
        <ele>103.78</ele>
        <time>2017-12-17T12:29:52Z</time>
      </trkpt>
      <trkpt lat="48.77155" lon="2.13052">
        <ele>105.61</ele>
        <time>2017-12-17T12:30:13Z</time>
      </trkpt>
      <trkpt lat="48.77139" lon="2.13057">
        <ele>108.03</ele>
        <time>2017-12-17T12:30:32Z</time>
      </trkpt>
      <trkpt lat="48.77133" lon="2.13064">
        <ele>108.32</ele>
        <time>2017-12-17T12:32:39Z</time>
      </trkpt>
      <trkpt lat="48.77131" lon="2.13067">
        <ele>110.61</ele>
        <time>2017-12-17T12:36:41Z</time>
      </trkpt>
      <trkpt lat="48.7714" lon="2.13094">
        <ele>111.58</ele>
        <time>2017-12-17T12:36:58Z</time>
      </trkpt>
      <trkpt lat="48.77141" lon="2.13118">
        <ele>113.78</ele>
        <time>2017-12-17T12:37:14Z</time>
      </trkpt>
      <trkpt lat="48.77149" lon="2.13154">
        <ele>111.98</ele>
        <time>2017-12-17T12:37:33Z</time>
      </trkpt>
      <trkpt lat="48.77155" lon="2.13169">
        <ele>111.68</ele>
        <time>2017-12-17T12:37:42Z</time>
      </trkpt>
      <trkpt lat="48.77167" lon="2.13196">
        <ele>111.83</ele>
        <time>2017-12-17T12:37:58Z</time>
      </trkpt>
      <trkpt lat="48.77174" lon="2.13218">
        <ele>111.73</ele>
        <time>2017-12-17T12:38:12Z</time>
      </trkpt>
      <trkpt lat="48.77175" lon="2.13221">
        <ele>112.17</ele>
        <time>2017-12-17T12:38:15Z</time>
      </trkpt>
      <trkpt lat="48.77174" lon="2.13224">
        <ele>112.33</ele>
        <time>2017-12-17T12:38:35Z</time>
      </trkpt>
      <trkpt lat="48.77161" lon="2.13221">
        <ele>113.09</ele>
        <time>2017-12-17T12:39:17Z</time>
      </trkpt>
      <trkpt lat="48.77147" lon="2.13221">
        <ele>109.78</ele>
        <time>2017-12-17T12:39:28Z</time>
      </trkpt>
      <trkpt lat="48.77144" lon="2.13233">
        <ele>109.35</ele>
        <time>2017-12-17T12:39:40Z</time>
      </trkpt>
      <trkpt lat="48.7715" lon="2.13247">
        <ele>108.82</ele>
        <time>2017-12-17T12:39:56Z</time>
      </trkpt>
      <trkpt lat="48.77143" lon="2.13259">
        <ele>107.22</ele>
        <time>2017-12-17T12:40:18Z</time>
      </trkpt>
      <trkpt lat="48.77136" lon="2.1328">
        <ele>107.39</ele>
        <time>2017-12-17T12:40:34Z</time>
      </trkpt>
      <trkpt lat="48.77133" lon="2.13288">
        <ele>105.22</ele>
        <time>2017-12-17T12:40:39Z</time>
      </trkpt>
      <trkpt lat="48.77133" lon="2.13293">
        <ele>104.73</ele>
        <time>2017-12-17T12:40:59Z</time>
      </trkpt>
      <trkpt lat="48.77129" lon="2.13311">
        <ele>102.86</ele>
        <time>2017-12-17T12:41:19Z</time>
      </trkpt>
      <trkpt lat="48.7712" lon="2.13337">
        <ele>100.66</ele>
        <time>2017-12-17T12:41:38Z</time>
      </trkpt>
      <trkpt lat="48.77116" lon="2.13368">
        <ele>99.3</ele>
        <time>2017-12-17T12:41:58Z</time>
      </trkpt>
      <trkpt lat="48.77107" lon="2.13407">
        <ele>97.67</ele>
        <time>2017-12-17T12:42:20Z</time>
      </trkpt>
      <trkpt lat="48.77105" lon="2.13419">
        <ele>97.7</ele>
        <time>2017-12-17T12:42:26Z</time>
      </trkpt>
      <trkpt lat="48.77101" lon="2.13446">
        <ele>95.7</ele>
        <time>2017-12-17T12:42:42Z</time>
      </trkpt>
      <trkpt lat="48.77092" lon="2.13473">
        <ele>94.8</ele>
        <time>2017-12-17T12:43:00Z</time>
      </trkpt>
      <trkpt lat="48.77087" lon="2.13502">
        <ele>95.45</ele>
        <time>2017-12-17T12:43:17Z</time>
      </trkpt>
      <trkpt lat="48.7709" lon="2.13529">
        <ele>95.56</ele>
        <time>2017-12-17T12:43:34Z</time>
      </trkpt>
      <trkpt lat="48.77089" lon="2.13536">
        <ele>96.97</ele>
        <time>2017-12-17T12:43:38Z</time>
      </trkpt>
      <trkpt lat="48.77088" lon="2.13566">
        <ele>99.97</ele>
        <time>2017-12-17T12:43:59Z</time>
      </trkpt>
      <trkpt lat="48.77087" lon="2.13589">
        <ele>101.35</ele>
        <time>2017-12-17T12:44:16Z</time>
      </trkpt>
      <trkpt lat="48.77084" lon="2.13599">
        <ele>100.85</ele>
        <time>2017-12-17T12:44:35Z</time>
      </trkpt>
      <trkpt lat="48.77083" lon="2.13613">
        <ele>99.26</ele>
        <time>2017-12-17T12:44:52Z</time>
      </trkpt>
      <trkpt lat="48.77076" lon="2.13647">
        <ele>97.77</ele>
        <time>2017-12-17T12:45:12Z</time>
      </trkpt>
      <trkpt lat="48.77069" lon="2.13679">
        <ele>97.05</ele>
        <time>2017-12-17T12:45:30Z</time>
      </trkpt>
      <trkpt lat="48.7706" lon="2.13704">
        <ele>95.51</ele>
        <time>2017-12-17T12:45:44Z</time>
      </trkpt>
      <trkpt lat="48.77036" lon="2.13716">
        <ele>94.82</ele>
        <time>2017-12-17T12:46:05Z</time>
      </trkpt>
      <trkpt lat="48.77017" lon="2.13713">
        <ele>95.59</ele>
        <time>2017-12-17T12:46:26Z</time>
      </trkpt>
      <trkpt lat="48.77006" lon="2.13733">
        <ele>95.74</ele>
        <time>2017-12-17T12:46:42Z</time>
      </trkpt>
      <trkpt lat="48.77003" lon="2.1374">
        <ele>95.96</ele>
        <time>2017-12-17T12:46:48Z</time>
      </trkpt>
      <trkpt lat="48.76999" lon="2.13752">
        <ele>95.07</ele>
        <time>2017-12-17T12:46:57Z</time>
      </trkpt>
      <trkpt lat="48.76993" lon="2.13767">
        <ele>95.82</ele>
        <time>2017-12-17T12:47:18Z</time>
      </trkpt>
      <trkpt lat="48.76984" lon="2.13797">
        <ele>96.85</ele>
        <time>2017-12-17T12:47:36Z</time>
      </trkpt>
      <trkpt lat="48.76974" lon="2.13819">
        <ele>97.71</ele>
        <time>2017-12-17T12:47:51Z</time>
      </trkpt>
      <trkpt lat="48.76968" lon="2.13843">
        <ele>94.63</ele>
        <time>2017-12-17T12:48:07Z</time>
      </trkpt>
      <trkpt lat="48.76967" lon="2.13851">
        <ele>93.41</ele>
        <time>2017-12-17T12:48:11Z</time>
      </trkpt>
      <trkpt lat="48.76968" lon="2.13878">
        <ele>92.19</ele>
        <time>2017-12-17T12:48:26Z</time>
      </trkpt>
      <trkpt lat="48.76965" lon="2.13896">
        <ele>90.77</ele>
        <time>2017-12-17T12:48:37Z</time>
      </trkpt>
      <trkpt lat="48.76963" lon="2.13929">
        <ele>89.29</ele>
        <time>2017-12-17T12:48:55Z</time>
      </trkpt>
      <trkpt lat="48.76965" lon="2.13933">
        <ele>89.23</ele>
        <time>2017-12-17T12:48:57Z</time>
      </trkpt>
      <trkpt lat="48.76967" lon="2.13939">
        <ele>87.92</ele>
        <time>2017-12-17T12:49:00Z</time>
      </trkpt>
      <trkpt lat="48.76979" lon="2.13961">
        <ele>85.93</ele>
        <time>2017-12-17T12:49:16Z</time>
      </trkpt>
      <trkpt lat="48.76988" lon="2.13981">
        <ele>84.27</ele>
        <time>2017-12-17T12:49:32Z</time>
      </trkpt>
      <trkpt lat="48.76996" lon="2.14">
        <ele>83.59</ele>
        <time>2017-12-17T12:49:45Z</time>
      </trkpt>
      <trkpt lat="48.77" lon="2.14009">
        <ele>83.58</ele>
        <time>2017-12-17T12:49:52Z</time>
      </trkpt>
      <trkpt lat="48.77007" lon="2.14021">
        <ele>80.26</ele>
        <time>2017-12-17T12:50:01Z</time>
      </trkpt>
      <trkpt lat="48.77008" lon="2.14022">
        <ele>80.63</ele>
        <time>2017-12-17T12:50:02Z</time>
      </trkpt>
      <trkpt lat="48.77027" lon="2.14045">
        <ele>78.54</ele>
        <time>2017-12-17T12:50:23Z</time>
      </trkpt>
      <trkpt lat="48.77044" lon="2.14064">
        <ele>77.66</ele>
        <time>2017-12-17T12:50:43Z</time>
      </trkpt>
      <trkpt lat="48.77063" lon="2.14088">
        <ele>76.29</ele>
        <time>2017-12-17T12:51:04Z</time>
      </trkpt>
      <trkpt lat="48.77082" lon="2.14108">
        <ele>76.39</ele>
        <time>2017-12-17T12:51:23Z</time>
      </trkpt>
      <trkpt lat="48.77091" lon="2.14117">
        <ele>75.87</ele>
        <time>2017-12-17T12:51:39Z</time>
      </trkpt>
      <trkpt lat="48.77098" lon="2.14117">
        <ele>76.47</ele>
        <time>2017-12-17T12:51:56Z</time>
      </trkpt>
      <trkpt lat="48.77111" lon="2.14112">
        <ele>77.58</ele>
        <time>2017-12-17T12:52:15Z</time>
      </trkpt>
      <trkpt lat="48.77112" lon="2.14112">
        <ele>77.59</ele>
        <time>2017-12-17T12:52:16Z</time>
      </trkpt>
      <trkpt lat="48.77122" lon="2.14109">
        <ele>77.01</ele>
        <time>2017-12-17T12:52:34Z</time>
      </trkpt>
      <trkpt lat="48.77126" lon="2.1411">
        <ele>77.66</ele>
        <time>2017-12-17T12:52:55Z</time>
      </trkpt>
      <trkpt lat="48.77127" lon="2.14119">
        <ele>75.46</ele>
        <time>2017-12-17T12:53:21Z</time>
      </trkpt>
      <trkpt lat="48.77127" lon="2.14119">
        <ele>75.5</ele>
        <time>2017-12-17T12:53:22Z</time>
      </trkpt>
      <trkpt lat="48.77127" lon="2.14121">
        <ele>78.68</ele>
        <time>2017-12-17T12:53:26Z</time>
      </trkpt>
      <trkpt lat="48.77127" lon="2.14122">
        <ele>78.95</ele>
        <time>2017-12-17T12:53:27Z</time>
      </trkpt>
      <trkpt lat="48.77121" lon="2.14138">
        <ele>78.5</ele>
        <time>2017-12-17T12:53:46Z</time>
      </trkpt>
      <trkpt lat="48.77111" lon="2.1416">
        <ele>77.5</ele>
        <time>2017-12-17T12:54:06Z</time>
      </trkpt>
      <trkpt lat="48.771" lon="2.14186">
        <ele>77.76</ele>
        <time>2017-12-17T12:54:25Z</time>
      </trkpt>
      <trkpt lat="48.77089" lon="2.14212">
        <ele>76.59</ele>
        <time>2017-12-17T12:54:43Z</time>
      </trkpt>
      <trkpt lat="48.77076" lon="2.14244">
        <ele>76.48</ele>
        <time>2017-12-17T12:55:04Z</time>
      </trkpt>
      <trkpt lat="48.77064" lon="2.14269">
        <ele>76.57</ele>
        <time>2017-12-17T12:55:24Z</time>
      </trkpt>
      <trkpt lat="48.77054" lon="2.14292">
        <ele>76.63</ele>
        <time>2017-12-17T12:55:38Z</time>
      </trkpt>
      <trkpt lat="48.77047" lon="2.14314">
        <ele>75.95</ele>
        <time>2017-12-17T12:55:54Z</time>
      </trkpt>
      <trkpt lat="48.77036" lon="2.14341">
        <ele>76.09</ele>
        <time>2017-12-17T12:56:12Z</time>
      </trkpt>
      <trkpt lat="48.7703" lon="2.1436">
        <ele>76.02</ele>
        <time>2017-12-17T12:56:24Z</time>
      </trkpt>
      <trkpt lat="48.77019" lon="2.14385">
        <ele>75.37</ele>
        <time>2017-12-17T12:56:40Z</time>
      </trkpt>
      <trkpt lat="48.77014" lon="2.14399">
        <ele>75.45</ele>
        <time>2017-12-17T12:56:48Z</time>
      </trkpt>
      <trkpt lat="48.77005" lon="2.14426">
        <ele>75.69</ele>
        <time>2017-12-17T12:57:05Z</time>
      </trkpt>
      <trkpt lat="48.77003" lon="2.14431">
        <ele>75.21</ele>
        <time>2017-12-17T12:57:08Z</time>
      </trkpt>
      <trkpt lat="48.77002" lon="2.14434">
        <ele>75.4</ele>
        <time>2017-12-17T12:57:10Z</time>
      </trkpt>
      <trkpt lat="48.7699" lon="2.14458">
        <ele>75.99</ele>
        <time>2017-12-17T12:57:26Z</time>
      </trkpt>
      <trkpt lat="48.76983" lon="2.14487">
        <ele>76.33</ele>
        <time>2017-12-17T12:57:42Z</time>
      </trkpt>
      <trkpt lat="48.76978" lon="2.14499">
        <ele>76.27</ele>
        <time>2017-12-17T12:57:56Z</time>
      </trkpt>
      <trkpt lat="48.7698" lon="2.14501">
        <ele>75.72</ele>
        <time>2017-12-17T12:58:14Z</time>
      </trkpt>
      <trkpt lat="48.76981" lon="2.145">
        <ele>76.34</ele>
        <time>2017-12-17T12:58:36Z</time>
      </trkpt>
      <trkpt lat="48.7699" lon="2.1451">
        <ele>76.48</ele>
        <time>2017-12-17T12:58:52Z</time>
      </trkpt>
      <trkpt lat="48.77006" lon="2.14539">
        <ele>76.25</ele>
        <time>2017-12-17T12:59:11Z</time>
      </trkpt>
      <trkpt lat="48.77009" lon="2.14545">
        <ele>76.39</ele>
        <time>2017-12-17T12:59:25Z</time>
      </trkpt>
      <trkpt lat="48.77009" lon="2.14547">
        <ele>76.65</ele>
        <time>2017-12-17T12:59:38Z</time>
      </trkpt>
      <trkpt lat="48.77008" lon="2.1455">
        <ele>76.68</ele>
        <time>2017-12-17T12:59:40Z</time>
      </trkpt>
      <trkpt lat="48.77007" lon="2.14554">
        <ele>77</ele>
        <time>2017-12-17T12:59:43Z</time>
      </trkpt>
      <trkpt lat="48.77021" lon="2.1458">
        <ele>76.69</ele>
        <time>2017-12-17T13:00:05Z</time>
      </trkpt>
      <trkpt lat="48.77033" lon="2.14605">
        <ele>77.32</ele>
        <time>2017-12-17T13:00:23Z</time>
      </trkpt>
      <trkpt lat="48.77048" lon="2.14632">
        <ele>78.15</ele>
        <time>2017-12-17T13:00:44Z</time>
      </trkpt>
      <trkpt lat="48.77057" lon="2.14641">
        <ele>78.45</ele>
        <time>2017-12-17T13:00:55Z</time>
      </trkpt>
      <trkpt lat="48.77064" lon="2.1465">
        <ele>79.06</ele>
        <time>2017-12-17T13:01:10Z</time>
      </trkpt>
      <trkpt lat="48.77069" lon="2.14639">
        <ele>79.18</ele>
        <time>2017-12-17T13:01:26Z</time>
      </trkpt>
      <trkpt lat="48.77073" lon="2.14621">
        <ele>81.2</ele>
        <time>2017-12-17T13:01:43Z</time>
      </trkpt>
      <trkpt lat="48.77076" lon="2.14606">
        <ele>82.71</ele>
        <time>2017-12-17T13:02:01Z</time>
      </trkpt>
      <trkpt lat="48.77079" lon="2.14582">
        <ele>85.2</ele>
        <time>2017-12-17T13:02:19Z</time>
      </trkpt>
      <trkpt lat="48.77082" lon="2.14563">
        <ele>85.84</ele>
        <time>2017-12-17T13:02:39Z</time>
      </trkpt>
      <trkpt lat="48.77085" lon="2.14533">
        <ele>88.31</ele>
        <time>2017-12-17T13:03:01Z</time>
      </trkpt>
      <trkpt lat="48.77087" lon="2.14524">
        <ele>89.49</ele>
        <time>2017-12-17T13:03:09Z</time>
      </trkpt>
      <trkpt lat="48.77093" lon="2.145">
        <ele>90.63</ele>
        <time>2017-12-17T13:03:27Z</time>
      </trkpt>
      <trkpt lat="48.77094" lon="2.14492">
        <ele>90.82</ele>
        <time>2017-12-17T13:03:31Z</time>
      </trkpt>
      <trkpt lat="48.77097" lon="2.14472">
        <ele>89.73</ele>
        <time>2017-12-17T13:03:44Z</time>
      </trkpt>
      <trkpt lat="48.771" lon="2.14453">
        <ele>88.75</ele>
        <time>2017-12-17T13:03:58Z</time>
      </trkpt>
      <trkpt lat="48.77102" lon="2.14435">
        <ele>87.61</ele>
        <time>2017-12-17T13:04:15Z</time>
      </trkpt>
      <trkpt lat="48.77109" lon="2.14412">
        <ele>86.05</ele>
        <time>2017-12-17T13:04:35Z</time>
      </trkpt>
      <trkpt lat="48.77116" lon="2.14395">
        <ele>83.92</ele>
        <time>2017-12-17T13:04:52Z</time>
      </trkpt>
      <trkpt lat="48.77127" lon="2.14363">
        <ele>83.42</ele>
        <time>2017-12-17T13:05:12Z</time>
      </trkpt>
      <trkpt lat="48.77133" lon="2.14324">
        <ele>83.49</ele>
        <time>2017-12-17T13:05:29Z</time>
      </trkpt>
      <trkpt lat="48.77139" lon="2.14297">
        <ele>85.05</ele>
        <time>2017-12-17T13:05:47Z</time>
      </trkpt>
      <trkpt lat="48.77148" lon="2.14273">
        <ele>86.49</ele>
        <time>2017-12-17T13:06:04Z</time>
      </trkpt>
      <trkpt lat="48.77156" lon="2.14255">
        <ele>85.1</ele>
        <time>2017-12-17T13:06:25Z</time>
      </trkpt>
      <trkpt lat="48.77159" lon="2.14229">
        <ele>84.87</ele>
        <time>2017-12-17T13:06:43Z</time>
      </trkpt>
      <trkpt lat="48.77166" lon="2.14207">
        <ele>83.22</ele>
        <time>2017-12-17T13:07:00Z</time>
      </trkpt>
      <trkpt lat="48.77167" lon="2.14181">
        <ele>80.06</ele>
        <time>2017-12-17T13:07:17Z</time>
      </trkpt>
      <trkpt lat="48.77169" lon="2.14169">
        <ele>78.25</ele>
        <time>2017-12-17T13:07:31Z</time>
      </trkpt>
      <trkpt lat="48.77181" lon="2.1416">
        <ele>76.69</ele>
        <time>2017-12-17T13:07:47Z</time>
      </trkpt>
      <trkpt lat="48.77192" lon="2.14152">
        <ele>77.24</ele>
        <time>2017-12-17T13:08:01Z</time>
      </trkpt>
      <trkpt lat="48.77193" lon="2.14149">
        <ele>77.52</ele>
        <time>2017-12-17T13:08:25Z</time>
      </trkpt>
      <trkpt lat="48.77195" lon="2.14148">
        <ele>78.07</ele>
        <time>2017-12-17T13:11:10Z</time>
      </trkpt>
      <trkpt lat="48.77197" lon="2.14141">
        <ele>78.5</ele>
        <time>2017-12-17T13:11:37Z</time>
      </trkpt>
      <trkpt lat="48.772" lon="2.14133">
        <ele>79.49</ele>
        <time>2017-12-17T13:12:05Z</time>
      </trkpt>
      <trkpt lat="48.77202" lon="2.14128">
        <ele>79.78</ele>
        <time>2017-12-17T13:12:23Z</time>
      </trkpt>
      <trkpt lat="48.77194" lon="2.14123">
        <ele>79.69</ele>
        <time>2017-12-17T13:13:06Z</time>
      </trkpt>
      <trkpt lat="48.77189" lon="2.14127">
        <ele>79.85</ele>
        <time>2017-12-17T13:13:35Z</time>
      </trkpt>
      <trkpt lat="48.77187" lon="2.1413">
        <ele>80.36</ele>
        <time>2017-12-17T13:14:03Z</time>
      </trkpt>
      <trkpt lat="48.77183" lon="2.14126">
        <ele>80.47</ele>
        <time>2017-12-17T13:14:30Z</time>
      </trkpt>
      <trkpt lat="48.77186" lon="2.14122">
        <ele>80.89</ele>
        <time>2017-12-17T13:14:57Z</time>
      </trkpt>
      <trkpt lat="48.7719" lon="2.14116">
        <ele>80.96</ele>
        <time>2017-12-17T13:16:18Z</time>
      </trkpt>
      <trkpt lat="48.77194" lon="2.14109">
        <ele>82.68</ele>
        <time>2017-12-17T13:17:07Z</time>
      </trkpt>
      <trkpt lat="48.77208" lon="2.1409">
        <ele>84.68</ele>
        <time>2017-12-17T13:17:23Z</time>
      </trkpt>
      <trkpt lat="48.77223" lon="2.14087">
        <ele>88.03</ele>
        <time>2017-12-17T13:17:39Z</time>
      </trkpt>
      <trkpt lat="48.77234" lon="2.14087">
        <ele>91.52</ele>
        <time>2017-12-17T13:17:55Z</time>
      </trkpt>
      <trkpt lat="48.7725" lon="2.14084">
        <ele>94.44</ele>
        <time>2017-12-17T13:18:14Z</time>
      </trkpt>
      <trkpt lat="48.77257" lon="2.14082">
        <ele>94.94</ele>
        <time>2017-12-17T13:18:22Z</time>
      </trkpt>
      <trkpt lat="48.77255" lon="2.14084">
        <ele>93.92</ele>
        <time>2017-12-17T13:18:45Z</time>
      </trkpt>
      <trkpt lat="48.77264" lon="2.14084">
        <ele>97.58</ele>
        <time>2017-12-17T13:19:00Z</time>
      </trkpt>
      <trkpt lat="48.77287" lon="2.14089">
        <ele>100.13</ele>
        <time>2017-12-17T13:19:21Z</time>
      </trkpt>
      <trkpt lat="48.77301" lon="2.1409">
        <ele>102.23</ele>
        <time>2017-12-17T13:19:32Z</time>
      </trkpt>
      <trkpt lat="48.77309" lon="2.14091">
        <ele>103.85</ele>
        <time>2017-12-17T13:19:39Z</time>
      </trkpt>
      <trkpt lat="48.77324" lon="2.1408">
        <ele>106.47</ele>
        <time>2017-12-17T13:19:57Z</time>
      </trkpt>
      <trkpt lat="48.77333" lon="2.14072">
        <ele>108.03</ele>
        <time>2017-12-17T13:20:16Z</time>
      </trkpt>
      <trkpt lat="48.77343" lon="2.14058">
        <ele>111.08</ele>
        <time>2017-12-17T13:20:33Z</time>
      </trkpt>
      <trkpt lat="48.77345" lon="2.14051">
        <ele>111.32</ele>
        <time>2017-12-17T13:20:53Z</time>
      </trkpt>
      <trkpt lat="48.77352" lon="2.14041">
        <ele>114.09</ele>
        <time>2017-12-17T13:21:11Z</time>
      </trkpt>
      <trkpt lat="48.77358" lon="2.14024">
        <ele>117.2</ele>
        <time>2017-12-17T13:21:29Z</time>
      </trkpt>
      <trkpt lat="48.77364" lon="2.14005">
        <ele>118.47</ele>
        <time>2017-12-17T13:21:46Z</time>
      </trkpt>
      <trkpt lat="48.77366" lon="2.14001">
        <ele>119.87</ele>
        <time>2017-12-17T13:22:08Z</time>
      </trkpt>
      <trkpt lat="48.77373" lon="2.13992">
        <ele>122.24</ele>
        <time>2017-12-17T13:22:31Z</time>
      </trkpt>
      <trkpt lat="48.77382" lon="2.1398">
        <ele>124</ele>
        <time>2017-12-17T13:22:48Z</time>
      </trkpt>
      <trkpt lat="48.77396" lon="2.13972">
        <ele>126.34</ele>
        <time>2017-12-17T13:23:08Z</time>
      </trkpt>
      <trkpt lat="48.77398" lon="2.13972">
        <ele>126.16</ele>
        <time>2017-12-17T13:23:10Z</time>
      </trkpt>
      <trkpt lat="48.77407" lon="2.13971">
        <ele>127.05</ele>
        <time>2017-12-17T13:23:33Z</time>
      </trkpt>
      <trkpt lat="48.77413" lon="2.13968">
        <ele>128.6</ele>
        <time>2017-12-17T13:26:41Z</time>
      </trkpt>
      <trkpt lat="48.77414" lon="2.13969">
        <ele>129.03</ele>
        <time>2017-12-17T13:27:07Z</time>
      </trkpt>
      <trkpt lat="48.77425" lon="2.13966">
        <ele>130.14</ele>
        <time>2017-12-17T13:27:23Z</time>
      </trkpt>
      <trkpt lat="48.77441" lon="2.13957">
        <ele>132.22</ele>
        <time>2017-12-17T13:27:41Z</time>
      </trkpt>
      <trkpt lat="48.77455" lon="2.13945">
        <ele>133</ele>
        <time>2017-12-17T13:27:59Z</time>
      </trkpt>
      <trkpt lat="48.7747" lon="2.13936">
        <ele>133.52</ele>
        <time>2017-12-17T13:28:12Z</time>
      </trkpt>
      <trkpt lat="48.77473" lon="2.13934">
        <ele>134.27</ele>
        <time>2017-12-17T13:28:14Z</time>
      </trkpt>
      <trkpt lat="48.77491" lon="2.1392">
        <ele>134.75</ele>
        <time>2017-12-17T13:28:29Z</time>
      </trkpt>
      <trkpt lat="48.77507" lon="2.13908">
        <ele>135.18</ele>
        <time>2017-12-17T13:28:44Z</time>
      </trkpt>
      <trkpt lat="48.7752" lon="2.13888">
        <ele>134.76</ele>
        <time>2017-12-17T13:29:00Z</time>
      </trkpt>
      <trkpt lat="48.7752" lon="2.13883">
        <ele>135.07</ele>
        <time>2017-12-17T13:29:14Z</time>
      </trkpt>
      <trkpt lat="48.77519" lon="2.13879">
        <ele>135.56</ele>
        <time>2017-12-17T13:29:43Z</time>
      </trkpt>
      <trkpt lat="48.7752" lon="2.1388">
        <ele>135.14</ele>
        <time>2017-12-17T13:30:03Z</time>
      </trkpt>
      <trkpt lat="48.77517" lon="2.13867">
        <ele>134.17</ele>
        <time>2017-12-17T13:30:25Z</time>
      </trkpt>
      <trkpt lat="48.77519" lon="2.13844">
        <ele>133.35</ele>
        <time>2017-12-17T13:30:38Z</time>
      </trkpt>
      <trkpt lat="48.77516" lon="2.13815">
        <ele>134.23</ele>
        <time>2017-12-17T13:30:57Z</time>
      </trkpt>
      <trkpt lat="48.77508" lon="2.13788">
        <ele>134.03</ele>
        <time>2017-12-17T13:31:15Z</time>
      </trkpt>
      <trkpt lat="48.77499" lon="2.13761">
        <ele>132.51</ele>
        <time>2017-12-17T13:31:35Z</time>
      </trkpt>
      <trkpt lat="48.77496" lon="2.13731">
        <ele>132.05</ele>
        <time>2017-12-17T13:31:49Z</time>
      </trkpt>
      <trkpt lat="48.77503" lon="2.13705">
        <ele>131.47</ele>
        <time>2017-12-17T13:32:04Z</time>
      </trkpt>
      <trkpt lat="48.7751" lon="2.13683">
        <ele>132.22</ele>
        <time>2017-12-17T13:32:19Z</time>
      </trkpt>
      <trkpt lat="48.77523" lon="2.13669">
        <ele>133.05</ele>
        <time>2017-12-17T13:32:33Z</time>
      </trkpt>
      <trkpt lat="48.77533" lon="2.1365">
        <ele>133.09</ele>
        <time>2017-12-17T13:32:47Z</time>
      </trkpt>
      <trkpt lat="48.77549" lon="2.13638">
        <ele>134.09</ele>
        <time>2017-12-17T13:33:03Z</time>
      </trkpt>
      <trkpt lat="48.77552" lon="2.13618">
        <ele>133.87</ele>
        <time>2017-12-17T13:33:17Z</time>
      </trkpt>
      <trkpt lat="48.77553" lon="2.13594">
        <ele>133.43</ele>
        <time>2017-12-17T13:33:31Z</time>
      </trkpt>
      <trkpt lat="48.77562" lon="2.13576">
        <ele>133.51</ele>
        <time>2017-12-17T13:33:45Z</time>
      </trkpt>
      <trkpt lat="48.77573" lon="2.13555">
        <ele>133.61</ele>
        <time>2017-12-17T13:34:01Z</time>
      </trkpt>
      <trkpt lat="48.77576" lon="2.13537">
        <ele>133.23</ele>
        <time>2017-12-17T13:34:15Z</time>
      </trkpt>
      <trkpt lat="48.77575" lon="2.13534">
        <ele>133.07</ele>
        <time>2017-12-17T13:34:16Z</time>
      </trkpt>
      <trkpt lat="48.77575" lon="2.13524">
        <ele>132.43</ele>
        <time>2017-12-17T13:34:22Z</time>
      </trkpt>
      <trkpt lat="48.77574" lon="2.13502">
        <ele>131.93</ele>
        <time>2017-12-17T13:34:36Z</time>
      </trkpt>
      <trkpt lat="48.77574" lon="2.13496">
        <ele>133.09</ele>
        <time>2017-12-17T13:36:11Z</time>
      </trkpt>
      <trkpt lat="48.77561" lon="2.13474">
        <ele>133.61</ele>
        <time>2017-12-17T13:36:32Z</time>
      </trkpt>
      <trkpt lat="48.77557" lon="2.13469">
        <ele>133.37</ele>
        <time>2017-12-17T13:36:37Z</time>
      </trkpt>
      <trkpt lat="48.77558" lon="2.13449">
        <ele>135.62</ele>
        <time>2017-12-17T13:39:08Z</time>
      </trkpt>
      <trkpt lat="48.77557" lon="2.13438">
        <ele>135.02</ele>
        <time>2017-12-17T13:39:27Z</time>
      </trkpt>
      <trkpt lat="48.77559" lon="2.13429">
        <ele>135.95</ele>
        <time>2017-12-17T13:39:32Z</time>
      </trkpt>
      <trkpt lat="48.77562" lon="2.13418">
        <ele>135.94</ele>
        <time>2017-12-17T13:39:51Z</time>
      </trkpt>
      <trkpt lat="48.77569" lon="2.13392">
        <ele>135.13</ele>
        <time>2017-12-17T13:40:13Z</time>
      </trkpt>
      <trkpt lat="48.7757" lon="2.13396">
        <ele>135.92</ele>
        <time>2017-12-17T13:40:50Z</time>
      </trkpt>
      <trkpt lat="48.7757" lon="2.13404">
        <ele>136.7</ele>
        <time>2017-12-17T13:41:19Z</time>
      </trkpt>
      <trkpt lat="48.77579" lon="2.13405">
        <ele>137.14</ele>
        <time>2017-12-17T13:41:37Z</time>
      </trkpt>
      <trkpt lat="48.77596" lon="2.13416">
        <ele>139.41</ele>
        <time>2017-12-17T13:41:55Z</time>
      </trkpt>
      <trkpt lat="48.7761" lon="2.13419">
        <ele>141.11</ele>
        <time>2017-12-17T13:42:11Z</time>
      </trkpt>
      <trkpt lat="48.77622" lon="2.13395">
        <ele>141.83</ele>
        <time>2017-12-17T13:42:27Z</time>
      </trkpt>
      <trkpt lat="48.77628" lon="2.13384">
        <ele>141.74</ele>
        <time>2017-12-17T13:42:41Z</time>
      </trkpt>
      <trkpt lat="48.77637" lon="2.13362">
        <ele>141.96</ele>
        <time>2017-12-17T13:42:59Z</time>
      </trkpt>
      <trkpt lat="48.77649" lon="2.1334">
        <ele>142.75</ele>
        <time>2017-12-17T13:43:15Z</time>
      </trkpt>
      <trkpt lat="48.77661" lon="2.13314">
        <ele>142.92</ele>
        <time>2017-12-17T13:43:33Z</time>
      </trkpt>
      <trkpt lat="48.7767" lon="2.13296">
        <ele>142.62</ele>
        <time>2017-12-17T13:43:49Z</time>
      </trkpt>
      <trkpt lat="48.77683" lon="2.13271">
        <ele>143.1</ele>
        <time>2017-12-17T13:44:09Z</time>
      </trkpt>
      <trkpt lat="48.77696" lon="2.13243">
        <ele>143.18</ele>
        <time>2017-12-17T13:44:32Z</time>
      </trkpt>
      <trkpt lat="48.77712" lon="2.13217">
        <ele>143.49</ele>
        <time>2017-12-17T13:44:52Z</time>
      </trkpt>
      <trkpt lat="48.77732" lon="2.13215">
        <ele>144.6</ele>
        <time>2017-12-17T13:45:10Z</time>
      </trkpt>
      <trkpt lat="48.77744" lon="2.13227">
        <ele>145.1</ele>
        <time>2017-12-17T13:45:29Z</time>
      </trkpt>
      <trkpt lat="48.7776" lon="2.1324">
        <ele>145.62</ele>
        <time>2017-12-17T13:45:46Z</time>
      </trkpt>
      <trkpt lat="48.77776" lon="2.13259">
        <ele>146.68</ele>
        <time>2017-12-17T13:46:05Z</time>
      </trkpt>
      <trkpt lat="48.77798" lon="2.13273">
        <ele>147.26</ele>
        <time>2017-12-17T13:46:23Z</time>
      </trkpt>
      <trkpt lat="48.77813" lon="2.13289">
        <ele>148.31</ele>
        <time>2017-12-17T13:46:40Z</time>
      </trkpt>
      <trkpt lat="48.77831" lon="2.13308">
        <ele>148.64</ele>
        <time>2017-12-17T13:47:00Z</time>
      </trkpt>
      <trkpt lat="48.77844" lon="2.13318">
        <ele>149.24</ele>
        <time>2017-12-17T13:47:08Z</time>
      </trkpt>
      <trkpt lat="48.77865" lon="2.13333">
        <ele>150.21</ele>
        <time>2017-12-17T13:47:26Z</time>
      </trkpt>
      <trkpt lat="48.7788" lon="2.13349">
        <ele>150.5</ele>
        <time>2017-12-17T13:47:46Z</time>
      </trkpt>
      <trkpt lat="48.77893" lon="2.13367">
        <ele>151.8</ele>
        <time>2017-12-17T13:48:06Z</time>
      </trkpt>
      <trkpt lat="48.77906" lon="2.13378">
        <ele>152.13</ele>
        <time>2017-12-17T13:48:18Z</time>
      </trkpt>
      <trkpt lat="48.77926" lon="2.13394">
        <ele>152.09</ele>
        <time>2017-12-17T13:48:37Z</time>
      </trkpt>
      <trkpt lat="48.77946" lon="2.13412">
        <ele>153.22</ele>
        <time>2017-12-17T13:48:58Z</time>
      </trkpt>
      <trkpt lat="48.77963" lon="2.1343">
        <ele>154.28</ele>
        <time>2017-12-17T13:49:17Z</time>
      </trkpt>
      <trkpt lat="48.77979" lon="2.13445">
        <ele>154.75</ele>
        <time>2017-12-17T13:49:37Z</time>
      </trkpt>
      <trkpt lat="48.77996" lon="2.13436">
        <ele>153.95</ele>
        <time>2017-12-17T13:49:59Z</time>
      </trkpt>
      <trkpt lat="48.78004" lon="2.13414">
        <ele>152.23</ele>
        <time>2017-12-17T13:50:20Z</time>
      </trkpt>
      <trkpt lat="48.78011" lon="2.134">
        <ele>151.91</ele>
        <time>2017-12-17T13:50:37Z</time>
      </trkpt>
      <trkpt lat="48.78012" lon="2.13397">
        <ele>151.46</ele>
        <time>2017-12-17T13:50:56Z</time>
      </trkpt>
      <trkpt lat="48.78013" lon="2.13399">
        <ele>152.15</ele>
        <time>2017-12-17T13:51:23Z</time>
      </trkpt>
      <trkpt lat="48.78014" lon="2.13396">
        <ele>151.85</ele>
        <time>2017-12-17T13:51:52Z</time>
      </trkpt>
      <trkpt lat="48.78014" lon="2.13396">
        <ele>152.48</ele>
        <time>2017-12-17T13:52:20Z</time>
      </trkpt>
      <trkpt lat="48.78015" lon="2.13396">
        <ele>153.14</ele>
        <time>2017-12-17T13:52:46Z</time>
      </trkpt>
      <trkpt lat="48.78021" lon="2.13382">
        <ele>152.83</ele>
        <time>2017-12-17T13:53:05Z</time>
      </trkpt>
      <trkpt lat="48.78027" lon="2.13359">
        <ele>152.25</ele>
        <time>2017-12-17T13:53:20Z</time>
      </trkpt>
      <trkpt lat="48.78028" lon="2.13353">
        <ele>152.27</ele>
        <time>2017-12-17T13:53:24Z</time>
      </trkpt>
      <trkpt lat="48.78039" lon="2.13329">
        <ele>150.03</ele>
        <time>2017-12-17T13:53:44Z</time>
      </trkpt>
      <trkpt lat="48.78057" lon="2.13319">
        <ele>147.84</ele>
        <time>2017-12-17T13:54:06Z</time>
      </trkpt>
      <trkpt lat="48.7806" lon="2.1332">
        <ele>146.32</ele>
        <time>2017-12-17T13:54:09Z</time>
      </trkpt>
      <trkpt lat="48.78068" lon="2.13323">
        <ele>143.29</ele>
        <time>2017-12-17T13:54:23Z</time>
      </trkpt>
      <trkpt lat="48.78077" lon="2.13326">
        <ele>140.29</ele>
        <time>2017-12-17T13:54:38Z</time>
      </trkpt>
      <trkpt lat="48.78086" lon="2.13322">
        <ele>138.48</ele>
        <time>2017-12-17T13:55:00Z</time>
      </trkpt>
      <trkpt lat="48.78097" lon="2.13322">
        <ele>135.17</ele>
        <time>2017-12-17T13:55:18Z</time>
      </trkpt>
      <trkpt lat="48.78101" lon="2.13314">
        <ele>132.98</ele>
        <time>2017-12-17T13:55:25Z</time>
      </trkpt>
      <trkpt lat="48.78119" lon="2.1329">
        <ele>129.91</ele>
        <time>2017-12-17T13:55:46Z</time>
      </trkpt>
      <trkpt lat="48.78121" lon="2.13289">
        <ele>131.05</ele>
        <time>2017-12-17T13:55:49Z</time>
      </trkpt>
      <trkpt lat="48.78127" lon="2.13292">
        <ele>130.91</ele>
        <time>2017-12-17T13:55:57Z</time>
      </trkpt>
      <trkpt lat="48.78139" lon="2.13294">
        <ele>129.56</ele>
        <time>2017-12-17T13:56:14Z</time>
      </trkpt>
      <trkpt lat="48.78162" lon="2.13301">
        <ele>130.09</ele>
        <time>2017-12-17T13:56:36Z</time>
      </trkpt>
      <trkpt lat="48.78182" lon="2.133">
        <ele>130.49</ele>
        <time>2017-12-17T13:56:54Z</time>
      </trkpt>
      <trkpt lat="48.78194" lon="2.13301">
        <ele>132.14</ele>
        <time>2017-12-17T13:57:06Z</time>
      </trkpt>
      <trkpt lat="48.78202" lon="2.13297">
        <ele>131.82</ele>
        <time>2017-12-17T13:57:26Z</time>
      </trkpt>
      <trkpt lat="48.78223" lon="2.133">
        <ele>133.03</ele>
        <time>2017-12-17T13:57:45Z</time>
      </trkpt>
      <trkpt lat="48.78233" lon="2.13303">
        <ele>132.87</ele>
        <time>2017-12-17T13:57:53Z</time>
      </trkpt>
      <trkpt lat="48.78261" lon="2.13306">
        <ele>133.1</ele>
        <time>2017-12-17T13:58:14Z</time>
      </trkpt>
      <trkpt lat="48.78289" lon="2.13307">
        <ele>133.27</ele>
        <time>2017-12-17T13:58:38Z</time>
      </trkpt>
      <trkpt lat="48.7831" lon="2.13312">
        <ele>133.66</ele>
        <time>2017-12-17T13:58:55Z</time>
      </trkpt>
      <trkpt lat="48.78329" lon="2.13314">
        <ele>132.28</ele>
        <time>2017-12-17T13:59:10Z</time>
      </trkpt>
      <trkpt lat="48.78334" lon="2.13315">
        <ele>131.91</ele>
        <time>2017-12-17T13:59:14Z</time>
      </trkpt>
      <trkpt lat="48.78348" lon="2.13318">
        <ele>132.39</ele>
        <time>2017-12-17T13:59:28Z</time>
      </trkpt>
      <trkpt lat="48.78351" lon="2.13319">
        <ele>132.61</ele>
        <time>2017-12-17T13:59:30Z</time>
      </trkpt>
      <trkpt lat="48.78371" lon="2.13319">
        <ele>133.01</ele>
        <time>2017-12-17T13:59:46Z</time>
      </trkpt>
      <trkpt lat="48.784" lon="2.13323">
        <ele>131.94</ele>
        <time>2017-12-17T14:00:12Z</time>
      </trkpt>
      <trkpt lat="48.78433" lon="2.13334">
        <ele>131.42</ele>
        <time>2017-12-17T14:00:32Z</time>
      </trkpt>
      <trkpt lat="48.78444" lon="2.13353">
        <ele>132.2</ele>
        <time>2017-12-17T14:00:52Z</time>
      </trkpt>
      <trkpt lat="48.7846" lon="2.13369">
        <ele>132.47</ele>
        <time>2017-12-17T14:01:11Z</time>
      </trkpt>
      <trkpt lat="48.78476" lon="2.13382">
        <ele>132.68</ele>
        <time>2017-12-17T14:01:29Z</time>
      </trkpt>
      <trkpt lat="48.78494" lon="2.1339">
        <ele>133.46</ele>
        <time>2017-12-17T14:01:46Z</time>
      </trkpt>
      <trkpt lat="48.78499" lon="2.1339">
        <ele>133.25</ele>
        <time>2017-12-17T14:02:15Z</time>
      </trkpt>
      <trkpt lat="48.78498" lon="2.13391">
        <ele>133.79</ele>
        <time>2017-12-17T14:02:41Z</time>
      </trkpt>
      <trkpt lat="48.785" lon="2.13386">
        <ele>134.34</ele>
        <time>2017-12-17T14:03:04Z</time>
      </trkpt>
      <trkpt lat="48.78504" lon="2.1339">
        <ele>133.52</ele>
        <time>2017-12-17T14:03:23Z</time>
      </trkpt>
      <trkpt lat="48.78519" lon="2.13391">
        <ele>134.48</ele>
        <time>2017-12-17T14:03:43Z</time>
      </trkpt>
      <trkpt lat="48.78546" lon="2.1339">
        <ele>135.03</ele>
        <time>2017-12-17T14:04:04Z</time>
      </trkpt>
      <trkpt lat="48.78563" lon="2.13386">
        <ele>134.74</ele>
        <time>2017-12-17T14:04:21Z</time>
      </trkpt>
      <trkpt lat="48.78587" lon="2.13387">
        <ele>135.73</ele>
        <time>2017-12-17T14:07:10Z</time>
      </trkpt>
      <trkpt lat="48.78594" lon="2.13384">
        <ele>135.59</ele>
        <time>2017-12-17T14:07:51Z</time>
      </trkpt>
      <trkpt lat="48.78598" lon="2.13384">
        <ele>135.51</ele>
        <time>2017-12-17T14:08:10Z</time>
      </trkpt>
      <trkpt lat="48.786" lon="2.13383">
        <ele>135.28</ele>
        <time>2017-12-17T14:08:59Z</time>
      </trkpt>
      <trkpt lat="48.78616" lon="2.13383">
        <ele>136.97</ele>
        <time>2017-12-17T14:10:20Z</time>
      </trkpt>
      <trkpt lat="48.78629" lon="2.13383">
        <ele>136.65</ele>
        <time>2017-12-17T14:10:35Z</time>
      </trkpt>
      <trkpt lat="48.78647" lon="2.13382">
        <ele>137.67</ele>
        <time>2017-12-17T14:10:56Z</time>
      </trkpt>
      <trkpt lat="48.78668" lon="2.1338">
        <ele>138.96</ele>
        <time>2017-12-17T14:11:16Z</time>
      </trkpt>
      <trkpt lat="48.78688" lon="2.1338">
        <ele>138.42</ele>
        <time>2017-12-17T14:11:36Z</time>
      </trkpt>
      <trkpt lat="48.78713" lon="2.13384">
        <ele>140.09</ele>
        <time>2017-12-17T14:11:55Z</time>
      </trkpt>
      <trkpt lat="48.78739" lon="2.13382">
        <ele>141.16</ele>
        <time>2017-12-17T14:12:13Z</time>
      </trkpt>
      <trkpt lat="48.78755" lon="2.1338">
        <ele>141.53</ele>
        <time>2017-12-17T14:12:22Z</time>
      </trkpt>
      <trkpt lat="48.78772" lon="2.13371">
        <ele>142.39</ele>
        <time>2017-12-17T14:12:37Z</time>
      </trkpt>
      <trkpt lat="48.78772" lon="2.13366">
        <ele>141.51</ele>
        <time>2017-12-17T14:12:40Z</time>
      </trkpt>
      <trkpt lat="48.78761" lon="2.13337">
        <ele>140.31</ele>
        <time>2017-12-17T14:12:59Z</time>
      </trkpt>
      <trkpt lat="48.78754" lon="2.13329">
        <ele>139.84</ele>
        <time>2017-12-17T14:13:12Z</time>
      </trkpt>
      <trkpt lat="48.78758" lon="2.13332">
        <ele>139.57</ele>
        <time>2017-12-17T14:13:25Z</time>
      </trkpt>
      <trkpt lat="48.78758" lon="2.13333">
        <ele>140.22</ele>
        <time>2017-12-17T14:13:47Z</time>
      </trkpt>
      <trkpt lat="48.78759" lon="2.13328">
        <ele>139.8</ele>
        <time>2017-12-17T14:14:10Z</time>
      </trkpt>
      <trkpt lat="48.78759" lon="2.13327">
        <ele>140.16</ele>
        <time>2017-12-17T14:14:31Z</time>
      </trkpt>
      <trkpt lat="48.78761" lon="2.13322">
        <ele>139.82</ele>
        <time>2017-12-17T14:14:34Z</time>
      </trkpt>
      <trkpt lat="48.78762" lon="2.13313">
        <ele>140.15</ele>
        <time>2017-12-17T14:14:39Z</time>
      </trkpt>
      <trkpt lat="48.78769" lon="2.13302">
        <ele>141.2</ele>
        <time>2017-12-17T14:14:50Z</time>
      </trkpt>
      <trkpt lat="48.78772" lon="2.13304">
        <ele>141.09</ele>
        <time>2017-12-17T14:15:01Z</time>
      </trkpt>
      <trkpt lat="48.78786" lon="2.13319">
        <ele>141.12</ele>
        <time>2017-12-17T14:15:16Z</time>
      </trkpt>
      <trkpt lat="48.78804" lon="2.13335">
        <ele>141.75</ele>
        <time>2017-12-17T14:15:33Z</time>
      </trkpt>
      <trkpt lat="48.78818" lon="2.13339">
        <ele>142.7</ele>
        <time>2017-12-17T14:15:47Z</time>
      </trkpt>
      <trkpt lat="48.78826" lon="2.13344">
        <ele>143.39</ele>
        <time>2017-12-17T14:15:56Z</time>
      </trkpt>
      <trkpt lat="48.78844" lon="2.13352">
        <ele>144.42</ele>
        <time>2017-12-17T14:16:15Z</time>
      </trkpt>
      <trkpt lat="48.78845" lon="2.13353">
        <ele>143.84</ele>
        <time>2017-12-17T14:16:16Z</time>
      </trkpt>
      <trkpt lat="48.78849" lon="2.13355">
        <ele>143.82</ele>
        <time>2017-12-17T14:16:19Z</time>
      </trkpt>
      <trkpt lat="48.78853" lon="2.13357">
        <ele>144.32</ele>
        <time>2017-12-17T14:16:23Z</time>
      </trkpt>
      <trkpt lat="48.78863" lon="2.13367">
        <ele>145.1</ele>
        <time>2017-12-17T14:16:35Z</time>
      </trkpt>
      <trkpt lat="48.78866" lon="2.1337">
        <ele>144.95</ele>
        <time>2017-12-17T14:16:41Z</time>
      </trkpt>
      <trkpt lat="48.78879" lon="2.13376">
        <ele>145.21</ele>
        <time>2017-12-17T14:16:57Z</time>
      </trkpt>
      <trkpt lat="48.78885" lon="2.13368">
        <ele>145.75</ele>
        <time>2017-12-17T14:17:12Z</time>
      </trkpt>
      <trkpt lat="48.78889" lon="2.13361">
        <ele>145.25</ele>
        <time>2017-12-17T14:17:18Z</time>
      </trkpt>
      <trkpt lat="48.78903" lon="2.13349">
        <ele>147.48</ele>
        <time>2017-12-17T14:17:36Z</time>
      </trkpt>
      <trkpt lat="48.78921" lon="2.13337">
        <ele>149.57</ele>
        <time>2017-12-17T14:17:54Z</time>
      </trkpt>
      <trkpt lat="48.78922" lon="2.13336">
        <ele>149.88</ele>
        <time>2017-12-17T14:17:55Z</time>
      </trkpt>
      <trkpt lat="48.78942" lon="2.1333">
        <ele>152.77</ele>
        <time>2017-12-17T14:18:14Z</time>
      </trkpt>
      <trkpt lat="48.78957" lon="2.13325">
        <ele>155.96</ele>
        <time>2017-12-17T14:18:31Z</time>
      </trkpt>
      <trkpt lat="48.7897" lon="2.13324">
        <ele>158.33</ele>
        <time>2017-12-17T14:18:50Z</time>
      </trkpt>
      <trkpt lat="48.78993" lon="2.13327">
        <ele>158.8</ele>
        <time>2017-12-17T14:19:05Z</time>
      </trkpt>
      <trkpt lat="48.79008" lon="2.13326">
        <ele>159.56</ele>
        <time>2017-12-17T14:19:25Z</time>
      </trkpt>
      <trkpt lat="48.79017" lon="2.13332">
        <ele>159.53</ele>
        <time>2017-12-17T14:19:33Z</time>
      </trkpt>
      <trkpt lat="48.79035" lon="2.13336">
        <ele>159.7</ele>
        <time>2017-12-17T14:19:51Z</time>
      </trkpt>
      <trkpt lat="48.79045" lon="2.13341">
        <ele>159.4</ele>
        <time>2017-12-17T14:19:56Z</time>
      </trkpt>
      <trkpt lat="48.79059" lon="2.13342">
        <ele>159.31</ele>
        <time>2017-12-17T14:20:11Z</time>
      </trkpt>
      <trkpt lat="48.79075" lon="2.13336">
        <ele>158.71</ele>
        <time>2017-12-17T14:20:31Z</time>
      </trkpt>
      <trkpt lat="48.79096" lon="2.13336">
        <ele>158.82</ele>
        <time>2017-12-17T14:20:50Z</time>
      </trkpt>
      <trkpt lat="48.79121" lon="2.13335">
        <ele>158.94</ele>
        <time>2017-12-17T14:21:11Z</time>
      </trkpt>
      <trkpt lat="48.7915" lon="2.13333">
        <ele>158.77</ele>
        <time>2017-12-17T14:21:29Z</time>
      </trkpt>
      <trkpt lat="48.79168" lon="2.13332">
        <ele>159.05</ele>
        <time>2017-12-17T14:21:48Z</time>
      </trkpt>
      <trkpt lat="48.79187" lon="2.13332">
        <ele>159.58</ele>
        <time>2017-12-17T14:22:06Z</time>
      </trkpt>
      <trkpt lat="48.79208" lon="2.13332">
        <ele>159.34</ele>
        <time>2017-12-17T14:22:26Z</time>
      </trkpt>
      <trkpt lat="48.79217" lon="2.13335">
        <ele>158.97</ele>
        <time>2017-12-17T14:22:32Z</time>
      </trkpt>
      <trkpt lat="48.79238" lon="2.13337">
        <ele>158.67</ele>
        <time>2017-12-17T14:22:52Z</time>
      </trkpt>
      <trkpt lat="48.79248" lon="2.13326">
        <ele>158.98</ele>
        <time>2017-12-17T14:23:09Z</time>
      </trkpt>
      <trkpt lat="48.79247" lon="2.13326">
        <ele>159.45</ele>
        <time>2017-12-17T14:23:31Z</time>
      </trkpt>
      <trkpt lat="48.79247" lon="2.13324">
        <ele>159.35</ele>
        <time>2017-12-17T14:23:57Z</time>
      </trkpt>
      <trkpt lat="48.79248" lon="2.13323">
        <ele>159.61</ele>
        <time>2017-12-17T14:24:25Z</time>
      </trkpt>
      <trkpt lat="48.79248" lon="2.13322">
        <ele>160.05</ele>
        <time>2017-12-17T14:24:50Z</time>
      </trkpt>
      <trkpt lat="48.79251" lon="2.13322">
        <ele>160.31</ele>
        <time>2017-12-17T14:25:20Z</time>
      </trkpt>
      <trkpt lat="48.79248" lon="2.13321">
        <ele>160.62</ele>
        <time>2017-12-17T14:25:48Z</time>
      </trkpt>
      <trkpt lat="48.79248" lon="2.13322">
        <ele>160.86</ele>
        <time>2017-12-17T14:26:14Z</time>
      </trkpt>
      <trkpt lat="48.79249" lon="2.13323">
        <ele>161.57</ele>
        <time>2017-12-17T14:26:41Z</time>
      </trkpt>
      <trkpt lat="48.79251" lon="2.13323">
        <ele>161.33</ele>
        <time>2017-12-17T14:27:07Z</time>
      </trkpt>
      <trkpt lat="48.79247" lon="2.13315">
        <ele>161.67</ele>
        <time>2017-12-17T14:27:33Z</time>
      </trkpt>
      <trkpt lat="48.79245" lon="2.13288">
        <ele>161.56</ele>
        <time>2017-12-17T14:27:51Z</time>
      </trkpt>
      <trkpt lat="48.7924" lon="2.13261">
        <ele>161.64</ele>
        <time>2017-12-17T14:28:13Z</time>
      </trkpt>
      <trkpt lat="48.79241" lon="2.13248">
        <ele>161.33</ele>
        <time>2017-12-17T14:28:20Z</time>
      </trkpt>
      <trkpt lat="48.7925" lon="2.13222">
        <ele>161.03</ele>
        <time>2017-12-17T14:28:36Z</time>
      </trkpt>
      <trkpt lat="48.79252" lon="2.13202">
        <ele>160.29</ele>
        <time>2017-12-17T14:28:53Z</time>
      </trkpt>
      <trkpt lat="48.79256" lon="2.13177">
        <ele>158.37</ele>
        <time>2017-12-17T14:29:15Z</time>
      </trkpt>
      <trkpt lat="48.7926" lon="2.13153">
        <ele>158.03</ele>
        <time>2017-12-17T14:29:30Z</time>
      </trkpt>
      <trkpt lat="48.7926" lon="2.13148">
        <ele>158.03</ele>
        <time>2017-12-17T14:29:48Z</time>
      </trkpt>
      <trkpt lat="48.79257" lon="2.1314">
        <ele>159.03</ele>
        <time>2017-12-17T14:30:12Z</time>
      </trkpt>
      <trkpt lat="48.79255" lon="2.13137">
        <ele>157.57</ele>
        <time>2017-12-17T14:30:14Z</time>
      </trkpt>
      <trkpt lat="48.79244" lon="2.13121">
        <ele>157.65</ele>
        <time>2017-12-17T14:30:31Z</time>
      </trkpt>
      <trkpt lat="48.7923" lon="2.13102">
        <ele>158.39</ele>
        <time>2017-12-17T14:30:46Z</time>
      </trkpt>
      <trkpt lat="48.79223" lon="2.13096">
        <ele>157.87</ele>
        <time>2017-12-17T14:30:52Z</time>
      </trkpt>
      <trkpt lat="48.79221" lon="2.13094">
        <ele>158.03</ele>
        <time>2017-12-17T14:30:54Z</time>
      </trkpt>
      <trkpt lat="48.79205" lon="2.13075">
        <ele>157.85</ele>
        <time>2017-12-17T14:31:11Z</time>
      </trkpt>
      <trkpt lat="48.79202" lon="2.1307">
        <ele>158.19</ele>
        <time>2017-12-17T14:31:15Z</time>
      </trkpt>
      <trkpt lat="48.79188" lon="2.13052">
        <ele>158.42</ele>
        <time>2017-12-17T14:31:30Z</time>
      </trkpt>
      <trkpt lat="48.79184" lon="2.13046">
        <ele>158.66</ele>
        <time>2017-12-17T14:31:34Z</time>
      </trkpt>
      <trkpt lat="48.79174" lon="2.13026">
        <ele>158.81</ele>
        <time>2017-12-17T14:31:53Z</time>
      </trkpt>
      <trkpt lat="48.79174" lon="2.13019">
        <ele>156.04</ele>
        <time>2017-12-17T14:32:14Z</time>
      </trkpt>
      <trkpt lat="48.79181" lon="2.13011">
        <ele>152.87</ele>
        <time>2017-12-17T14:32:32Z</time>
      </trkpt>
      <trkpt lat="48.79188" lon="2.13002">
        <ele>149.76</ele>
        <time>2017-12-17T14:32:46Z</time>
      </trkpt>
      <trkpt lat="48.79189" lon="2.13001">
        <ele>149.5</ele>
        <time>2017-12-17T14:32:47Z</time>
      </trkpt>
      <trkpt lat="48.79196" lon="2.12994">
        <ele>146.28</ele>
        <time>2017-12-17T14:33:00Z</time>
      </trkpt>
      <trkpt lat="48.79202" lon="2.12987">
        <ele>142.96</ele>
        <time>2017-12-17T14:33:13Z</time>
      </trkpt>
      <trkpt lat="48.7921" lon="2.12977">
        <ele>141</ele>
        <time>2017-12-17T14:33:30Z</time>
      </trkpt>
      <trkpt lat="48.79208" lon="2.12969">
        <ele>140.79</ele>
        <time>2017-12-17T14:33:52Z</time>
      </trkpt>
      <trkpt lat="48.7921" lon="2.12963">
        <ele>140.03</ele>
        <time>2017-12-17T14:34:01Z</time>
      </trkpt>
      <trkpt lat="48.79212" lon="2.12948">
        <ele>138.72</ele>
        <time>2017-12-17T14:34:16Z</time>
      </trkpt>
      <trkpt lat="48.79215" lon="2.12942">
        <ele>137.98</ele>
        <time>2017-12-17T14:34:36Z</time>
      </trkpt>
      <trkpt lat="48.79221" lon="2.12928">
        <ele>136.02</ele>
        <time>2017-12-17T14:34:55Z</time>
      </trkpt>
      <trkpt lat="48.79225" lon="2.12916">
        <ele>134.85</ele>
        <time>2017-12-17T14:35:11Z</time>
      </trkpt>
      <trkpt lat="48.79237" lon="2.1289">
        <ele>132.39</ele>
        <time>2017-12-17T14:35:32Z</time>
      </trkpt>
      <trkpt lat="48.79238" lon="2.12882">
        <ele>131.67</ele>
        <time>2017-12-17T14:35:38Z</time>
      </trkpt>
      <trkpt lat="48.79243" lon="2.12861">
        <ele>132.13</ele>
        <time>2017-12-17T14:35:56Z</time>
      </trkpt>
      <trkpt lat="48.79247" lon="2.12861">
        <ele>131.67</ele>
        <time>2017-12-17T14:36:02Z</time>
      </trkpt>
      <trkpt lat="48.79267" lon="2.12867">
        <ele>130.67</ele>
        <time>2017-12-17T14:36:22Z</time>
      </trkpt>
      <trkpt lat="48.7927" lon="2.12869">
        <ele>130.66</ele>
        <time>2017-12-17T14:36:26Z</time>
      </trkpt>
      <trkpt lat="48.79286" lon="2.12883">
        <ele>127.96</ele>
        <time>2017-12-17T14:36:47Z</time>
      </trkpt>
      <trkpt lat="48.79296" lon="2.12896">
        <ele>127.6</ele>
        <time>2017-12-17T14:37:05Z</time>
      </trkpt>
      <trkpt lat="48.79316" lon="2.12912">
        <ele>125.38</ele>
        <time>2017-12-17T14:37:25Z</time>
      </trkpt>
      <trkpt lat="48.79338" lon="2.12913">
        <ele>124.08</ele>
        <time>2017-12-17T14:37:49Z</time>
      </trkpt>
      <trkpt lat="48.79359" lon="2.12926">
        <ele>123.68</ele>
        <time>2017-12-17T14:38:05Z</time>
      </trkpt>
      <trkpt lat="48.79367" lon="2.12945">
        <ele>123</ele>
        <time>2017-12-17T14:38:20Z</time>
      </trkpt>
      <trkpt lat="48.79388" lon="2.12965">
        <ele>122.72</ele>
        <time>2017-12-17T14:38:38Z</time>
      </trkpt>
      <trkpt lat="48.7941" lon="2.12989">
        <ele>122.27</ele>
        <time>2017-12-17T14:38:55Z</time>
      </trkpt>
      <trkpt lat="48.79418" lon="2.12995">
        <ele>121.9</ele>
        <time>2017-12-17T14:39:05Z</time>
      </trkpt>
      <trkpt lat="48.79421" lon="2.12993">
        <ele>121.7</ele>
        <time>2017-12-17T14:39:10Z</time>
      </trkpt>
      <trkpt lat="48.79434" lon="2.12999">
        <ele>121.35</ele>
        <time>2017-12-17T14:39:31Z</time>
      </trkpt>
      <trkpt lat="48.79436" lon="2.13008">
        <ele>121.45</ele>
        <time>2017-12-17T14:39:47Z</time>
      </trkpt>
      <trkpt lat="48.79457" lon="2.13016">
        <ele>121.45</ele>
        <time>2017-12-17T14:40:04Z</time>
      </trkpt>
      <trkpt lat="48.79469" lon="2.13022">
        <ele>120.73</ele>
        <time>2017-12-17T14:40:15Z</time>
      </trkpt>
      <trkpt lat="48.79481" lon="2.13032">
        <ele>119.6</ele>
        <time>2017-12-17T14:40:32Z</time>
      </trkpt>
      <trkpt lat="48.79483" lon="2.13031">
        <ele>119.59</ele>
        <time>2017-12-17T14:40:33Z</time>
      </trkpt>
      <trkpt lat="48.7951" lon="2.13035">
        <ele>119.95</ele>
        <time>2017-12-17T14:40:53Z</time>
      </trkpt>
      <trkpt lat="48.79523" lon="2.13037">
        <ele>119.32</ele>
        <time>2017-12-17T14:41:03Z</time>
      </trkpt>
      <trkpt lat="48.79534" lon="2.13047">
        <ele>118.76</ele>
        <time>2017-12-17T14:41:18Z</time>
      </trkpt>
      <trkpt lat="48.79539" lon="2.13068">
        <ele>118.39</ele>
        <time>2017-12-17T14:41:37Z</time>
      </trkpt>
      <trkpt lat="48.79555" lon="2.13066">
        <ele>117.91</ele>
        <time>2017-12-17T14:41:45Z</time>
      </trkpt>
      <trkpt lat="48.79566" lon="2.13076">
        <ele>117.33</ele>
        <time>2017-12-17T14:41:57Z</time>
      </trkpt>
      <trkpt lat="48.79569" lon="2.13077">
        <ele>117.47</ele>
        <time>2017-12-17T14:41:59Z</time>
      </trkpt>
      <trkpt lat="48.796" lon="2.13084">
        <ele>117.35</ele>
        <time>2017-12-17T14:42:18Z</time>
      </trkpt>
      <trkpt lat="48.79605" lon="2.1309">
        <ele>117.21</ele>
        <time>2017-12-17T14:42:23Z</time>
      </trkpt>
      <trkpt lat="48.79611" lon="2.13112">
        <ele>116.46</ele>
        <time>2017-12-17T14:42:44Z</time>
      </trkpt>
      <trkpt lat="48.79659" lon="2.13114">
        <ele>115.76</ele>
        <time>2017-12-17T14:43:00Z</time>
      </trkpt>
      <trkpt lat="48.79672" lon="2.13121">
        <ele>115.39</ele>
        <time>2017-12-17T14:43:16Z</time>
      </trkpt>
      <trkpt lat="48.79672" lon="2.13125">
        <ele>116.04</ele>
        <time>2017-12-17T14:43:37Z</time>
      </trkpt>
      <trkpt lat="48.79664" lon="2.13125">
        <ele>115.38</ele>
        <time>2017-12-17T14:43:58Z</time>
      </trkpt>
      <trkpt lat="48.79667" lon="2.13126">
        <ele>115.69</ele>
        <time>2017-12-17T14:44:17Z</time>
      </trkpt>
      <trkpt lat="48.79667" lon="2.13122">
        <ele>115.53</ele>
        <time>2017-12-17T14:44:32Z</time>
      </trkpt>
      <trkpt lat="48.79666" lon="2.13125">
        <ele>116.13</ele>
        <time>2017-12-17T14:44:47Z</time>
      </trkpt>
      <trkpt lat="48.79674" lon="2.13133">
        <ele>115.65</ele>
        <time>2017-12-17T14:45:00Z</time>
      </trkpt>
      <trkpt lat="48.79679" lon="2.13135">
        <ele>115.37</ele>
        <time>2017-12-17T14:45:04Z</time>
      </trkpt>
      <trkpt lat="48.79692" lon="2.13154">
        <ele>115.14</ele>
        <time>2017-12-17T14:45:19Z</time>
      </trkpt>
      <trkpt lat="48.79698" lon="2.13159">
        <ele>115.88</ele>
        <time>2017-12-17T14:45:37Z</time>
      </trkpt>
      <trkpt lat="48.79699" lon="2.13159">
        <ele>114.99</ele>
        <time>2017-12-17T14:45:40Z</time>
      </trkpt>
      <trkpt lat="48.79706" lon="2.13164">
        <ele>116.22</ele>
        <time>2017-12-17T14:45:46Z</time>
      </trkpt>
      <trkpt lat="48.79713" lon="2.13164">
        <ele>115.9</ele>
        <time>2017-12-17T14:45:53Z</time>
      </trkpt>
      <trkpt lat="48.79718" lon="2.13167">
        <ele>115.95</ele>
        <time>2017-12-17T14:46:02Z</time>
      </trkpt>
      <trkpt lat="48.79724" lon="2.13175">
        <ele>115.49</ele>
        <time>2017-12-17T14:46:10Z</time>
      </trkpt>
      <trkpt lat="48.79736" lon="2.13189">
        <ele>115.79</ele>
        <time>2017-12-17T14:46:25Z</time>
      </trkpt>
      <trkpt lat="48.79744" lon="2.13201">
        <ele>116.04</ele>
        <time>2017-12-17T14:46:38Z</time>
      </trkpt>
      <trkpt lat="48.7976" lon="2.13211">
        <ele>116.66</ele>
        <time>2017-12-17T14:46:58Z</time>
      </trkpt>
      <trkpt lat="48.79782" lon="2.1321">
        <ele>116.59</ele>
        <time>2017-12-17T14:47:16Z</time>
      </trkpt>
      <trkpt lat="48.79825" lon="2.1322">
        <ele>116.96</ele>
        <time>2017-12-17T14:47:37Z</time>
      </trkpt>
      <trkpt lat="48.79833" lon="2.13235">
        <ele>117.31</ele>
        <time>2017-12-17T14:47:53Z</time>
      </trkpt>
      <trkpt lat="48.79846" lon="2.13246">
        <ele>117.09</ele>
        <time>2017-12-17T14:48:06Z</time>
      </trkpt>
      <trkpt lat="48.79857" lon="2.13248">
        <ele>117.63</ele>
        <time>2017-12-17T14:48:12Z</time>
      </trkpt>
      <trkpt lat="48.79863" lon="2.1325">
        <ele>117.38</ele>
        <time>2017-12-17T14:48:16Z</time>
      </trkpt>
      <trkpt lat="48.79872" lon="2.13253">
        <ele>117.31</ele>
        <time>2017-12-17T14:48:22Z</time>
      </trkpt>
      <trkpt lat="48.79876" lon="2.13256">
        <ele>117.73</ele>
        <time>2017-12-17T14:48:26Z</time>
      </trkpt>
      <trkpt lat="48.79882" lon="2.13258">
        <ele>117.81</ele>
        <time>2017-12-17T14:48:31Z</time>
      </trkpt>
      <trkpt lat="48.79896" lon="2.13264">
        <ele>118.47</ele>
        <time>2017-12-17T14:48:44Z</time>
      </trkpt>
      <trkpt lat="48.79907" lon="2.13269">
        <ele>118.2</ele>
        <time>2017-12-17T14:48:55Z</time>
      </trkpt>
      <trkpt lat="48.79909" lon="2.13283">
        <ele>118.01</ele>
        <time>2017-12-17T14:49:02Z</time>
      </trkpt>
      <trkpt lat="48.79918" lon="2.13287">
        <ele>118.18</ele>
        <time>2017-12-17T14:49:08Z</time>
      </trkpt>
      <trkpt lat="48.79919" lon="2.133">
        <ele>118.09</ele>
        <time>2017-12-17T14:49:17Z</time>
      </trkpt>
      <trkpt lat="48.79932" lon="2.13322">
        <ele>118.53</ele>
        <time>2017-12-17T14:49:36Z</time>
      </trkpt>
      <trkpt lat="48.79935" lon="2.13324">
        <ele>118.12</ele>
        <time>2017-12-17T14:49:41Z</time>
      </trkpt>
      <trkpt lat="48.79939" lon="2.13329">
        <ele>118.34</ele>
        <time>2017-12-17T14:50:08Z</time>
      </trkpt>
      <trkpt lat="48.79941" lon="2.1333">
        <ele>118.57</ele>
        <time>2017-12-17T14:50:30Z</time>
      </trkpt>
      <trkpt lat="48.79943" lon="2.13332">
        <ele>118.52</ele>
        <time>2017-12-17T14:50:32Z</time>
      </trkpt>
      <trkpt lat="48.79952" lon="2.13337">
        <ele>118.11</ele>
        <time>2017-12-17T14:50:48Z</time>
      </trkpt>
      <trkpt lat="48.7996" lon="2.13339">
        <ele>118.56</ele>
        <time>2017-12-17T14:51:04Z</time>
      </trkpt>
      <trkpt lat="48.79969" lon="2.13344">
        <ele>117.77</ele>
        <time>2017-12-17T14:51:20Z</time>
      </trkpt>
      <trkpt lat="48.79989" lon="2.13361">
        <ele>117.18</ele>
        <time>2017-12-17T14:51:39Z</time>
      </trkpt>
      <trkpt lat="48.79991" lon="2.13361">
        <ele>116.76</ele>
        <time>2017-12-17T14:51:40Z</time>
      </trkpt>
      <trkpt lat="48.80003" lon="2.13367">
        <ele>116.54</ele>
        <time>2017-12-17T14:51:58Z</time>
      </trkpt>
      <trkpt lat="48.80008" lon="2.13371">
        <ele>116.4</ele>
        <time>2017-12-17T14:52:05Z</time>
      </trkpt>
      <trkpt lat="48.80018" lon="2.13379">
        <ele>115.72</ele>
        <time>2017-12-17T14:52:18Z</time>
      </trkpt>
      <trkpt lat="48.80036" lon="2.13401">
        <ele>114.32</ele>
        <time>2017-12-17T14:52:39Z</time>
      </trkpt>
      <trkpt lat="48.80062" lon="2.13402">
        <ele>114.14</ele>
        <time>2017-12-17T14:52:57Z</time>
      </trkpt>
      <trkpt lat="48.80079" lon="2.13403">
        <ele>113.44</ele>
        <time>2017-12-17T14:53:12Z</time>
      </trkpt>
      <trkpt lat="48.80097" lon="2.13401">
        <ele>113.85</ele>
        <time>2017-12-17T14:53:29Z</time>
      </trkpt>
      <trkpt lat="48.80102" lon="2.13403">
        <ele>114.08</ele>
        <time>2017-12-17T14:53:44Z</time>
      </trkpt>
      <trkpt lat="48.80102" lon="2.13403">
        <ele>113.61</ele>
        <time>2017-12-17T14:54:04Z</time>
      </trkpt>
      <trkpt lat="48.80115" lon="2.13407">
        <ele>114.05</ele>
        <time>2017-12-17T14:54:22Z</time>
      </trkpt>
      <trkpt lat="48.8013" lon="2.1341">
        <ele>114.39</ele>
        <time>2017-12-17T14:54:39Z</time>
      </trkpt>
      <trkpt lat="48.80132" lon="2.13407">
        <ele>114.61</ele>
        <time>2017-12-17T14:54:41Z</time>
      </trkpt>
      <trkpt lat="48.80143" lon="2.13398">
        <ele>114.52</ele>
        <time>2017-12-17T14:54:53Z</time>
      </trkpt>
      <trkpt lat="48.80147" lon="2.13373">
        <ele>115.06</ele>
        <time>2017-12-17T14:55:12Z</time>
      </trkpt>
      <trkpt lat="48.80153" lon="2.13349">
        <ele>115.01</ele>
        <time>2017-12-17T14:55:30Z</time>
      </trkpt>
      <trkpt lat="48.80154" lon="2.13343">
        <ele>115.67</ele>
        <time>2017-12-17T14:55:34Z</time>
      </trkpt>
      <trkpt lat="48.80155" lon="2.13314">
        <ele>114.58</ele>
        <time>2017-12-17T14:55:50Z</time>
      </trkpt>
      <trkpt lat="48.80162" lon="2.13289">
        <ele>114.28</ele>
        <time>2017-12-17T14:56:07Z</time>
      </trkpt>
      <trkpt lat="48.80165" lon="2.13276">
        <ele>114.66</ele>
        <time>2017-12-17T14:56:15Z</time>
      </trkpt>
      <trkpt lat="48.80169" lon="2.13267">
        <ele>114.96</ele>
        <time>2017-12-17T14:56:20Z</time>
      </trkpt>
      <trkpt lat="48.80181" lon="2.13239">
        <ele>114.38</ele>
        <time>2017-12-17T14:56:37Z</time>
      </trkpt>
      <trkpt lat="48.80183" lon="2.13234">
        <ele>114.76</ele>
        <time>2017-12-17T14:56:57Z</time>
      </trkpt>
      <trkpt lat="48.80194" lon="2.13208">
        <ele>114.29</ele>
        <time>2017-12-17T14:57:18Z</time>
      </trkpt>
      <trkpt lat="48.80207" lon="2.13193">
        <ele>113.14</ele>
        <time>2017-12-17T14:57:38Z</time>
      </trkpt>
      <trkpt lat="48.80214" lon="2.1317">
        <ele>113</ele>
        <time>2017-12-17T14:57:57Z</time>
      </trkpt>
      <trkpt lat="48.80212" lon="2.13132">
        <ele>112.51</ele>
        <time>2017-12-17T14:58:18Z</time>
      </trkpt>
      <trkpt lat="48.80213" lon="2.13123">
        <ele>112.53</ele>
        <time>2017-12-17T14:58:28Z</time>
      </trkpt>
      <trkpt lat="48.80214" lon="2.13119">
        <ele>112.09</ele>
        <time>2017-12-17T14:58:40Z</time>
      </trkpt>
      <trkpt lat="48.80232" lon="2.13131">
        <ele>112.22</ele>
        <time>2017-12-17T14:58:58Z</time>
      </trkpt>
      <trkpt lat="48.80241" lon="2.13134">
        <ele>112.4</ele>
        <time>2017-12-17T14:59:18Z</time>
      </trkpt>
      <trkpt lat="48.80238" lon="2.13133">
        <ele>112.07</ele>
        <time>2017-12-17T14:59:30Z</time>
      </trkpt>
      <trkpt lat="48.80254" lon="2.13135">
        <ele>112.45</ele>
        <time>2017-12-17T14:59:54Z</time>
      </trkpt>
      <trkpt lat="48.80272" lon="2.1314">
        <ele>111.92</ele>
        <time>2017-12-17T15:00:12Z</time>
      </trkpt>
      <trkpt lat="48.80286" lon="2.13151">
        <ele>112.1</ele>
        <time>2017-12-17T15:00:25Z</time>
      </trkpt>
      <trkpt lat="48.80301" lon="2.13168">
        <ele>111.92</ele>
        <time>2017-12-17T15:00:40Z</time>
      </trkpt>
      <trkpt lat="48.80323" lon="2.13184">
        <ele>111.5</ele>
        <time>2017-12-17T15:00:58Z</time>
      </trkpt>
      <trkpt lat="48.80342" lon="2.13189">
        <ele>111.75</ele>
        <time>2017-12-17T15:01:08Z</time>
      </trkpt>
      <trkpt lat="48.80358" lon="2.13193">
        <ele>111.09</ele>
        <time>2017-12-17T15:01:23Z</time>
      </trkpt>
      <trkpt lat="48.80367" lon="2.13196">
        <ele>111.06</ele>
        <time>2017-12-17T15:01:37Z</time>
      </trkpt>
      <trkpt lat="48.80388" lon="2.13211">
        <ele>111.38</ele>
        <time>2017-12-17T15:01:50Z</time>
      </trkpt>
      <trkpt lat="48.80391" lon="2.13212">
        <ele>110.94</ele>
        <time>2017-12-17T15:01:52Z</time>
      </trkpt>
      <trkpt lat="48.8041" lon="2.13221">
        <ele>110.77</ele>
        <time>2017-12-17T15:02:09Z</time>
      </trkpt>
      <trkpt lat="48.80424" lon="2.13228">
        <ele>110.07</ele>
        <time>2017-12-17T15:02:22Z</time>
      </trkpt>
      <trkpt lat="48.80439" lon="2.1324">
        <ele>109.8</ele>
        <time>2017-12-17T15:02:38Z</time>
      </trkpt>
      <trkpt lat="48.80449" lon="2.13242">
        <ele>109.81</ele>
        <time>2017-12-17T15:02:57Z</time>
      </trkpt>
      <trkpt lat="48.80466" lon="2.13255">
        <ele>110.5</ele>
        <time>2017-12-17T15:03:15Z</time>
      </trkpt>
      <trkpt lat="48.80484" lon="2.13266">
        <ele>110.62</ele>
        <time>2017-12-17T15:03:29Z</time>
      </trkpt>
      <trkpt lat="48.80487" lon="2.13254">
        <ele>110.39</ele>
        <time>2017-12-17T15:03:42Z</time>
      </trkpt>
      <trkpt lat="48.80487" lon="2.13251">
        <ele>109.77</ele>
        <time>2017-12-17T15:03:44Z</time>
      </trkpt>
      <trkpt lat="48.80486" lon="2.13238">
        <ele>110.44</ele>
        <time>2017-12-17T15:03:59Z</time>
      </trkpt>
      <trkpt lat="48.80482" lon="2.1321">
        <ele>110.89</ele>
        <time>2017-12-17T15:04:16Z</time>
      </trkpt>
      <trkpt lat="48.80482" lon="2.13184">
        <ele>111.34</ele>
        <time>2017-12-17T15:04:31Z</time>
      </trkpt>
      <trkpt lat="48.80482" lon="2.13183">
        <ele>110.7</ele>
        <time>2017-12-17T15:04:32Z</time>
      </trkpt>
      <trkpt lat="48.8048" lon="2.13171">
        <ele>109.69</ele>
        <time>2017-12-17T15:04:39Z</time>
      </trkpt>
      <trkpt lat="48.8048" lon="2.13159">
        <ele>109.82</ele>
        <time>2017-12-17T15:04:55Z</time>
      </trkpt>
      <trkpt lat="48.80487" lon="2.13157">
        <ele>110.19</ele>
        <time>2017-12-17T15:05:12Z</time>
      </trkpt>
      <trkpt lat="48.80493" lon="2.13156">
        <ele>110.22</ele>
        <time>2017-12-17T15:05:38Z</time>
      </trkpt>
      <trkpt lat="48.80494" lon="2.13155">
        <ele>110.23</ele>
        <time>2017-12-17T15:06:03Z</time>
      </trkpt>
      <trkpt lat="48.80494" lon="2.13154">
        <ele>110.42</ele>
        <time>2017-12-17T15:06:31Z</time>
      </trkpt>
      <trkpt lat="48.80497" lon="2.13154">
        <ele>111.01</ele>
        <time>2017-12-17T15:06:34Z</time>
      </trkpt>
      <trkpt lat="48.80512" lon="2.13144">
        <ele>110.68</ele>
        <time>2017-12-17T15:06:50Z</time>
      </trkpt>
      <trkpt lat="48.80529" lon="2.13135">
        <ele>109.96</ele>
        <time>2017-12-17T15:07:06Z</time>
      </trkpt>
      <trkpt lat="48.80536" lon="2.13137">
        <ele>109.23</ele>
        <time>2017-12-17T15:07:19Z</time>
      </trkpt>
      <trkpt lat="48.80539" lon="2.1314">
        <ele>109.29</ele>
        <time>2017-12-17T15:07:24Z</time>
      </trkpt>
      <trkpt lat="48.80554" lon="2.1315">
        <ele>109.31</ele>
        <time>2017-12-17T15:07:39Z</time>
      </trkpt>
      <trkpt lat="48.8057" lon="2.13157">
        <ele>109.32</ele>
        <time>2017-12-17T15:07:54Z</time>
      </trkpt>
      <trkpt lat="48.8058" lon="2.13163">
        <ele>108.77</ele>
        <time>2017-12-17T15:08:02Z</time>
      </trkpt>
      <trkpt lat="48.806" lon="2.13178">
        <ele>108.25</ele>
        <time>2017-12-17T15:08:18Z</time>
      </trkpt>
      <trkpt lat="48.80619" lon="2.13193">
        <ele>107.69</ele>
        <time>2017-12-17T15:08:39Z</time>
      </trkpt>
      <trkpt lat="48.80622" lon="2.13197">
        <ele>107.97</ele>
        <time>2017-12-17T15:08:43Z</time>
      </trkpt>
      <trkpt lat="48.80625" lon="2.13199">
        <ele>108</ele>
        <time>2017-12-17T15:08:45Z</time>
      </trkpt>
      <trkpt lat="48.80629" lon="2.13204">
        <ele>107.43</ele>
        <time>2017-12-17T15:08:49Z</time>
      </trkpt>
      <trkpt lat="48.8064" lon="2.13215">
        <ele>107.61</ele>
        <time>2017-12-17T15:08:57Z</time>
      </trkpt>
      <trkpt lat="48.8065" lon="2.13224">
        <ele>107.74</ele>
        <time>2017-12-17T15:09:17Z</time>
      </trkpt>
      <trkpt lat="48.80654" lon="2.13223">
        <ele>107.58</ele>
        <time>2017-12-17T15:09:26Z</time>
      </trkpt>
      <trkpt lat="48.80659" lon="2.13226">
        <ele>107.77</ele>
        <time>2017-12-17T15:09:30Z</time>
      </trkpt>
      <trkpt lat="48.80682" lon="2.13233">
        <ele>107.6</ele>
        <time>2017-12-17T15:09:53Z</time>
      </trkpt>
      <trkpt lat="48.80684" lon="2.13237">
        <ele>107.47</ele>
        <time>2017-12-17T15:09:58Z</time>
      </trkpt>
      <trkpt lat="48.80706" lon="2.13241">
        <ele>106.69</ele>
        <time>2017-12-17T15:10:19Z</time>
      </trkpt>
      <trkpt lat="48.80722" lon="2.13248">
        <ele>106.21</ele>
        <time>2017-12-17T15:10:36Z</time>
      </trkpt>
      <trkpt lat="48.80732" lon="2.1325">
        <ele>105.82</ele>
        <time>2017-12-17T15:10:51Z</time>
      </trkpt>
      <trkpt lat="48.80748" lon="2.13261">
        <ele>106.12</ele>
        <time>2017-12-17T15:11:07Z</time>
      </trkpt>
      <trkpt lat="48.80772" lon="2.13274">
        <ele>105.15</ele>
        <time>2017-12-17T15:11:23Z</time>
      </trkpt>
      <trkpt lat="48.80784" lon="2.13279">
        <ele>105.04</ele>
        <time>2017-12-17T15:11:38Z</time>
      </trkpt>
      <trkpt lat="48.80798" lon="2.13297">
        <ele>105.03</ele>
        <time>2017-12-17T15:11:56Z</time>
      </trkpt>
      <trkpt lat="48.80801" lon="2.13304">
        <ele>105.2</ele>
        <time>2017-12-17T15:12:15Z</time>
      </trkpt>
      <trkpt lat="48.80798" lon="2.13303">
        <ele>104.92</ele>
        <time>2017-12-17T15:12:36Z</time>
      </trkpt>
      <trkpt lat="48.80802" lon="2.13329">
        <ele>105.57</ele>
        <time>2017-12-17T15:12:55Z</time>
      </trkpt>
      <trkpt lat="48.80801" lon="2.13341">
        <ele>105.38</ele>
        <time>2017-12-17T15:13:17Z</time>
      </trkpt>
      <trkpt lat="48.80801" lon="2.13364">
        <ele>106.23</ele>
        <time>2017-12-17T15:13:39Z</time>
      </trkpt>
      <trkpt lat="48.80797" lon="2.13375">
        <ele>105.83</ele>
        <time>2017-12-17T15:13:57Z</time>
      </trkpt>
      <trkpt lat="48.80798" lon="2.13379">
        <ele>106</ele>
        <time>2017-12-17T15:14:19Z</time>
      </trkpt>
      <trkpt lat="48.80797" lon="2.1338">
        <ele>106.37</ele>
        <time>2017-12-17T15:14:40Z</time>
      </trkpt>
      <trkpt lat="48.80798" lon="2.13382">
        <ele>106.13</ele>
        <time>2017-12-17T15:15:01Z</time>
      </trkpt>
      <trkpt lat="48.80799" lon="2.13382">
        <ele>106.33</ele>
        <time>2017-12-17T15:15:21Z</time>
      </trkpt>
      <trkpt lat="48.80798" lon="2.13386">
        <ele>106.37</ele>
        <time>2017-12-17T15:15:31Z</time>
      </trkpt>
      <trkpt lat="48.808" lon="2.13378">
        <ele>106.05</ele>
        <time>2017-12-17T15:15:52Z</time>
      </trkpt>
      <trkpt lat="48.80802" lon="2.13366">
        <ele>105.96</ele>
        <time>2017-12-17T15:16:08Z</time>
      </trkpt>
      <trkpt lat="48.80804" lon="2.13334">
        <ele>105.17</ele>
        <time>2017-12-17T15:16:28Z</time>
      </trkpt>
      <trkpt lat="48.80811" lon="2.13318">
        <ele>104.79</ele>
        <time>2017-12-17T15:16:48Z</time>
      </trkpt>
      <trkpt lat="48.80811" lon="2.13318">
        <ele>105.09</ele>
        <time>2017-12-17T15:16:49Z</time>
      </trkpt>
      <trkpt lat="48.80821" lon="2.1331">
        <ele>104.23</ele>
        <time>2017-12-17T15:17:02Z</time>
      </trkpt>
      <trkpt lat="48.80828" lon="2.13315">
        <ele>104.71</ele>
        <time>2017-12-17T15:17:10Z</time>
      </trkpt>
      <trkpt lat="48.80853" lon="2.13328">
        <ele>104.34</ele>
        <time>2017-12-17T15:17:32Z</time>
      </trkpt>
      <trkpt lat="48.80879" lon="2.13348">
        <ele>104.01</ele>
        <time>2017-12-17T15:17:50Z</time>
      </trkpt>
      <trkpt lat="48.80886" lon="2.13363">
        <ele>103.9</ele>
        <time>2017-12-17T15:18:03Z</time>
      </trkpt>
      <trkpt lat="48.80889" lon="2.13367">
        <ele>104.03</ele>
        <time>2017-12-17T15:18:25Z</time>
      </trkpt>
      <trkpt lat="48.80889" lon="2.13365">
        <ele>104.22</ele>
        <time>2017-12-17T15:18:46Z</time>
      </trkpt>
      <trkpt lat="48.80899" lon="2.13367">
        <ele>104.46</ele>
        <time>2017-12-17T15:19:06Z</time>
      </trkpt>
      <trkpt lat="48.80909" lon="2.13363">
        <ele>104.11</ele>
        <time>2017-12-17T15:19:22Z</time>
      </trkpt>
      <trkpt lat="48.80926" lon="2.13359">
        <ele>103.53</ele>
        <time>2017-12-17T15:19:39Z</time>
      </trkpt>
      <trkpt lat="48.80949" lon="2.13372">
        <ele>103.12</ele>
        <time>2017-12-17T15:20:01Z</time>
      </trkpt>
      <trkpt lat="48.80955" lon="2.13381">
        <ele>104.06</ele>
        <time>2017-12-17T15:20:05Z</time>
      </trkpt>
      <trkpt lat="48.80958" lon="2.13411">
        <ele>103.97</ele>
        <time>2017-12-17T15:20:18Z</time>
      </trkpt>
      <trkpt lat="48.80958" lon="2.13415">
        <ele>103.78</ele>
        <time>2017-12-17T15:20:43Z</time>
      </trkpt>
      <trkpt lat="48.80957" lon="2.13416">
        <ele>104.24</ele>
        <time>2017-12-17T15:21:08Z</time>
      </trkpt>
      <trkpt lat="48.80956" lon="2.13416">
        <ele>104.28</ele>
        <time>2017-12-17T15:21:25Z</time>
      </trkpt>
      <trkpt lat="48.80957" lon="2.13416">
        <ele>104.05</ele>
        <time>2017-12-17T15:21:53Z</time>
      </trkpt>
      <trkpt lat="48.80962" lon="2.1342">
        <ele>104.6</ele>
        <time>2017-12-17T15:22:19Z</time>
      </trkpt>
      <trkpt lat="48.80962" lon="2.13428">
        <ele>103.87</ele>
        <time>2017-12-17T15:22:31Z</time>
      </trkpt>
      <trkpt lat="48.80962" lon="2.13437">
        <ele>104.74</ele>
        <time>2017-12-17T15:22:39Z</time>
      </trkpt>
      <trkpt lat="48.80965" lon="2.13463">
        <ele>104.88</ele>
        <time>2017-12-17T15:22:57Z</time>
      </trkpt>
      <trkpt lat="48.80966" lon="2.13471">
        <ele>105.13</ele>
        <time>2017-12-17T15:23:02Z</time>
      </trkpt>
      <trkpt lat="48.80965" lon="2.13476">
        <ele>104.93</ele>
        <time>2017-12-17T15:23:07Z</time>
      </trkpt>
      <trkpt lat="48.80965" lon="2.13487">
        <ele>105.06</ele>
        <time>2017-12-17T15:23:15Z</time>
      </trkpt>
      <trkpt lat="48.80961" lon="2.13494">
        <ele>108.22</ele>
        <time>2017-12-17T15:23:25Z</time>
      </trkpt>
      <trkpt lat="48.8097" lon="2.13496">
        <ele>108.03</ele>
        <time>2017-12-17T15:23:44Z</time>
      </trkpt>
      <trkpt lat="48.80969" lon="2.13498">
        <ele>107.78</ele>
        <time>2017-12-17T15:23:57Z</time>
      </trkpt>
      <trkpt lat="48.80968" lon="2.13506">
        <ele>108.14</ele>
        <time>2017-12-17T15:24:02Z</time>
      </trkpt>
      <trkpt lat="48.80968" lon="2.13533">
        <ele>107.52</ele>
        <time>2017-12-17T15:24:27Z</time>
      </trkpt>
    </trkseg>
  </trk>
</gpx>